<?xml version="1.0" encoding="UTF-8" standalone="no" ?>
<gpx xmlns="http://www.topografix.com/GPX/1/1" xmlns:xsi="http://www.w3.org/2001/XMLSchema-instance" xsi:schemaLocation="http://www.topografix.com/GPX/1/1 http://www.topografix.com/GPX/1/1/gpx.xsd" version="1.1" creator="VisuGPX - https://www.visugpx.com">
  <metadata>
    <name>Lac de Peyrolle</name>
  </metadata>
  <trk>
    <name><![CDATA[lac de Payrolles]]></name>
    <extensions>
      <line xmlns="http://www.topografix.com/GPX/gpx_style/0/2">
        <color>0000FF</color>
        <width>4</width>
      </line>
    </extensions>
    <trkseg>
      <trkpt lat="42.94208" lon="0.32744">
        <ele>1539.207</ele>
        <time>2021-11-12T10:17:45Z</time>
      </trkpt>
      <trkpt lat="42.94208" lon="0.32744">
        <ele>1539.207</ele>
        <time>2021-11-12T10:17:45Z</time>
      </trkpt>
      <trkpt lat="42.94212" lon="0.32739">
        <ele>1532.081</ele>
        <time>2021-11-12T10:17:47Z</time>
      </trkpt>
      <trkpt lat="42.94213" lon="0.32729">
        <ele>1509.705</ele>
        <time>2021-11-12T10:17:52Z</time>
      </trkpt>
      <trkpt lat="42.94214" lon="0.32721">
        <ele>1498.102</ele>
        <time>2021-11-12T10:18:32Z</time>
      </trkpt>
      <trkpt lat="42.94221" lon="0.32725">
        <ele>1491.472</ele>
        <time>2021-11-12T10:20:30Z</time>
      </trkpt>
      <trkpt lat="42.94227" lon="0.32729">
        <ele>1489.846</ele>
        <time>2021-11-12T10:20:36Z</time>
      </trkpt>
      <trkpt lat="42.94231" lon="0.32721">
        <ele>1489.189</ele>
        <time>2021-11-12T10:20:45Z</time>
      </trkpt>
      <trkpt lat="42.94234" lon="0.32713">
        <ele>1489.951</ele>
        <time>2021-11-12T10:20:50Z</time>
      </trkpt>
      <trkpt lat="42.94238" lon="0.32704">
        <ele>1490.09</ele>
        <time>2021-11-12T10:20:56Z</time>
      </trkpt>
      <trkpt lat="42.94238" lon="0.32694">
        <ele>1490.853</ele>
        <time>2021-11-12T10:21:02Z</time>
      </trkpt>
      <trkpt lat="42.94231" lon="0.32691">
        <ele>1489.414</ele>
        <time>2021-11-12T10:21:25Z</time>
      </trkpt>
      <trkpt lat="42.94226" lon="0.32697">
        <ele>1487.581</ele>
        <time>2021-11-12T10:21:31Z</time>
      </trkpt>
      <trkpt lat="42.94225" lon="0.32707">
        <ele>1487.821</ele>
        <time>2021-11-12T10:21:38Z</time>
      </trkpt>
      <trkpt lat="42.94222" lon="0.32714">
        <ele>1487.521</ele>
        <time>2021-11-12T10:21:44Z</time>
      </trkpt>
      <trkpt lat="42.94215" lon="0.32717">
        <ele>1488.732</ele>
        <time>2021-11-12T10:21:52Z</time>
      </trkpt>
      <trkpt lat="42.94209" lon="0.32721">
        <ele>1487.2</ele>
        <time>2021-11-12T10:28:47Z</time>
      </trkpt>
      <trkpt lat="42.94202" lon="0.32718">
        <ele>1486.023</ele>
        <time>2021-11-12T10:29:39Z</time>
      </trkpt>
      <trkpt lat="42.94195" lon="0.32713">
        <ele>1487.599</ele>
        <time>2021-11-12T10:29:45Z</time>
      </trkpt>
      <trkpt lat="42.94189" lon="0.32708">
        <ele>1488.027</ele>
        <time>2021-11-12T10:29:51Z</time>
      </trkpt>
      <trkpt lat="42.94184" lon="0.32702">
        <ele>1488.648</ele>
        <time>2021-11-12T10:29:57Z</time>
      </trkpt>
      <trkpt lat="42.94177" lon="0.32699">
        <ele>1489.347</ele>
        <time>2021-11-12T10:30:02Z</time>
      </trkpt>
      <trkpt lat="42.94171" lon="0.32694">
        <ele>1489.561</ele>
        <time>2021-11-12T10:30:10Z</time>
      </trkpt>
      <trkpt lat="42.94166" lon="0.32688">
        <ele>1490.772</ele>
        <time>2021-11-12T10:30:17Z</time>
      </trkpt>
      <trkpt lat="42.94159" lon="0.32685">
        <ele>1491.369</ele>
        <time>2021-11-12T10:30:28Z</time>
      </trkpt>
      <trkpt lat="42.94153" lon="0.32681">
        <ele>1493.85</ele>
        <time>2021-11-12T10:30:35Z</time>
      </trkpt>
      <trkpt lat="42.94148" lon="0.32674">
        <ele>1496.54</ele>
        <time>2021-11-12T10:30:41Z</time>
      </trkpt>
      <trkpt lat="42.94142" lon="0.3267">
        <ele>1495.919</ele>
        <time>2021-11-12T10:30:48Z</time>
      </trkpt>
      <trkpt lat="42.94136" lon="0.32666">
        <ele>1493.655</ele>
        <time>2021-11-12T10:30:56Z</time>
      </trkpt>
      <trkpt lat="42.94131" lon="0.32659">
        <ele>1495.496</ele>
        <time>2021-11-12T10:31:04Z</time>
      </trkpt>
      <trkpt lat="42.94127" lon="0.3265">
        <ele>1497.274</ele>
        <time>2021-11-12T10:31:09Z</time>
      </trkpt>
      <trkpt lat="42.94125" lon="0.3264">
        <ele>1500.485</ele>
        <time>2021-11-12T10:31:17Z</time>
      </trkpt>
      <trkpt lat="42.94122" lon="0.32631">
        <ele>1500.016</ele>
        <time>2021-11-12T10:31:23Z</time>
      </trkpt>
      <trkpt lat="42.9412" lon="0.32622">
        <ele>1503.324</ele>
        <time>2021-11-12T10:31:29Z</time>
      </trkpt>
      <trkpt lat="42.94117" lon="0.32613">
        <ele>1504.127</ele>
        <time>2021-11-12T10:31:36Z</time>
      </trkpt>
      <trkpt lat="42.94113" lon="0.32604">
        <ele>1508.787</ele>
        <time>2021-11-12T10:31:51Z</time>
      </trkpt>
      <trkpt lat="42.94109" lon="0.32596">
        <ele>1508.733</ele>
        <time>2021-11-12T10:32:00Z</time>
      </trkpt>
      <trkpt lat="42.94105" lon="0.32587">
        <ele>1509.607</ele>
        <time>2021-11-12T10:32:09Z</time>
      </trkpt>
      <trkpt lat="42.94104" lon="0.32578">
        <ele>1511.808</ele>
        <time>2021-11-12T10:32:17Z</time>
      </trkpt>
      <trkpt lat="42.94099" lon="0.3257">
        <ele>1515.69</ele>
        <time>2021-11-12T10:32:26Z</time>
      </trkpt>
      <trkpt lat="42.94096" lon="0.32561">
        <ele>1512.98</ele>
        <time>2021-11-12T10:32:34Z</time>
      </trkpt>
      <trkpt lat="42.94094" lon="0.32553">
        <ele>1517.134</ele>
        <time>2021-11-12T10:32:42Z</time>
      </trkpt>
      <trkpt lat="42.94088" lon="0.32548">
        <ele>1514.134</ele>
        <time>2021-11-12T10:32:49Z</time>
      </trkpt>
      <trkpt lat="42.94082" lon="0.32541">
        <ele>1513.995</ele>
        <time>2021-11-12T10:32:58Z</time>
      </trkpt>
      <trkpt lat="42.94078" lon="0.32533">
        <ele>1513.063</ele>
        <time>2021-11-12T10:33:06Z</time>
      </trkpt>
      <trkpt lat="42.94075" lon="0.32526">
        <ele>1513.642</ele>
        <time>2021-11-12T10:33:11Z</time>
      </trkpt>
      <trkpt lat="42.94073" lon="0.32517">
        <ele>1516.588</ele>
        <time>2021-11-12T10:33:19Z</time>
      </trkpt>
      <trkpt lat="42.94075" lon="0.32508">
        <ele>1521.459</ele>
        <time>2021-11-12T10:33:30Z</time>
      </trkpt>
      <trkpt lat="42.94072" lon="0.32499">
        <ele>1522.166</ele>
        <time>2021-11-12T10:33:38Z</time>
      </trkpt>
      <trkpt lat="42.9407" lon="0.3249">
        <ele>1524.255</ele>
        <time>2021-11-12T10:33:45Z</time>
      </trkpt>
      <trkpt lat="42.9407" lon="0.32481">
        <ele>1525.868</ele>
        <time>2021-11-12T10:33:53Z</time>
      </trkpt>
      <trkpt lat="42.9407" lon="0.32471">
        <ele>1530.362</ele>
        <time>2021-11-12T10:34:10Z</time>
      </trkpt>
      <trkpt lat="42.94067" lon="0.32463">
        <ele>1528.441</ele>
        <time>2021-11-12T10:34:18Z</time>
      </trkpt>
      <trkpt lat="42.94061" lon="0.3245">
        <ele>1528.257</ele>
        <time>2021-11-12T10:34:23Z</time>
      </trkpt>
      <trkpt lat="42.94059" lon="0.32441">
        <ele>1529.954</ele>
        <time>2021-11-12T10:35:38Z</time>
      </trkpt>
      <trkpt lat="42.94051" lon="0.32421">
        <ele>1536.376</ele>
        <time>2021-11-12T10:35:43Z</time>
      </trkpt>
      <trkpt lat="42.9404" lon="0.32396">
        <ele>1538.827</ele>
        <time>2021-11-12T10:35:49Z</time>
      </trkpt>
      <trkpt lat="42.94041" lon="0.32387">
        <ele>1543.271</ele>
        <time>2021-11-12T10:36:01Z</time>
      </trkpt>
      <trkpt lat="42.94035" lon="0.32385">
        <ele>1534.943</ele>
        <time>2021-11-12T10:36:31Z</time>
      </trkpt>
      <trkpt lat="42.94025" lon="0.3237">
        <ele>1536.021</ele>
        <time>2021-11-12T10:36:37Z</time>
      </trkpt>
      <trkpt lat="42.94016" lon="0.32367">
        <ele>1544.439</ele>
        <time>2021-11-12T10:36:42Z</time>
      </trkpt>
      <trkpt lat="42.94006" lon="0.32365">
        <ele>1550.77</ele>
        <time>2021-11-12T10:36:47Z</time>
      </trkpt>
      <trkpt lat="42.94" lon="0.32365">
        <ele>1555.936</ele>
        <time>2021-11-12T10:36:59Z</time>
      </trkpt>
      <trkpt lat="42.93993" lon="0.32368">
        <ele>1558.544</ele>
        <time>2021-11-12T10:37:17Z</time>
      </trkpt>
      <trkpt lat="42.93985" lon="0.32369">
        <ele>1561.626</ele>
        <time>2021-11-12T10:37:24Z</time>
      </trkpt>
      <trkpt lat="42.93979" lon="0.32373">
        <ele>1564.262</ele>
        <time>2021-11-12T10:37:31Z</time>
      </trkpt>
      <trkpt lat="42.93972" lon="0.32374">
        <ele>1566.28</ele>
        <time>2021-11-12T10:37:49Z</time>
      </trkpt>
      <trkpt lat="42.93965" lon="0.32372">
        <ele>1568.852</ele>
        <time>2021-11-12T10:38:47Z</time>
      </trkpt>
      <trkpt lat="42.93959" lon="0.32368">
        <ele>1567.665</ele>
        <time>2021-11-12T10:38:55Z</time>
      </trkpt>
      <trkpt lat="42.93953" lon="0.32373">
        <ele>1570.873</ele>
        <time>2021-11-12T10:39:12Z</time>
      </trkpt>
      <trkpt lat="42.93945" lon="0.32373">
        <ele>1571.384</ele>
        <time>2021-11-12T10:39:18Z</time>
      </trkpt>
      <trkpt lat="42.93939" lon="0.32375">
        <ele>1568.742</ele>
        <time>2021-11-12T10:39:27Z</time>
      </trkpt>
      <trkpt lat="42.93932" lon="0.32365">
        <ele>1564.476</ele>
        <time>2021-11-12T10:39:33Z</time>
      </trkpt>
      <trkpt lat="42.93924" lon="0.32364">
        <ele>1570.403</ele>
        <time>2021-11-12T10:39:44Z</time>
      </trkpt>
      <trkpt lat="42.93916" lon="0.32361">
        <ele>1569.412</ele>
        <time>2021-11-12T10:39:49Z</time>
      </trkpt>
      <trkpt lat="42.9391" lon="0.32361">
        <ele>1574.056</ele>
        <time>2021-11-12T10:39:56Z</time>
      </trkpt>
      <trkpt lat="42.93903" lon="0.32359">
        <ele>1572.857</ele>
        <time>2021-11-12T10:40:04Z</time>
      </trkpt>
      <trkpt lat="42.93896" lon="0.32356">
        <ele>1568.371</ele>
        <time>2021-11-12T10:40:10Z</time>
      </trkpt>
      <trkpt lat="42.9389" lon="0.32355">
        <ele>1570.14</ele>
        <time>2021-11-12T10:40:20Z</time>
      </trkpt>
      <trkpt lat="42.93882" lon="0.3235">
        <ele>1570.138</ele>
        <time>2021-11-12T10:40:28Z</time>
      </trkpt>
      <trkpt lat="42.93875" lon="0.3235">
        <ele>1572.484</ele>
        <time>2021-11-12T10:40:34Z</time>
      </trkpt>
      <trkpt lat="42.93869" lon="0.32344">
        <ele>1572.129</ele>
        <time>2021-11-12T10:40:41Z</time>
      </trkpt>
      <trkpt lat="42.93862" lon="0.32342">
        <ele>1571.465</ele>
        <time>2021-11-12T10:40:46Z</time>
      </trkpt>
      <trkpt lat="42.93855" lon="0.32339">
        <ele>1570.88</ele>
        <time>2021-11-12T10:40:54Z</time>
      </trkpt>
      <trkpt lat="42.93848" lon="0.32337">
        <ele>1575.71</ele>
        <time>2021-11-12T10:40:59Z</time>
      </trkpt>
      <trkpt lat="42.93841" lon="0.32333">
        <ele>1574.746</ele>
        <time>2021-11-12T10:41:05Z</time>
      </trkpt>
      <trkpt lat="42.93834" lon="0.3233">
        <ele>1575.896</ele>
        <time>2021-11-12T10:41:11Z</time>
      </trkpt>
      <trkpt lat="42.93829" lon="0.32324">
        <ele>1583.782</ele>
        <time>2021-11-12T10:41:17Z</time>
      </trkpt>
      <trkpt lat="42.93823" lon="0.32319">
        <ele>1583.992</ele>
        <time>2021-11-12T10:41:24Z</time>
      </trkpt>
      <trkpt lat="42.93816" lon="0.32316">
        <ele>1585.95</ele>
        <time>2021-11-12T10:41:30Z</time>
      </trkpt>
      <trkpt lat="42.9381" lon="0.32312">
        <ele>1587.834</ele>
        <time>2021-11-12T10:41:36Z</time>
      </trkpt>
      <trkpt lat="42.93803" lon="0.3231">
        <ele>1587.607</ele>
        <time>2021-11-12T10:41:43Z</time>
      </trkpt>
      <trkpt lat="42.93796" lon="0.32305">
        <ele>1589.815</ele>
        <time>2021-11-12T10:41:50Z</time>
      </trkpt>
      <trkpt lat="42.93789" lon="0.323">
        <ele>1589.745</ele>
        <time>2021-11-12T10:41:56Z</time>
      </trkpt>
      <trkpt lat="42.93784" lon="0.32293">
        <ele>1589.247</ele>
        <time>2021-11-12T10:42:02Z</time>
      </trkpt>
      <trkpt lat="42.93777" lon="0.3229">
        <ele>1593.374</ele>
        <time>2021-11-12T10:42:08Z</time>
      </trkpt>
      <trkpt lat="42.9377" lon="0.32289">
        <ele>1595.365</ele>
        <time>2021-11-12T10:42:14Z</time>
      </trkpt>
      <trkpt lat="42.93763" lon="0.32289">
        <ele>1595.654</ele>
        <time>2021-11-12T10:42:20Z</time>
      </trkpt>
      <trkpt lat="42.93758" lon="0.32282">
        <ele>1597.478</ele>
        <time>2021-11-12T10:42:25Z</time>
      </trkpt>
      <trkpt lat="42.93752" lon="0.32277">
        <ele>1599.33</ele>
        <time>2021-11-12T10:42:31Z</time>
      </trkpt>
      <trkpt lat="42.93746" lon="0.32272">
        <ele>1599.925</ele>
        <time>2021-11-12T10:42:37Z</time>
      </trkpt>
      <trkpt lat="42.9374" lon="0.32267">
        <ele>1597.078</ele>
        <time>2021-11-12T10:42:43Z</time>
      </trkpt>
      <trkpt lat="42.93733" lon="0.32263">
        <ele>1598.452</ele>
        <time>2021-11-12T10:42:49Z</time>
      </trkpt>
      <trkpt lat="42.93725" lon="0.32263">
        <ele>1599.591</ele>
        <time>2021-11-12T10:42:54Z</time>
      </trkpt>
      <trkpt lat="42.93719" lon="0.32265">
        <ele>1600.482</ele>
        <time>2021-11-12T10:42:59Z</time>
      </trkpt>
      <trkpt lat="42.9371" lon="0.3227">
        <ele>1600.404</ele>
        <time>2021-11-12T10:43:05Z</time>
      </trkpt>
      <trkpt lat="42.93702" lon="0.32273">
        <ele>1602.821</ele>
        <time>2021-11-12T10:43:10Z</time>
      </trkpt>
      <trkpt lat="42.93695" lon="0.32273">
        <ele>1603.749</ele>
        <time>2021-11-12T10:43:15Z</time>
      </trkpt>
      <trkpt lat="42.93686" lon="0.32273">
        <ele>1601.11</ele>
        <time>2021-11-12T10:43:21Z</time>
      </trkpt>
      <trkpt lat="42.93679" lon="0.32274">
        <ele>1599.752</ele>
        <time>2021-11-12T10:43:27Z</time>
      </trkpt>
      <trkpt lat="42.93671" lon="0.32275">
        <ele>1601.268</ele>
        <time>2021-11-12T10:43:33Z</time>
      </trkpt>
      <trkpt lat="42.93667" lon="0.32283">
        <ele>1603.911</ele>
        <time>2021-11-12T10:43:38Z</time>
      </trkpt>
      <trkpt lat="42.93662" lon="0.32289">
        <ele>1606.65</ele>
        <time>2021-11-12T10:43:43Z</time>
      </trkpt>
      <trkpt lat="42.93649" lon="0.32286">
        <ele>1603.965</ele>
        <time>2021-11-12T10:43:49Z</time>
      </trkpt>
      <trkpt lat="42.93641" lon="0.32285">
        <ele>1610.903</ele>
        <time>2021-11-12T10:43:54Z</time>
      </trkpt>
      <trkpt lat="42.93634" lon="0.32288">
        <ele>1611.451</ele>
        <time>2021-11-12T10:44:00Z</time>
      </trkpt>
      <trkpt lat="42.93628" lon="0.32287">
        <ele>1605.21</ele>
        <time>2021-11-12T10:44:06Z</time>
      </trkpt>
      <trkpt lat="42.93618" lon="0.32285">
        <ele>1603.654</ele>
        <time>2021-11-12T10:44:11Z</time>
      </trkpt>
      <trkpt lat="42.9361" lon="0.32284">
        <ele>1604.544</ele>
        <time>2021-11-12T10:44:17Z</time>
      </trkpt>
      <trkpt lat="42.93602" lon="0.32279">
        <ele>1603.59</ele>
        <time>2021-11-12T10:44:22Z</time>
      </trkpt>
      <trkpt lat="42.93594" lon="0.3228">
        <ele>1605.466</ele>
        <time>2021-11-12T10:44:27Z</time>
      </trkpt>
      <trkpt lat="42.93586" lon="0.32283">
        <ele>1607.997</ele>
        <time>2021-11-12T10:44:33Z</time>
      </trkpt>
      <trkpt lat="42.93579" lon="0.3228">
        <ele>1606.776</ele>
        <time>2021-11-12T10:44:42Z</time>
      </trkpt>
      <trkpt lat="42.9357" lon="0.32272">
        <ele>1603.945</ele>
        <time>2021-11-12T10:44:47Z</time>
      </trkpt>
      <trkpt lat="42.93562" lon="0.32266">
        <ele>1606.121</ele>
        <time>2021-11-12T10:44:53Z</time>
      </trkpt>
      <trkpt lat="42.93555" lon="0.32264">
        <ele>1608.267</ele>
        <time>2021-11-12T10:44:59Z</time>
      </trkpt>
      <trkpt lat="42.93548" lon="0.32262">
        <ele>1607.118</ele>
        <time>2021-11-12T10:45:06Z</time>
      </trkpt>
      <trkpt lat="42.9354" lon="0.32258">
        <ele>1608.831</ele>
        <time>2021-11-12T10:45:12Z</time>
      </trkpt>
      <trkpt lat="42.93534" lon="0.32254">
        <ele>1608.997</ele>
        <time>2021-11-12T10:45:17Z</time>
      </trkpt>
      <trkpt lat="42.93527" lon="0.32252">
        <ele>1609.398</ele>
        <time>2021-11-12T10:45:23Z</time>
      </trkpt>
      <trkpt lat="42.9352" lon="0.3225">
        <ele>1611.354</ele>
        <time>2021-11-12T10:45:31Z</time>
      </trkpt>
      <trkpt lat="42.93513" lon="0.32239">
        <ele>1608.451</ele>
        <time>2021-11-12T10:45:37Z</time>
      </trkpt>
      <trkpt lat="42.93506" lon="0.32237">
        <ele>1609.827</ele>
        <time>2021-11-12T10:45:43Z</time>
      </trkpt>
      <trkpt lat="42.93499" lon="0.32232">
        <ele>1608.37</ele>
        <time>2021-11-12T10:45:51Z</time>
      </trkpt>
      <trkpt lat="42.93493" lon="0.32227">
        <ele>1609.568</ele>
        <time>2021-11-12T10:45:57Z</time>
      </trkpt>
      <trkpt lat="42.93486" lon="0.32222">
        <ele>1610.729</ele>
        <time>2021-11-12T10:46:02Z</time>
      </trkpt>
      <trkpt lat="42.93479" lon="0.32218">
        <ele>1607.779</ele>
        <time>2021-11-12T10:46:11Z</time>
      </trkpt>
      <trkpt lat="42.93471" lon="0.32209">
        <ele>1606.236</ele>
        <time>2021-11-12T10:46:17Z</time>
      </trkpt>
      <trkpt lat="42.93463" lon="0.32206">
        <ele>1609.421</ele>
        <time>2021-11-12T10:46:24Z</time>
      </trkpt>
      <trkpt lat="42.93455" lon="0.32196">
        <ele>1613.035</ele>
        <time>2021-11-12T10:46:29Z</time>
      </trkpt>
      <trkpt lat="42.93449" lon="0.32192">
        <ele>1613.551</ele>
        <time>2021-11-12T10:46:35Z</time>
      </trkpt>
      <trkpt lat="42.93443" lon="0.32194">
        <ele>1612.904</ele>
        <time>2021-11-12T10:46:41Z</time>
      </trkpt>
      <trkpt lat="42.93435" lon="0.32191">
        <ele>1616.524</ele>
        <time>2021-11-12T10:46:46Z</time>
      </trkpt>
      <trkpt lat="42.9343" lon="0.32185">
        <ele>1615.211</ele>
        <time>2021-11-12T10:46:51Z</time>
      </trkpt>
      <trkpt lat="42.93425" lon="0.32178">
        <ele>1612.946</ele>
        <time>2021-11-12T10:46:59Z</time>
      </trkpt>
      <trkpt lat="42.9342" lon="0.32171">
        <ele>1614.876</ele>
        <time>2021-11-12T10:47:05Z</time>
      </trkpt>
      <trkpt lat="42.93413" lon="0.32172">
        <ele>1614.394</ele>
        <time>2021-11-12T10:47:12Z</time>
      </trkpt>
      <trkpt lat="42.93405" lon="0.32169">
        <ele>1615.349</ele>
        <time>2021-11-12T10:47:18Z</time>
      </trkpt>
      <trkpt lat="42.934" lon="0.32161">
        <ele>1614.799</ele>
        <time>2021-11-12T10:47:23Z</time>
      </trkpt>
      <trkpt lat="42.93393" lon="0.32156">
        <ele>1617.268</ele>
        <time>2021-11-12T10:47:29Z</time>
      </trkpt>
      <trkpt lat="42.9339" lon="0.32147">
        <ele>1616.27</ele>
        <time>2021-11-12T10:47:35Z</time>
      </trkpt>
      <trkpt lat="42.93384" lon="0.32139">
        <ele>1613.805</ele>
        <time>2021-11-12T10:47:41Z</time>
      </trkpt>
      <trkpt lat="42.9338" lon="0.32126">
        <ele>1615.697</ele>
        <time>2021-11-12T10:47:46Z</time>
      </trkpt>
      <trkpt lat="42.93375" lon="0.32117">
        <ele>1615.183</ele>
        <time>2021-11-12T10:47:51Z</time>
      </trkpt>
      <trkpt lat="42.93367" lon="0.32108">
        <ele>1611.73</ele>
        <time>2021-11-12T10:47:57Z</time>
      </trkpt>
      <trkpt lat="42.93362" lon="0.32102">
        <ele>1612.156</ele>
        <time>2021-11-12T10:48:04Z</time>
      </trkpt>
      <trkpt lat="42.93357" lon="0.32097">
        <ele>1611.138</ele>
        <time>2021-11-12T10:48:10Z</time>
      </trkpt>
      <trkpt lat="42.93351" lon="0.32091">
        <ele>1609.655</ele>
        <time>2021-11-12T10:48:15Z</time>
      </trkpt>
      <trkpt lat="42.93345" lon="0.32084">
        <ele>1610.514</ele>
        <time>2021-11-12T10:48:21Z</time>
      </trkpt>
      <trkpt lat="42.9334" lon="0.32075">
        <ele>1610.604</ele>
        <time>2021-11-12T10:48:27Z</time>
      </trkpt>
      <trkpt lat="42.93334" lon="0.32061">
        <ele>1615.127</ele>
        <time>2021-11-12T10:48:33Z</time>
      </trkpt>
      <trkpt lat="42.93328" lon="0.32057">
        <ele>1615.53</ele>
        <time>2021-11-12T10:48:38Z</time>
      </trkpt>
      <trkpt lat="42.93323" lon="0.32051">
        <ele>1616.308</ele>
        <time>2021-11-12T10:48:44Z</time>
      </trkpt>
      <trkpt lat="42.93318" lon="0.32045">
        <ele>1615.663</ele>
        <time>2021-11-12T10:48:49Z</time>
      </trkpt>
      <trkpt lat="42.93312" lon="0.32037">
        <ele>1615.306</ele>
        <time>2021-11-12T10:48:55Z</time>
      </trkpt>
      <trkpt lat="42.93308" lon="0.32029">
        <ele>1615.293</ele>
        <time>2021-11-12T10:49:01Z</time>
      </trkpt>
      <trkpt lat="42.93305" lon="0.3202">
        <ele>1614.397</ele>
        <time>2021-11-12T10:49:07Z</time>
      </trkpt>
      <trkpt lat="42.93299" lon="0.32011">
        <ele>1610.584</ele>
        <time>2021-11-12T10:49:13Z</time>
      </trkpt>
      <trkpt lat="42.93296" lon="0.32002">
        <ele>1610.839</ele>
        <time>2021-11-12T10:49:19Z</time>
      </trkpt>
      <trkpt lat="42.93293" lon="0.31989">
        <ele>1610.024</ele>
        <time>2021-11-12T10:49:25Z</time>
      </trkpt>
      <trkpt lat="42.93289" lon="0.31981">
        <ele>1611.979</ele>
        <time>2021-11-12T10:49:30Z</time>
      </trkpt>
      <trkpt lat="42.93283" lon="0.31975">
        <ele>1613.877</ele>
        <time>2021-11-12T10:49:36Z</time>
      </trkpt>
      <trkpt lat="42.93281" lon="0.31966">
        <ele>1613.43</ele>
        <time>2021-11-12T10:49:45Z</time>
      </trkpt>
      <trkpt lat="42.9328" lon="0.31954">
        <ele>1611.942</ele>
        <time>2021-11-12T10:49:50Z</time>
      </trkpt>
      <trkpt lat="42.9328" lon="0.31944">
        <ele>1614.283</ele>
        <time>2021-11-12T10:49:56Z</time>
      </trkpt>
      <trkpt lat="42.93278" lon="0.3193">
        <ele>1615.272</ele>
        <time>2021-11-12T10:50:01Z</time>
      </trkpt>
      <trkpt lat="42.93276" lon="0.31918">
        <ele>1614.37</ele>
        <time>2021-11-12T10:50:06Z</time>
      </trkpt>
      <trkpt lat="42.93274" lon="0.3191">
        <ele>1613.099</ele>
        <time>2021-11-12T10:50:13Z</time>
      </trkpt>
      <trkpt lat="42.93271" lon="0.319">
        <ele>1612.713</ele>
        <time>2021-11-12T10:50:19Z</time>
      </trkpt>
      <trkpt lat="42.93268" lon="0.31891">
        <ele>1610.921</ele>
        <time>2021-11-12T10:50:27Z</time>
      </trkpt>
      <trkpt lat="42.93264" lon="0.31881">
        <ele>1612.998</ele>
        <time>2021-11-12T10:50:33Z</time>
      </trkpt>
      <trkpt lat="42.93259" lon="0.3187">
        <ele>1613.584</ele>
        <time>2021-11-12T10:50:38Z</time>
      </trkpt>
      <trkpt lat="42.93253" lon="0.31862">
        <ele>1613.33</ele>
        <time>2021-11-12T10:50:43Z</time>
      </trkpt>
      <trkpt lat="42.93248" lon="0.31858">
        <ele>1612.837</ele>
        <time>2021-11-12T10:50:50Z</time>
      </trkpt>
      <trkpt lat="42.93242" lon="0.31853">
        <ele>1612.769</ele>
        <time>2021-11-12T10:50:56Z</time>
      </trkpt>
      <trkpt lat="42.93234" lon="0.3185">
        <ele>1613.417</ele>
        <time>2021-11-12T10:51:01Z</time>
      </trkpt>
      <trkpt lat="42.93226" lon="0.31854">
        <ele>1610.279</ele>
        <time>2021-11-12T10:51:06Z</time>
      </trkpt>
      <trkpt lat="42.93221" lon="0.31859">
        <ele>1611.69</ele>
        <time>2021-11-12T10:51:11Z</time>
      </trkpt>
      <trkpt lat="42.93215" lon="0.31863">
        <ele>1608.096</ele>
        <time>2021-11-12T10:51:20Z</time>
      </trkpt>
      <trkpt lat="42.93209" lon="0.31868">
        <ele>1607.65</ele>
        <time>2021-11-12T10:51:29Z</time>
      </trkpt>
      <trkpt lat="42.932" lon="0.31879">
        <ele>1609.785</ele>
        <time>2021-11-12T10:51:34Z</time>
      </trkpt>
      <trkpt lat="42.93192" lon="0.31886">
        <ele>1608.763</ele>
        <time>2021-11-12T10:51:42Z</time>
      </trkpt>
      <trkpt lat="42.93185" lon="0.31887">
        <ele>1609.377</ele>
        <time>2021-11-12T10:51:47Z</time>
      </trkpt>
      <trkpt lat="42.93178" lon="0.31885">
        <ele>1613.24</ele>
        <time>2021-11-12T10:51:53Z</time>
      </trkpt>
      <trkpt lat="42.93171" lon="0.31887">
        <ele>1608.048</ele>
        <time>2021-11-12T10:51:58Z</time>
      </trkpt>
      <trkpt lat="42.93165" lon="0.31887">
        <ele>1603.923</ele>
        <time>2021-11-12T10:52:03Z</time>
      </trkpt>
      <trkpt lat="42.93156" lon="0.31886">
        <ele>1604.211</ele>
        <time>2021-11-12T10:52:09Z</time>
      </trkpt>
      <trkpt lat="42.93149" lon="0.3189">
        <ele>1597.629</ele>
        <time>2021-11-12T10:52:15Z</time>
      </trkpt>
      <trkpt lat="42.93141" lon="0.31893">
        <ele>1597.395</ele>
        <time>2021-11-12T10:52:21Z</time>
      </trkpt>
      <trkpt lat="42.93133" lon="0.31896">
        <ele>1598.162</ele>
        <time>2021-11-12T10:52:26Z</time>
      </trkpt>
      <trkpt lat="42.93127" lon="0.31896">
        <ele>1595.978</ele>
        <time>2021-11-12T10:52:31Z</time>
      </trkpt>
      <trkpt lat="42.93119" lon="0.31899">
        <ele>1594.974</ele>
        <time>2021-11-12T10:52:37Z</time>
      </trkpt>
      <trkpt lat="42.93112" lon="0.319">
        <ele>1594.772</ele>
        <time>2021-11-12T10:52:42Z</time>
      </trkpt>
      <trkpt lat="42.93105" lon="0.319">
        <ele>1593.631</ele>
        <time>2021-11-12T10:52:47Z</time>
      </trkpt>
      <trkpt lat="42.93096" lon="0.31901">
        <ele>1593.7</ele>
        <time>2021-11-12T10:52:53Z</time>
      </trkpt>
      <trkpt lat="42.93089" lon="0.31903">
        <ele>1592.415</ele>
        <time>2021-11-12T10:52:58Z</time>
      </trkpt>
      <trkpt lat="42.93082" lon="0.31903">
        <ele>1593.609</ele>
        <time>2021-11-12T10:53:03Z</time>
      </trkpt>
      <trkpt lat="42.93072" lon="0.31904">
        <ele>1593.446</ele>
        <time>2021-11-12T10:53:09Z</time>
      </trkpt>
      <trkpt lat="42.93064" lon="0.31902">
        <ele>1593.933</ele>
        <time>2021-11-12T10:53:14Z</time>
      </trkpt>
      <trkpt lat="42.93057" lon="0.31903">
        <ele>1594.037</ele>
        <time>2021-11-12T10:53:19Z</time>
      </trkpt>
      <trkpt lat="42.93048" lon="0.31903">
        <ele>1596.857</ele>
        <time>2021-11-12T10:53:25Z</time>
      </trkpt>
      <trkpt lat="42.93042" lon="0.319">
        <ele>1594.278</ele>
        <time>2021-11-12T10:53:31Z</time>
      </trkpt>
      <trkpt lat="42.93035" lon="0.31896">
        <ele>1592.105</ele>
        <time>2021-11-12T10:53:37Z</time>
      </trkpt>
      <trkpt lat="42.93028" lon="0.31893">
        <ele>1593.799</ele>
        <time>2021-11-12T10:53:43Z</time>
      </trkpt>
      <trkpt lat="42.93022" lon="0.31888">
        <ele>1594.054</ele>
        <time>2021-11-12T10:53:49Z</time>
      </trkpt>
      <trkpt lat="42.93016" lon="0.31885">
        <ele>1593.376</ele>
        <time>2021-11-12T10:53:55Z</time>
      </trkpt>
      <trkpt lat="42.93009" lon="0.3188">
        <ele>1593.57</ele>
        <time>2021-11-12T10:54:01Z</time>
      </trkpt>
      <trkpt lat="42.93002" lon="0.31878">
        <ele>1592.143</ele>
        <time>2021-11-12T10:54:08Z</time>
      </trkpt>
      <trkpt lat="42.92997" lon="0.3187">
        <ele>1593.842</ele>
        <time>2021-11-12T10:54:15Z</time>
      </trkpt>
      <trkpt lat="42.9299" lon="0.3187">
        <ele>1589.146</ele>
        <time>2021-11-12T10:54:21Z</time>
      </trkpt>
      <trkpt lat="42.92983" lon="0.31865">
        <ele>1590.261</ele>
        <time>2021-11-12T10:54:27Z</time>
      </trkpt>
      <trkpt lat="42.92976" lon="0.31861">
        <ele>1589.49</ele>
        <time>2021-11-12T10:54:33Z</time>
      </trkpt>
      <trkpt lat="42.92969" lon="0.31859">
        <ele>1588.618</ele>
        <time>2021-11-12T10:54:40Z</time>
      </trkpt>
      <trkpt lat="42.92963" lon="0.31857">
        <ele>1593.689</ele>
        <time>2021-11-12T10:54:46Z</time>
      </trkpt>
      <trkpt lat="42.92956" lon="0.31851">
        <ele>1594.238</ele>
        <time>2021-11-12T10:54:51Z</time>
      </trkpt>
      <trkpt lat="42.92948" lon="0.31844">
        <ele>1596.499</ele>
        <time>2021-11-12T10:54:57Z</time>
      </trkpt>
      <trkpt lat="42.92942" lon="0.31839">
        <ele>1597.735</ele>
        <time>2021-11-12T10:55:03Z</time>
      </trkpt>
      <trkpt lat="42.92937" lon="0.31831">
        <ele>1595.946</ele>
        <time>2021-11-12T10:55:09Z</time>
      </trkpt>
      <trkpt lat="42.92931" lon="0.31826">
        <ele>1596.895</ele>
        <time>2021-11-12T10:55:14Z</time>
      </trkpt>
      <trkpt lat="42.92924" lon="0.31822">
        <ele>1596.588</ele>
        <time>2021-11-12T10:55:21Z</time>
      </trkpt>
      <trkpt lat="42.92918" lon="0.31815">
        <ele>1594.133</ele>
        <time>2021-11-12T10:55:26Z</time>
      </trkpt>
      <trkpt lat="42.92912" lon="0.31812">
        <ele>1596.961</ele>
        <time>2021-11-12T10:55:31Z</time>
      </trkpt>
      <trkpt lat="42.92904" lon="0.31807">
        <ele>1597.263</ele>
        <time>2021-11-12T10:55:37Z</time>
      </trkpt>
      <trkpt lat="42.929" lon="0.31799">
        <ele>1600.982</ele>
        <time>2021-11-12T10:55:43Z</time>
      </trkpt>
      <trkpt lat="42.92894" lon="0.3179">
        <ele>1600.582</ele>
        <time>2021-11-12T10:55:49Z</time>
      </trkpt>
      <trkpt lat="42.92889" lon="0.31782">
        <ele>1601.852</ele>
        <time>2021-11-12T10:55:54Z</time>
      </trkpt>
      <trkpt lat="42.92885" lon="0.31774">
        <ele>1597.816</ele>
        <time>2021-11-12T10:56:01Z</time>
      </trkpt>
      <trkpt lat="42.92882" lon="0.31766">
        <ele>1597.524</ele>
        <time>2021-11-12T10:56:07Z</time>
      </trkpt>
      <trkpt lat="42.92877" lon="0.31753">
        <ele>1595.339</ele>
        <time>2021-11-12T10:56:13Z</time>
      </trkpt>
      <trkpt lat="42.92874" lon="0.31742">
        <ele>1600.593</ele>
        <time>2021-11-12T10:56:18Z</time>
      </trkpt>
      <trkpt lat="42.92871" lon="0.31732">
        <ele>1603.225</ele>
        <time>2021-11-12T10:56:23Z</time>
      </trkpt>
      <trkpt lat="42.92864" lon="0.31731">
        <ele>1600.659</ele>
        <time>2021-11-12T10:56:31Z</time>
      </trkpt>
      <trkpt lat="42.92857" lon="0.31726">
        <ele>1601.486</ele>
        <time>2021-11-12T10:56:37Z</time>
      </trkpt>
      <trkpt lat="42.92851" lon="0.31724">
        <ele>1604.106</ele>
        <time>2021-11-12T10:56:42Z</time>
      </trkpt>
      <trkpt lat="42.92845" lon="0.31725">
        <ele>1603.343</ele>
        <time>2021-11-12T10:56:48Z</time>
      </trkpt>
      <trkpt lat="42.92837" lon="0.31726">
        <ele>1598.932</ele>
        <time>2021-11-12T10:56:57Z</time>
      </trkpt>
      <trkpt lat="42.92827" lon="0.31725">
        <ele>1597.802</ele>
        <time>2021-11-12T10:57:02Z</time>
      </trkpt>
      <trkpt lat="42.92819" lon="0.31724">
        <ele>1599.182</ele>
        <time>2021-11-12T10:57:07Z</time>
      </trkpt>
      <trkpt lat="42.92811" lon="0.31723">
        <ele>1600.109</ele>
        <time>2021-11-12T10:57:13Z</time>
      </trkpt>
      <trkpt lat="42.92803" lon="0.31723">
        <ele>1599.26</ele>
        <time>2021-11-12T10:57:18Z</time>
      </trkpt>
      <trkpt lat="42.92796" lon="0.31723">
        <ele>1595.205</ele>
        <time>2021-11-12T10:57:23Z</time>
      </trkpt>
      <trkpt lat="42.92789" lon="0.31725">
        <ele>1592.061</ele>
        <time>2021-11-12T10:57:29Z</time>
      </trkpt>
      <trkpt lat="42.92782" lon="0.31725">
        <ele>1590.711</ele>
        <time>2021-11-12T10:57:36Z</time>
      </trkpt>
      <trkpt lat="42.92774" lon="0.31718">
        <ele>1592.377</ele>
        <time>2021-11-12T10:57:41Z</time>
      </trkpt>
      <trkpt lat="42.92767" lon="0.31714">
        <ele>1592.02</ele>
        <time>2021-11-12T10:57:46Z</time>
      </trkpt>
      <trkpt lat="42.92762" lon="0.31709">
        <ele>1595.908</ele>
        <time>2021-11-12T10:57:51Z</time>
      </trkpt>
      <trkpt lat="42.92752" lon="0.31707">
        <ele>1598.382</ele>
        <time>2021-11-12T10:57:56Z</time>
      </trkpt>
      <trkpt lat="42.92744" lon="0.31708">
        <ele>1598.697</ele>
        <time>2021-11-12T10:58:01Z</time>
      </trkpt>
      <trkpt lat="42.92737" lon="0.3171">
        <ele>1597.918</ele>
        <time>2021-11-12T10:58:07Z</time>
      </trkpt>
      <trkpt lat="42.92729" lon="0.31714">
        <ele>1600.263</ele>
        <time>2021-11-12T10:58:13Z</time>
      </trkpt>
      <trkpt lat="42.92723" lon="0.31717">
        <ele>1600.683</ele>
        <time>2021-11-12T10:58:18Z</time>
      </trkpt>
      <trkpt lat="42.92716" lon="0.31717">
        <ele>1600.194</ele>
        <time>2021-11-12T10:58:23Z</time>
      </trkpt>
      <trkpt lat="42.92707" lon="0.31715">
        <ele>1600.903</ele>
        <time>2021-11-12T10:58:29Z</time>
      </trkpt>
      <trkpt lat="42.927" lon="0.31711">
        <ele>1602.431</ele>
        <time>2021-11-12T10:58:35Z</time>
      </trkpt>
      <trkpt lat="42.92693" lon="0.31705">
        <ele>1603.235</ele>
        <time>2021-11-12T10:58:41Z</time>
      </trkpt>
      <trkpt lat="42.92687" lon="0.317">
        <ele>1602.383</ele>
        <time>2021-11-12T10:58:47Z</time>
      </trkpt>
      <trkpt lat="42.92682" lon="0.31694">
        <ele>1601.483</ele>
        <time>2021-11-12T10:58:53Z</time>
      </trkpt>
      <trkpt lat="42.92677" lon="0.31689">
        <ele>1601.092</ele>
        <time>2021-11-12T10:58:59Z</time>
      </trkpt>
      <trkpt lat="42.9267" lon="0.31686">
        <ele>1600.557</ele>
        <time>2021-11-12T10:59:06Z</time>
      </trkpt>
      <trkpt lat="42.92662" lon="0.31684">
        <ele>1601.577</ele>
        <time>2021-11-12T10:59:17Z</time>
      </trkpt>
      <trkpt lat="42.92656" lon="0.31681">
        <ele>1604.399</ele>
        <time>2021-11-12T10:59:22Z</time>
      </trkpt>
      <trkpt lat="42.92648" lon="0.3168">
        <ele>1606.099</ele>
        <time>2021-11-12T10:59:30Z</time>
      </trkpt>
      <trkpt lat="42.92641" lon="0.31682">
        <ele>1606.509</ele>
        <time>2021-11-12T10:59:36Z</time>
      </trkpt>
      <trkpt lat="42.92634" lon="0.31679">
        <ele>1607.772</ele>
        <time>2021-11-12T10:59:42Z</time>
      </trkpt>
      <trkpt lat="42.92627" lon="0.31676">
        <ele>1609.476</ele>
        <time>2021-11-12T10:59:48Z</time>
      </trkpt>
      <trkpt lat="42.92621" lon="0.31672">
        <ele>1608.142</ele>
        <time>2021-11-12T10:59:56Z</time>
      </trkpt>
      <trkpt lat="42.92614" lon="0.31669">
        <ele>1607.368</ele>
        <time>2021-11-12T11:00:07Z</time>
      </trkpt>
      <trkpt lat="42.92607" lon="0.31668">
        <ele>1609.389</ele>
        <time>2021-11-12T11:00:13Z</time>
      </trkpt>
      <trkpt lat="42.92602" lon="0.31663">
        <ele>1618.492</ele>
        <time>2021-11-12T11:00:21Z</time>
      </trkpt>
      <trkpt lat="42.92595" lon="0.31665">
        <ele>1620.575</ele>
        <time>2021-11-12T11:00:28Z</time>
      </trkpt>
      <trkpt lat="42.92593" lon="0.31655">
        <ele>1619.1</ele>
        <time>2021-11-12T11:01:36Z</time>
      </trkpt>
      <trkpt lat="42.92586" lon="0.3165">
        <ele>1619.879</ele>
        <time>2021-11-12T11:01:41Z</time>
      </trkpt>
      <trkpt lat="42.92579" lon="0.31648">
        <ele>1620.755</ele>
        <time>2021-11-12T11:01:46Z</time>
      </trkpt>
      <trkpt lat="42.92572" lon="0.31645">
        <ele>1620.067</ele>
        <time>2021-11-12T11:01:51Z</time>
      </trkpt>
      <trkpt lat="42.92566" lon="0.31641">
        <ele>1620.546</ele>
        <time>2021-11-12T11:01:59Z</time>
      </trkpt>
      <trkpt lat="42.92562" lon="0.31633">
        <ele>1622.774</ele>
        <time>2021-11-12T11:02:08Z</time>
      </trkpt>
      <trkpt lat="42.92556" lon="0.3163">
        <ele>1623.175</ele>
        <time>2021-11-12T11:02:17Z</time>
      </trkpt>
      <trkpt lat="42.92551" lon="0.31623">
        <ele>1624.525</ele>
        <time>2021-11-12T11:02:22Z</time>
      </trkpt>
      <trkpt lat="42.92545" lon="0.31619">
        <ele>1625.377</ele>
        <time>2021-11-12T11:02:28Z</time>
      </trkpt>
      <trkpt lat="42.92538" lon="0.31614">
        <ele>1625.788</ele>
        <time>2021-11-12T11:02:34Z</time>
      </trkpt>
      <trkpt lat="42.92531" lon="0.31612">
        <ele>1625.952</ele>
        <time>2021-11-12T11:02:40Z</time>
      </trkpt>
      <trkpt lat="42.92527" lon="0.31606">
        <ele>1627.5</ele>
        <time>2021-11-12T11:02:45Z</time>
      </trkpt>
      <trkpt lat="42.92522" lon="0.31598">
        <ele>1631.54</ele>
        <time>2021-11-12T11:02:53Z</time>
      </trkpt>
      <trkpt lat="42.92516" lon="0.31591">
        <ele>1632.989</ele>
        <time>2021-11-12T11:02:58Z</time>
      </trkpt>
      <trkpt lat="42.9251" lon="0.31586">
        <ele>1633.125</ele>
        <time>2021-11-12T11:03:04Z</time>
      </trkpt>
      <trkpt lat="42.92503" lon="0.31585">
        <ele>1634.804</ele>
        <time>2021-11-12T11:03:13Z</time>
      </trkpt>
      <trkpt lat="42.92497" lon="0.31581">
        <ele>1636.279</ele>
        <time>2021-11-12T11:03:20Z</time>
      </trkpt>
      <trkpt lat="42.92492" lon="0.31576">
        <ele>1639.008</ele>
        <time>2021-11-12T11:03:28Z</time>
      </trkpt>
      <trkpt lat="42.92485" lon="0.31573">
        <ele>1639.823</ele>
        <time>2021-11-12T11:03:35Z</time>
      </trkpt>
      <trkpt lat="42.92483" lon="0.31565">
        <ele>1640.619</ele>
        <time>2021-11-12T11:03:41Z</time>
      </trkpt>
      <trkpt lat="42.92479" lon="0.31557">
        <ele>1641.39</ele>
        <time>2021-11-12T11:03:49Z</time>
      </trkpt>
      <trkpt lat="42.92474" lon="0.31551">
        <ele>1640.778</ele>
        <time>2021-11-12T11:03:57Z</time>
      </trkpt>
      <trkpt lat="42.92467" lon="0.31547">
        <ele>1640.959</ele>
        <time>2021-11-12T11:04:03Z</time>
      </trkpt>
      <trkpt lat="42.9246" lon="0.31538">
        <ele>1640.193</ele>
        <time>2021-11-12T11:04:09Z</time>
      </trkpt>
      <trkpt lat="42.92455" lon="0.31531">
        <ele>1641.52</ele>
        <time>2021-11-12T11:04:14Z</time>
      </trkpt>
      <trkpt lat="42.9245" lon="0.31524">
        <ele>1644.237</ele>
        <time>2021-11-12T11:04:20Z</time>
      </trkpt>
      <trkpt lat="42.92444" lon="0.31519">
        <ele>1643.692</ele>
        <time>2021-11-12T11:04:26Z</time>
      </trkpt>
      <trkpt lat="42.92437" lon="0.31516">
        <ele>1644.123</ele>
        <time>2021-11-12T11:04:32Z</time>
      </trkpt>
      <trkpt lat="42.92431" lon="0.31512">
        <ele>1645.419</ele>
        <time>2021-11-12T11:04:40Z</time>
      </trkpt>
      <trkpt lat="42.92425" lon="0.3151">
        <ele>1645.058</ele>
        <time>2021-11-12T11:04:46Z</time>
      </trkpt>
      <trkpt lat="42.92419" lon="0.31506">
        <ele>1647.055</ele>
        <time>2021-11-12T11:04:54Z</time>
      </trkpt>
      <trkpt lat="42.92412" lon="0.31503">
        <ele>1650.164</ele>
        <time>2021-11-12T11:05:02Z</time>
      </trkpt>
      <trkpt lat="42.92406" lon="0.31501">
        <ele>1652.976</ele>
        <time>2021-11-12T11:05:11Z</time>
      </trkpt>
      <trkpt lat="42.924" lon="0.31497">
        <ele>1656.331</ele>
        <time>2021-11-12T11:05:28Z</time>
      </trkpt>
      <trkpt lat="42.92393" lon="0.315">
        <ele>1657.727</ele>
        <time>2021-11-12T11:05:37Z</time>
      </trkpt>
      <trkpt lat="42.92386" lon="0.31499">
        <ele>1661.311</ele>
        <time>2021-11-12T11:05:47Z</time>
      </trkpt>
      <trkpt lat="42.92381" lon="0.31494">
        <ele>1663.391</ele>
        <time>2021-11-12T11:05:56Z</time>
      </trkpt>
      <trkpt lat="42.92375" lon="0.31489">
        <ele>1665.096</ele>
        <time>2021-11-12T11:06:04Z</time>
      </trkpt>
      <trkpt lat="42.92369" lon="0.31485">
        <ele>1666.675</ele>
        <time>2021-11-12T11:06:13Z</time>
      </trkpt>
      <trkpt lat="42.92363" lon="0.3148">
        <ele>1669.224</ele>
        <time>2021-11-12T11:06:25Z</time>
      </trkpt>
      <trkpt lat="42.92356" lon="0.31478">
        <ele>1669.11</ele>
        <time>2021-11-12T11:06:41Z</time>
      </trkpt>
      <trkpt lat="42.92349" lon="0.31478">
        <ele>1671.854</ele>
        <time>2021-11-12T11:06:52Z</time>
      </trkpt>
      <trkpt lat="42.92342" lon="0.31475">
        <ele>1673.032</ele>
        <time>2021-11-12T11:07:01Z</time>
      </trkpt>
      <trkpt lat="42.92337" lon="0.31471">
        <ele>1674.383</ele>
        <time>2021-11-12T11:07:08Z</time>
      </trkpt>
      <trkpt lat="42.9233" lon="0.31468">
        <ele>1675.544</ele>
        <time>2021-11-12T11:07:21Z</time>
      </trkpt>
      <trkpt lat="42.92323" lon="0.31468">
        <ele>1676.932</ele>
        <time>2021-11-12T11:07:30Z</time>
      </trkpt>
      <trkpt lat="42.92316" lon="0.31466">
        <ele>1678.854</ele>
        <time>2021-11-12T11:07:43Z</time>
      </trkpt>
      <trkpt lat="42.92309" lon="0.31463">
        <ele>1682.126</ele>
        <time>2021-11-12T11:07:55Z</time>
      </trkpt>
      <trkpt lat="42.92303" lon="0.31459">
        <ele>1684.122</ele>
        <time>2021-11-12T11:08:02Z</time>
      </trkpt>
      <trkpt lat="42.92296" lon="0.31454">
        <ele>1684.589</ele>
        <time>2021-11-12T11:08:08Z</time>
      </trkpt>
      <trkpt lat="42.9229" lon="0.31449">
        <ele>1685.551</ele>
        <time>2021-11-12T11:08:16Z</time>
      </trkpt>
      <trkpt lat="42.92284" lon="0.31443">
        <ele>1687.427</ele>
        <time>2021-11-12T11:08:23Z</time>
      </trkpt>
      <trkpt lat="42.92278" lon="0.31438">
        <ele>1688.307</ele>
        <time>2021-11-12T11:08:29Z</time>
      </trkpt>
      <trkpt lat="42.92273" lon="0.31432">
        <ele>1688.726</ele>
        <time>2021-11-12T11:08:37Z</time>
      </trkpt>
      <trkpt lat="42.92267" lon="0.31425">
        <ele>1692.288</ele>
        <time>2021-11-12T11:09:01Z</time>
      </trkpt>
      <trkpt lat="42.92263" lon="0.31417">
        <ele>1692.971</ele>
        <time>2021-11-12T11:09:07Z</time>
      </trkpt>
      <trkpt lat="42.92259" lon="0.31411">
        <ele>1694.458</ele>
        <time>2021-11-12T11:09:14Z</time>
      </trkpt>
      <trkpt lat="42.92253" lon="0.31405">
        <ele>1693.505</ele>
        <time>2021-11-12T11:09:20Z</time>
      </trkpt>
      <trkpt lat="42.92248" lon="0.31397">
        <ele>1694.798</ele>
        <time>2021-11-12T11:09:26Z</time>
      </trkpt>
      <trkpt lat="42.92245" lon="0.31389">
        <ele>1694.871</ele>
        <time>2021-11-12T11:09:32Z</time>
      </trkpt>
      <trkpt lat="42.92241" lon="0.31381">
        <ele>1696.81</ele>
        <time>2021-11-12T11:09:38Z</time>
      </trkpt>
      <trkpt lat="42.92237" lon="0.31373">
        <ele>1697.738</ele>
        <time>2021-11-12T11:09:44Z</time>
      </trkpt>
      <trkpt lat="42.92233" lon="0.31366">
        <ele>1695.768</ele>
        <time>2021-11-12T11:09:51Z</time>
      </trkpt>
      <trkpt lat="42.92226" lon="0.31361">
        <ele>1697.514</ele>
        <time>2021-11-12T11:09:59Z</time>
      </trkpt>
      <trkpt lat="42.92222" lon="0.31353">
        <ele>1696.098</ele>
        <time>2021-11-12T11:10:07Z</time>
      </trkpt>
      <trkpt lat="42.92215" lon="0.31349">
        <ele>1696.22</ele>
        <time>2021-11-12T11:10:14Z</time>
      </trkpt>
      <trkpt lat="42.92208" lon="0.31345">
        <ele>1695.211</ele>
        <time>2021-11-12T11:10:20Z</time>
      </trkpt>
      <trkpt lat="42.92201" lon="0.31344">
        <ele>1696.492</ele>
        <time>2021-11-12T11:10:27Z</time>
      </trkpt>
      <trkpt lat="42.92194" lon="0.31344">
        <ele>1698.298</ele>
        <time>2021-11-12T11:10:34Z</time>
      </trkpt>
      <trkpt lat="42.92187" lon="0.31343">
        <ele>1698.94</ele>
        <time>2021-11-12T11:10:40Z</time>
      </trkpt>
      <trkpt lat="42.9218" lon="0.3134">
        <ele>1697.884</ele>
        <time>2021-11-12T11:10:47Z</time>
      </trkpt>
      <trkpt lat="42.92173" lon="0.3134">
        <ele>1698.382</ele>
        <time>2021-11-12T11:10:53Z</time>
      </trkpt>
      <trkpt lat="42.92167" lon="0.31338">
        <ele>1699.15</ele>
        <time>2021-11-12T11:10:59Z</time>
      </trkpt>
      <trkpt lat="42.9216" lon="0.31333">
        <ele>1699.712</ele>
        <time>2021-11-12T11:11:05Z</time>
      </trkpt>
      <trkpt lat="42.92154" lon="0.3133">
        <ele>1699.002</ele>
        <time>2021-11-12T11:11:12Z</time>
      </trkpt>
      <trkpt lat="42.92147" lon="0.31328">
        <ele>1700.715</ele>
        <time>2021-11-12T11:11:21Z</time>
      </trkpt>
      <trkpt lat="42.92141" lon="0.31325">
        <ele>1701.667</ele>
        <time>2021-11-12T11:11:28Z</time>
      </trkpt>
      <trkpt lat="42.92135" lon="0.3132">
        <ele>1704.075</ele>
        <time>2021-11-12T11:11:52Z</time>
      </trkpt>
      <trkpt lat="42.92128" lon="0.31316">
        <ele>1706.261</ele>
        <time>2021-11-12T11:12:00Z</time>
      </trkpt>
      <trkpt lat="42.92121" lon="0.31312">
        <ele>1705.589</ele>
        <time>2021-11-12T11:12:12Z</time>
      </trkpt>
      <trkpt lat="42.92116" lon="0.31308">
        <ele>1706.042</ele>
        <time>2021-11-12T11:12:17Z</time>
      </trkpt>
      <trkpt lat="42.92111" lon="0.31302">
        <ele>1707.639</ele>
        <time>2021-11-12T11:12:26Z</time>
      </trkpt>
      <trkpt lat="42.92105" lon="0.31297">
        <ele>1709.903</ele>
        <time>2021-11-12T11:12:32Z</time>
      </trkpt>
      <trkpt lat="42.92098" lon="0.31293">
        <ele>1710.466</ele>
        <time>2021-11-12T11:12:37Z</time>
      </trkpt>
      <trkpt lat="42.92092" lon="0.31288">
        <ele>1710.518</ele>
        <time>2021-11-12T11:12:42Z</time>
      </trkpt>
      <trkpt lat="42.92086" lon="0.31285">
        <ele>1710.175</ele>
        <time>2021-11-12T11:12:49Z</time>
      </trkpt>
      <trkpt lat="42.92081" lon="0.31278">
        <ele>1710.677</ele>
        <time>2021-11-12T11:12:55Z</time>
      </trkpt>
      <trkpt lat="42.92075" lon="0.31272">
        <ele>1713.059</ele>
        <time>2021-11-12T11:13:02Z</time>
      </trkpt>
      <trkpt lat="42.92069" lon="0.31267">
        <ele>1712.484</ele>
        <time>2021-11-12T11:13:09Z</time>
      </trkpt>
      <trkpt lat="42.92063" lon="0.31261">
        <ele>1713.333</ele>
        <time>2021-11-12T11:13:17Z</time>
      </trkpt>
      <trkpt lat="42.92058" lon="0.31256">
        <ele>1714.58</ele>
        <time>2021-11-12T11:13:24Z</time>
      </trkpt>
      <trkpt lat="42.92052" lon="0.3125">
        <ele>1715.309</ele>
        <time>2021-11-12T11:13:29Z</time>
      </trkpt>
      <trkpt lat="42.92046" lon="0.31245">
        <ele>1714.984</ele>
        <time>2021-11-12T11:13:36Z</time>
      </trkpt>
      <trkpt lat="42.92039" lon="0.31242">
        <ele>1715.511</ele>
        <time>2021-11-12T11:13:43Z</time>
      </trkpt>
      <trkpt lat="42.92033" lon="0.31238">
        <ele>1716.408</ele>
        <time>2021-11-12T11:13:50Z</time>
      </trkpt>
      <trkpt lat="42.92027" lon="0.31233">
        <ele>1716.996</ele>
        <time>2021-11-12T11:13:56Z</time>
      </trkpt>
      <trkpt lat="42.92021" lon="0.31229">
        <ele>1717.608</ele>
        <time>2021-11-12T11:14:01Z</time>
      </trkpt>
      <trkpt lat="42.92015" lon="0.31225">
        <ele>1719.28</ele>
        <time>2021-11-12T11:14:10Z</time>
      </trkpt>
      <trkpt lat="42.92009" lon="0.31219">
        <ele>1719.649</ele>
        <time>2021-11-12T11:14:17Z</time>
      </trkpt>
      <trkpt lat="42.92003" lon="0.31213">
        <ele>1723.924</ele>
        <time>2021-11-12T11:14:26Z</time>
      </trkpt>
      <trkpt lat="42.91998" lon="0.31207">
        <ele>1721.886</ele>
        <time>2021-11-12T11:14:35Z</time>
      </trkpt>
      <trkpt lat="42.91992" lon="0.31203">
        <ele>1724.188</ele>
        <time>2021-11-12T11:14:51Z</time>
      </trkpt>
      <trkpt lat="42.91986" lon="0.31197">
        <ele>1725.3</ele>
        <time>2021-11-12T11:14:57Z</time>
      </trkpt>
      <trkpt lat="42.91981" lon="0.3119">
        <ele>1724.064</ele>
        <time>2021-11-12T11:15:02Z</time>
      </trkpt>
      <trkpt lat="42.91976" lon="0.31183">
        <ele>1722.636</ele>
        <time>2021-11-12T11:15:08Z</time>
      </trkpt>
      <trkpt lat="42.9197" lon="0.31178">
        <ele>1724.817</ele>
        <time>2021-11-12T11:15:15Z</time>
      </trkpt>
      <trkpt lat="42.91966" lon="0.31172">
        <ele>1726.942</ele>
        <time>2021-11-12T11:15:22Z</time>
      </trkpt>
      <trkpt lat="42.91963" lon="0.3118">
        <ele>1732.199</ele>
        <time>2021-11-12T11:15:36Z</time>
      </trkpt>
      <trkpt lat="42.91961" lon="0.31189">
        <ele>1733.421</ele>
        <time>2021-11-12T11:15:46Z</time>
      </trkpt>
      <trkpt lat="42.91959" lon="0.31199">
        <ele>1732.21</ele>
        <time>2021-11-12T11:15:53Z</time>
      </trkpt>
      <trkpt lat="42.91961" lon="0.31209">
        <ele>1734.247</ele>
        <time>2021-11-12T11:16:00Z</time>
      </trkpt>
      <trkpt lat="42.91965" lon="0.31217">
        <ele>1735.262</ele>
        <time>2021-11-12T11:16:11Z</time>
      </trkpt>
      <trkpt lat="42.9196" lon="0.31225">
        <ele>1735.943</ele>
        <time>2021-11-12T11:16:18Z</time>
      </trkpt>
      <trkpt lat="42.91961" lon="0.31234">
        <ele>1736.893</ele>
        <time>2021-11-12T11:16:41Z</time>
      </trkpt>
      <trkpt lat="42.91962" lon="0.31244">
        <ele>1736.267</ele>
        <time>2021-11-12T11:16:47Z</time>
      </trkpt>
      <trkpt lat="42.91964" lon="0.31253">
        <ele>1734.993</ele>
        <time>2021-11-12T11:16:53Z</time>
      </trkpt>
      <trkpt lat="42.91967" lon="0.31263">
        <ele>1737.272</ele>
        <time>2021-11-12T11:17:00Z</time>
      </trkpt>
      <trkpt lat="42.9197" lon="0.31272">
        <ele>1738.747</ele>
        <time>2021-11-12T11:17:06Z</time>
      </trkpt>
      <trkpt lat="42.91972" lon="0.3128">
        <ele>1739.117</ele>
        <time>2021-11-12T11:17:13Z</time>
      </trkpt>
      <trkpt lat="42.91974" lon="0.31289">
        <ele>1740.635</ele>
        <time>2021-11-12T11:17:20Z</time>
      </trkpt>
      <trkpt lat="42.91979" lon="0.31297">
        <ele>1743.549</ele>
        <time>2021-11-12T11:17:37Z</time>
      </trkpt>
      <trkpt lat="42.91981" lon="0.31306">
        <ele>1744.479</ele>
        <time>2021-11-12T11:17:44Z</time>
      </trkpt>
      <trkpt lat="42.91982" lon="0.31315">
        <ele>1747.92</ele>
        <time>2021-11-12T11:17:50Z</time>
      </trkpt>
      <trkpt lat="42.91984" lon="0.31324">
        <ele>1752.467</ele>
        <time>2021-11-12T11:18:01Z</time>
      </trkpt>
      <trkpt lat="42.91985" lon="0.31334">
        <ele>1754.045</ele>
        <time>2021-11-12T11:18:11Z</time>
      </trkpt>
      <trkpt lat="42.91986" lon="0.31343">
        <ele>1752.398</ele>
        <time>2021-11-12T11:18:17Z</time>
      </trkpt>
      <trkpt lat="42.91984" lon="0.31352">
        <ele>1753.548</ele>
        <time>2021-11-12T11:18:25Z</time>
      </trkpt>
      <trkpt lat="42.91982" lon="0.31361">
        <ele>1753.815</ele>
        <time>2021-11-12T11:18:31Z</time>
      </trkpt>
      <trkpt lat="42.91983" lon="0.31369">
        <ele>1754.521</ele>
        <time>2021-11-12T11:18:43Z</time>
      </trkpt>
      <trkpt lat="42.91976" lon="0.31368">
        <ele>1755.01</ele>
        <time>2021-11-12T11:19:10Z</time>
      </trkpt>
      <trkpt lat="42.9197" lon="0.31367">
        <ele>1752.119</ele>
        <time>2021-11-12T11:19:15Z</time>
      </trkpt>
      <trkpt lat="42.91963" lon="0.31366">
        <ele>1751.787</ele>
        <time>2021-11-12T11:19:21Z</time>
      </trkpt>
      <trkpt lat="42.91957" lon="0.31366">
        <ele>1751.407</ele>
        <time>2021-11-12T11:19:27Z</time>
      </trkpt>
      <trkpt lat="42.9195" lon="0.31365">
        <ele>1752.771</ele>
        <time>2021-11-12T11:19:33Z</time>
      </trkpt>
      <trkpt lat="42.91943" lon="0.31364">
        <ele>1752.992</ele>
        <time>2021-11-12T11:21:03Z</time>
      </trkpt>
      <trkpt lat="42.91936" lon="0.31363">
        <ele>1756.668</ele>
        <time>2021-11-12T11:23:20Z</time>
      </trkpt>
      <trkpt lat="42.9193" lon="0.31357">
        <ele>1756.122</ele>
        <time>2021-11-12T11:23:26Z</time>
      </trkpt>
      <trkpt lat="42.91922" lon="0.31357">
        <ele>1755.155</ele>
        <time>2021-11-12T11:23:32Z</time>
      </trkpt>
      <trkpt lat="42.91916" lon="0.31355">
        <ele>1755.404</ele>
        <time>2021-11-12T11:23:37Z</time>
      </trkpt>
      <trkpt lat="42.91909" lon="0.31356">
        <ele>1752.158</ele>
        <time>2021-11-12T11:23:43Z</time>
      </trkpt>
      <trkpt lat="42.91901" lon="0.31356">
        <ele>1752.363</ele>
        <time>2021-11-12T11:23:49Z</time>
      </trkpt>
      <trkpt lat="42.91894" lon="0.31358">
        <ele>1750.992</ele>
        <time>2021-11-12T11:23:55Z</time>
      </trkpt>
      <trkpt lat="42.91887" lon="0.31355">
        <ele>1750.186</ele>
        <time>2021-11-12T11:24:01Z</time>
      </trkpt>
      <trkpt lat="42.9188" lon="0.31352">
        <ele>1750.111</ele>
        <time>2021-11-12T11:24:09Z</time>
      </trkpt>
      <trkpt lat="42.91872" lon="0.31352">
        <ele>1747.011</ele>
        <time>2021-11-12T11:24:16Z</time>
      </trkpt>
      <trkpt lat="42.91865" lon="0.31349">
        <ele>1746.526</ele>
        <time>2021-11-12T11:24:25Z</time>
      </trkpt>
      <trkpt lat="42.91858" lon="0.31346">
        <ele>1745.722</ele>
        <time>2021-11-12T11:24:31Z</time>
      </trkpt>
      <trkpt lat="42.91851" lon="0.31343">
        <ele>1747.198</ele>
        <time>2021-11-12T11:24:37Z</time>
      </trkpt>
      <trkpt lat="42.91844" lon="0.31341">
        <ele>1746.89</ele>
        <time>2021-11-12T11:24:43Z</time>
      </trkpt>
      <trkpt lat="42.91834" lon="0.31335">
        <ele>1743.415</ele>
        <time>2021-11-12T11:24:49Z</time>
      </trkpt>
      <trkpt lat="42.91827" lon="0.31332">
        <ele>1741.722</ele>
        <time>2021-11-12T11:24:58Z</time>
      </trkpt>
      <trkpt lat="42.9182" lon="0.31331">
        <ele>1741.734</ele>
        <time>2021-11-12T11:25:08Z</time>
      </trkpt>
      <trkpt lat="42.91813" lon="0.31328">
        <ele>1738.586</ele>
        <time>2021-11-12T11:25:14Z</time>
      </trkpt>
      <trkpt lat="42.91807" lon="0.31326">
        <ele>1738.363</ele>
        <time>2021-11-12T11:25:19Z</time>
      </trkpt>
      <trkpt lat="42.91801" lon="0.31322">
        <ele>1735.186</ele>
        <time>2021-11-12T11:25:26Z</time>
      </trkpt>
      <trkpt lat="42.91798" lon="0.31312">
        <ele>1733.379</ele>
        <time>2021-11-12T11:25:33Z</time>
      </trkpt>
      <trkpt lat="42.91796" lon="0.31303">
        <ele>1730.421</ele>
        <time>2021-11-12T11:25:39Z</time>
      </trkpt>
      <trkpt lat="42.91793" lon="0.31294">
        <ele>1726.709</ele>
        <time>2021-11-12T11:25:47Z</time>
      </trkpt>
      <trkpt lat="42.91787" lon="0.31291">
        <ele>1724.562</ele>
        <time>2021-11-12T11:25:59Z</time>
      </trkpt>
      <trkpt lat="42.9178" lon="0.3129">
        <ele>1714.954</ele>
        <time>2021-11-12T11:28:02Z</time>
      </trkpt>
      <trkpt lat="42.91773" lon="0.31292">
        <ele>1712.774</ele>
        <time>2021-11-12T11:28:17Z</time>
      </trkpt>
      <trkpt lat="42.91767" lon="0.31294">
        <ele>1707.014</ele>
        <time>2021-11-12T11:28:26Z</time>
      </trkpt>
      <trkpt lat="42.9176" lon="0.31296">
        <ele>1706.03</ele>
        <time>2021-11-12T11:28:32Z</time>
      </trkpt>
      <trkpt lat="42.91753" lon="0.31292">
        <ele>1699.083</ele>
        <time>2021-11-12T11:28:41Z</time>
      </trkpt>
      <trkpt lat="42.91747" lon="0.31286">
        <ele>1693.87</ele>
        <time>2021-11-12T11:28:52Z</time>
      </trkpt>
      <trkpt lat="42.91742" lon="0.31281">
        <ele>1693.3</ele>
        <time>2021-11-12T11:28:57Z</time>
      </trkpt>
      <trkpt lat="42.91736" lon="0.31275">
        <ele>1689.408</ele>
        <time>2021-11-12T11:29:02Z</time>
      </trkpt>
      <trkpt lat="42.9173" lon="0.31271">
        <ele>1689.159</ele>
        <time>2021-11-12T11:29:08Z</time>
      </trkpt>
      <trkpt lat="42.91724" lon="0.31266">
        <ele>1687.436</ele>
        <time>2021-11-12T11:29:13Z</time>
      </trkpt>
      <trkpt lat="42.91718" lon="0.3126">
        <ele>1686.053</ele>
        <time>2021-11-12T11:29:20Z</time>
      </trkpt>
      <trkpt lat="42.91712" lon="0.31254">
        <ele>1682.277</ele>
        <time>2021-11-12T11:29:26Z</time>
      </trkpt>
      <trkpt lat="42.91705" lon="0.3125">
        <ele>1679.331</ele>
        <time>2021-11-12T11:29:34Z</time>
      </trkpt>
      <trkpt lat="42.91699" lon="0.31245">
        <ele>1681.365</ele>
        <time>2021-11-12T11:29:39Z</time>
      </trkpt>
      <trkpt lat="42.91692" lon="0.31243">
        <ele>1679.72</ele>
        <time>2021-11-12T11:29:46Z</time>
      </trkpt>
      <trkpt lat="42.91685" lon="0.31242">
        <ele>1677.097</ele>
        <time>2021-11-12T11:29:52Z</time>
      </trkpt>
      <trkpt lat="42.91678" lon="0.31239">
        <ele>1677.66</ele>
        <time>2021-11-12T11:30:02Z</time>
      </trkpt>
      <trkpt lat="42.91672" lon="0.31235">
        <ele>1677.63</ele>
        <time>2021-11-12T11:30:07Z</time>
      </trkpt>
      <trkpt lat="42.91665" lon="0.31232">
        <ele>1675.876</ele>
        <time>2021-11-12T11:30:13Z</time>
      </trkpt>
      <trkpt lat="42.9166" lon="0.31227">
        <ele>1675.23</ele>
        <time>2021-11-12T11:30:18Z</time>
      </trkpt>
      <trkpt lat="42.91654" lon="0.31222">
        <ele>1673.416</ele>
        <time>2021-11-12T11:30:24Z</time>
      </trkpt>
      <trkpt lat="42.91647" lon="0.31219">
        <ele>1674.903</ele>
        <time>2021-11-12T11:30:30Z</time>
      </trkpt>
      <trkpt lat="42.91642" lon="0.31214">
        <ele>1677.332</ele>
        <time>2021-11-12T11:30:38Z</time>
      </trkpt>
      <trkpt lat="42.91636" lon="0.31208">
        <ele>1671.574</ele>
        <time>2021-11-12T11:30:44Z</time>
      </trkpt>
      <trkpt lat="42.9163" lon="0.31202">
        <ele>1667.625</ele>
        <time>2021-11-12T11:30:50Z</time>
      </trkpt>
      <trkpt lat="42.91624" lon="0.31199">
        <ele>1660.725</ele>
        <time>2021-11-12T11:30:59Z</time>
      </trkpt>
      <trkpt lat="42.91617" lon="0.31196">
        <ele>1659.318</ele>
        <time>2021-11-12T11:31:06Z</time>
      </trkpt>
      <trkpt lat="42.91611" lon="0.31191">
        <ele>1657.862</ele>
        <time>2021-11-12T11:31:13Z</time>
      </trkpt>
      <trkpt lat="42.91606" lon="0.31185">
        <ele>1659.054</ele>
        <time>2021-11-12T11:31:18Z</time>
      </trkpt>
      <trkpt lat="42.91601" lon="0.31178">
        <ele>1654.873</ele>
        <time>2021-11-12T11:31:25Z</time>
      </trkpt>
      <trkpt lat="42.91595" lon="0.31174">
        <ele>1653.891</ele>
        <time>2021-11-12T11:31:31Z</time>
      </trkpt>
      <trkpt lat="42.91588" lon="0.31173">
        <ele>1649.833</ele>
        <time>2021-11-12T11:31:37Z</time>
      </trkpt>
      <trkpt lat="42.91581" lon="0.3117">
        <ele>1646.932</ele>
        <time>2021-11-12T11:31:45Z</time>
      </trkpt>
      <trkpt lat="42.91575" lon="0.31166">
        <ele>1644.041</ele>
        <time>2021-11-12T11:31:54Z</time>
      </trkpt>
      <trkpt lat="42.91568" lon="0.31163">
        <ele>1645.301</ele>
        <time>2021-11-12T11:32:02Z</time>
      </trkpt>
      <trkpt lat="42.91563" lon="0.31158">
        <ele>1643.917</ele>
        <time>2021-11-12T11:32:09Z</time>
      </trkpt>
      <trkpt lat="42.91557" lon="0.31153">
        <ele>1640.635</ele>
        <time>2021-11-12T11:32:16Z</time>
      </trkpt>
      <trkpt lat="42.91553" lon="0.31145">
        <ele>1638.559</ele>
        <time>2021-11-12T11:32:24Z</time>
      </trkpt>
      <trkpt lat="42.91546" lon="0.31141">
        <ele>1638.38</ele>
        <time>2021-11-12T11:32:33Z</time>
      </trkpt>
      <trkpt lat="42.9154" lon="0.31139">
        <ele>1637.347</ele>
        <time>2021-11-12T11:32:39Z</time>
      </trkpt>
      <trkpt lat="42.91534" lon="0.31135">
        <ele>1636.373</ele>
        <time>2021-11-12T11:32:46Z</time>
      </trkpt>
      <trkpt lat="42.91527" lon="0.31133">
        <ele>1631.302</ele>
        <time>2021-11-12T11:32:53Z</time>
      </trkpt>
      <trkpt lat="42.91522" lon="0.31129">
        <ele>1628.214</ele>
        <time>2021-11-12T11:32:59Z</time>
      </trkpt>
      <trkpt lat="42.91516" lon="0.31122">
        <ele>1626.849</ele>
        <time>2021-11-12T11:33:05Z</time>
      </trkpt>
      <trkpt lat="42.91509" lon="0.31118">
        <ele>1622.92</ele>
        <time>2021-11-12T11:33:14Z</time>
      </trkpt>
      <trkpt lat="42.91503" lon="0.31115">
        <ele>1620.451</ele>
        <time>2021-11-12T11:33:19Z</time>
      </trkpt>
      <trkpt lat="42.91496" lon="0.3111">
        <ele>1620.322</ele>
        <time>2021-11-12T11:33:25Z</time>
      </trkpt>
      <trkpt lat="42.9149" lon="0.31106">
        <ele>1617.179</ele>
        <time>2021-11-12T11:33:32Z</time>
      </trkpt>
      <trkpt lat="42.91483" lon="0.31101">
        <ele>1615.546</ele>
        <time>2021-11-12T11:33:38Z</time>
      </trkpt>
      <trkpt lat="42.91478" lon="0.31097">
        <ele>1614.553</ele>
        <time>2021-11-12T11:33:43Z</time>
      </trkpt>
      <trkpt lat="42.9147" lon="0.31091">
        <ele>1613.366</ele>
        <time>2021-11-12T11:33:49Z</time>
      </trkpt>
      <trkpt lat="42.91464" lon="0.31086">
        <ele>1612.938</ele>
        <time>2021-11-12T11:33:54Z</time>
      </trkpt>
      <trkpt lat="42.9146" lon="0.31079">
        <ele>1615.5</ele>
        <time>2021-11-12T11:34:02Z</time>
      </trkpt>
      <trkpt lat="42.91456" lon="0.31071">
        <ele>1613.329</ele>
        <time>2021-11-12T11:34:14Z</time>
      </trkpt>
      <trkpt lat="42.91449" lon="0.31066">
        <ele>1612.294</ele>
        <time>2021-11-12T11:34:19Z</time>
      </trkpt>
      <trkpt lat="42.91442" lon="0.31062">
        <ele>1611.699</ele>
        <time>2021-11-12T11:34:25Z</time>
      </trkpt>
      <trkpt lat="42.91435" lon="0.31058">
        <ele>1610.132</ele>
        <time>2021-11-12T11:34:32Z</time>
      </trkpt>
      <trkpt lat="42.91429" lon="0.31053">
        <ele>1610.262</ele>
        <time>2021-11-12T11:34:37Z</time>
      </trkpt>
      <trkpt lat="42.91421" lon="0.3105">
        <ele>1608.701</ele>
        <time>2021-11-12T11:34:43Z</time>
      </trkpt>
      <trkpt lat="42.91412" lon="0.31044">
        <ele>1606.872</ele>
        <time>2021-11-12T11:34:49Z</time>
      </trkpt>
      <trkpt lat="42.91406" lon="0.31039">
        <ele>1605.298</ele>
        <time>2021-11-12T11:34:55Z</time>
      </trkpt>
      <trkpt lat="42.91398" lon="0.31032">
        <ele>1604.125</ele>
        <time>2021-11-12T11:35:01Z</time>
      </trkpt>
      <trkpt lat="42.91392" lon="0.31028">
        <ele>1600.738</ele>
        <time>2021-11-12T11:35:06Z</time>
      </trkpt>
      <trkpt lat="42.91385" lon="0.31025">
        <ele>1596.741</ele>
        <time>2021-11-12T11:35:14Z</time>
      </trkpt>
      <trkpt lat="42.91379" lon="0.31019">
        <ele>1592.774</ele>
        <time>2021-11-12T11:35:19Z</time>
      </trkpt>
      <trkpt lat="42.91373" lon="0.31011">
        <ele>1591.252</ele>
        <time>2021-11-12T11:35:25Z</time>
      </trkpt>
      <trkpt lat="42.91369" lon="0.31003">
        <ele>1589.472</ele>
        <time>2021-11-12T11:35:30Z</time>
      </trkpt>
      <trkpt lat="42.91364" lon="0.30996">
        <ele>1588.9</ele>
        <time>2021-11-12T11:35:35Z</time>
      </trkpt>
      <trkpt lat="42.91355" lon="0.30985">
        <ele>1592.146</ele>
        <time>2021-11-12T11:35:41Z</time>
      </trkpt>
      <trkpt lat="42.91353" lon="0.30976">
        <ele>1589.563</ele>
        <time>2021-11-12T11:35:52Z</time>
      </trkpt>
      <trkpt lat="42.91355" lon="0.30968">
        <ele>1586.804</ele>
        <time>2021-11-12T11:35:58Z</time>
      </trkpt>
      <trkpt lat="42.91362" lon="0.30963">
        <ele>1589.349</ele>
        <time>2021-11-12T11:36:04Z</time>
      </trkpt>
      <trkpt lat="42.91369" lon="0.30962">
        <ele>1591.316</ele>
        <time>2021-11-12T11:36:16Z</time>
      </trkpt>
      <trkpt lat="42.91377" lon="0.30963">
        <ele>1592.842</ele>
        <time>2021-11-12T11:36:21Z</time>
      </trkpt>
      <trkpt lat="42.91384" lon="0.30965">
        <ele>1591.828</ele>
        <time>2021-11-12T11:36:28Z</time>
      </trkpt>
      <trkpt lat="42.91391" lon="0.30969">
        <ele>1592.738</ele>
        <time>2021-11-12T11:36:33Z</time>
      </trkpt>
      <trkpt lat="42.91401" lon="0.30969">
        <ele>1592.071</ele>
        <time>2021-11-12T11:36:38Z</time>
      </trkpt>
      <trkpt lat="42.91407" lon="0.30971">
        <ele>1591.22</ele>
        <time>2021-11-12T11:36:45Z</time>
      </trkpt>
      <trkpt lat="42.91415" lon="0.30972">
        <ele>1590.033</ele>
        <time>2021-11-12T11:36:50Z</time>
      </trkpt>
      <trkpt lat="42.91424" lon="0.30977">
        <ele>1590.84</ele>
        <time>2021-11-12T11:36:55Z</time>
      </trkpt>
      <trkpt lat="42.91431" lon="0.30982">
        <ele>1590.171</ele>
        <time>2021-11-12T11:37:03Z</time>
      </trkpt>
      <trkpt lat="42.91438" lon="0.30981">
        <ele>1590.298</ele>
        <time>2021-11-12T11:37:09Z</time>
      </trkpt>
      <trkpt lat="42.91445" lon="0.30984">
        <ele>1589.838</ele>
        <time>2021-11-12T11:37:18Z</time>
      </trkpt>
      <trkpt lat="42.91452" lon="0.30984">
        <ele>1587.744</ele>
        <time>2021-11-12T11:37:24Z</time>
      </trkpt>
      <trkpt lat="42.9146" lon="0.30983">
        <ele>1589.322</ele>
        <time>2021-11-12T11:37:29Z</time>
      </trkpt>
      <trkpt lat="42.9147" lon="0.30984">
        <ele>1590.471</ele>
        <time>2021-11-12T11:37:34Z</time>
      </trkpt>
      <trkpt lat="42.9148" lon="0.30984">
        <ele>1588.452</ele>
        <time>2021-11-12T11:37:39Z</time>
      </trkpt>
      <trkpt lat="42.91489" lon="0.30984">
        <ele>1588.113</ele>
        <time>2021-11-12T11:37:45Z</time>
      </trkpt>
      <trkpt lat="42.91497" lon="0.30983">
        <ele>1585.957</ele>
        <time>2021-11-12T11:37:50Z</time>
      </trkpt>
      <trkpt lat="42.91504" lon="0.30979">
        <ele>1584.877</ele>
        <time>2021-11-12T11:37:55Z</time>
      </trkpt>
      <trkpt lat="42.91512" lon="0.30977">
        <ele>1584.304</ele>
        <time>2021-11-12T11:38:01Z</time>
      </trkpt>
      <trkpt lat="42.91519" lon="0.30973">
        <ele>1582.726</ele>
        <time>2021-11-12T11:38:07Z</time>
      </trkpt>
      <trkpt lat="42.91527" lon="0.30973">
        <ele>1580.835</ele>
        <time>2021-11-12T11:38:13Z</time>
      </trkpt>
      <trkpt lat="42.91535" lon="0.30972">
        <ele>1582.83</ele>
        <time>2021-11-12T11:38:18Z</time>
      </trkpt>
      <trkpt lat="42.91543" lon="0.30968">
        <ele>1584.229</ele>
        <time>2021-11-12T11:38:24Z</time>
      </trkpt>
      <trkpt lat="42.91551" lon="0.30965">
        <ele>1582.997</ele>
        <time>2021-11-12T11:38:29Z</time>
      </trkpt>
      <trkpt lat="42.91554" lon="0.30956">
        <ele>1579.894</ele>
        <time>2021-11-12T11:38:37Z</time>
      </trkpt>
      <trkpt lat="42.91557" lon="0.30948">
        <ele>1579.033</ele>
        <time>2021-11-12T11:38:42Z</time>
      </trkpt>
      <trkpt lat="42.91561" lon="0.3094">
        <ele>1580.546</ele>
        <time>2021-11-12T11:39:06Z</time>
      </trkpt>
      <trkpt lat="42.91561" lon="0.30931">
        <ele>1579.747</ele>
        <time>2021-11-12T11:39:12Z</time>
      </trkpt>
      <trkpt lat="42.91563" lon="0.30923">
        <ele>1581.851</ele>
        <time>2021-11-12T11:39:32Z</time>
      </trkpt>
      <trkpt lat="42.91567" lon="0.30914">
        <ele>1583.161</ele>
        <time>2021-11-12T11:39:54Z</time>
      </trkpt>
      <trkpt lat="42.91569" lon="0.30905">
        <ele>1581.978</ele>
        <time>2021-11-12T11:40:01Z</time>
      </trkpt>
      <trkpt lat="42.91571" lon="0.30896">
        <ele>1582.652</ele>
        <time>2021-11-12T11:40:06Z</time>
      </trkpt>
      <trkpt lat="42.91574" lon="0.30888">
        <ele>1582.911</ele>
        <time>2021-11-12T11:40:11Z</time>
      </trkpt>
      <trkpt lat="42.91575" lon="0.30879">
        <ele>1582.991</ele>
        <time>2021-11-12T11:40:18Z</time>
      </trkpt>
      <trkpt lat="42.91575" lon="0.30869">
        <ele>1582.23</ele>
        <time>2021-11-12T11:40:23Z</time>
      </trkpt>
      <trkpt lat="42.91577" lon="0.30858">
        <ele>1581.594</ele>
        <time>2021-11-12T11:40:29Z</time>
      </trkpt>
      <trkpt lat="42.91578" lon="0.30849">
        <ele>1582.638</ele>
        <time>2021-11-12T11:40:34Z</time>
      </trkpt>
      <trkpt lat="42.91579" lon="0.30839">
        <ele>1582.501</ele>
        <time>2021-11-12T11:40:40Z</time>
      </trkpt>
      <trkpt lat="42.9158" lon="0.30829">
        <ele>1581.106</ele>
        <time>2021-11-12T11:40:45Z</time>
      </trkpt>
      <trkpt lat="42.91581" lon="0.30818">
        <ele>1579.022</ele>
        <time>2021-11-12T11:40:51Z</time>
      </trkpt>
      <trkpt lat="42.91581" lon="0.30808">
        <ele>1579.466</ele>
        <time>2021-11-12T11:40:58Z</time>
      </trkpt>
      <trkpt lat="42.91582" lon="0.30799">
        <ele>1581.205</ele>
        <time>2021-11-12T11:41:03Z</time>
      </trkpt>
      <trkpt lat="42.91581" lon="0.30786">
        <ele>1579.822</ele>
        <time>2021-11-12T11:41:09Z</time>
      </trkpt>
      <trkpt lat="42.91581" lon="0.30776">
        <ele>1579.501</ele>
        <time>2021-11-12T11:41:14Z</time>
      </trkpt>
      <trkpt lat="42.9158" lon="0.30766">
        <ele>1577.966</ele>
        <time>2021-11-12T11:41:20Z</time>
      </trkpt>
      <trkpt lat="42.91581" lon="0.30757">
        <ele>1579.062</ele>
        <time>2021-11-12T11:41:25Z</time>
      </trkpt>
      <trkpt lat="42.91584" lon="0.30748">
        <ele>1580.885</ele>
        <time>2021-11-12T11:41:30Z</time>
      </trkpt>
      <trkpt lat="42.91585" lon="0.30738">
        <ele>1580.823</ele>
        <time>2021-11-12T11:41:35Z</time>
      </trkpt>
      <trkpt lat="42.91586" lon="0.30726">
        <ele>1582.73</ele>
        <time>2021-11-12T11:41:41Z</time>
      </trkpt>
      <trkpt lat="42.91587" lon="0.30717">
        <ele>1582.982</ele>
        <time>2021-11-12T11:41:46Z</time>
      </trkpt>
      <trkpt lat="42.91588" lon="0.30708">
        <ele>1581.735</ele>
        <time>2021-11-12T11:41:51Z</time>
      </trkpt>
      <trkpt lat="42.91589" lon="0.30698">
        <ele>1582.894</ele>
        <time>2021-11-12T11:41:57Z</time>
      </trkpt>
      <trkpt lat="42.9159" lon="0.30688">
        <ele>1582.587</ele>
        <time>2021-11-12T11:42:03Z</time>
      </trkpt>
      <trkpt lat="42.91591" lon="0.30677">
        <ele>1583.481</ele>
        <time>2021-11-12T11:42:09Z</time>
      </trkpt>
      <trkpt lat="42.91591" lon="0.30667">
        <ele>1581.22</ele>
        <time>2021-11-12T11:42:16Z</time>
      </trkpt>
      <trkpt lat="42.91591" lon="0.30656">
        <ele>1582.5</ele>
        <time>2021-11-12T11:42:22Z</time>
      </trkpt>
      <trkpt lat="42.91588" lon="0.30648">
        <ele>1578.237</ele>
        <time>2021-11-12T11:42:30Z</time>
      </trkpt>
      <trkpt lat="42.91582" lon="0.30643">
        <ele>1578.141</ele>
        <time>2021-11-12T11:42:38Z</time>
      </trkpt>
      <trkpt lat="42.91578" lon="0.30635">
        <ele>1578.431</ele>
        <time>2021-11-12T11:42:43Z</time>
      </trkpt>
      <trkpt lat="42.91574" lon="0.30627">
        <ele>1576.289</ele>
        <time>2021-11-12T11:42:50Z</time>
      </trkpt>
      <trkpt lat="42.91571" lon="0.30617">
        <ele>1575.279</ele>
        <time>2021-11-12T11:42:56Z</time>
      </trkpt>
      <trkpt lat="42.91573" lon="0.30608">
        <ele>1575.691</ele>
        <time>2021-11-12T11:43:02Z</time>
      </trkpt>
      <trkpt lat="42.9157" lon="0.30599">
        <ele>1573.627</ele>
        <time>2021-11-12T11:43:09Z</time>
      </trkpt>
      <trkpt lat="42.91567" lon="0.30589">
        <ele>1574.105</ele>
        <time>2021-11-12T11:43:15Z</time>
      </trkpt>
      <trkpt lat="42.91562" lon="0.30584">
        <ele>1571.687</ele>
        <time>2021-11-12T11:43:21Z</time>
      </trkpt>
      <trkpt lat="42.91558" lon="0.30576">
        <ele>1567.062</ele>
        <time>2021-11-12T11:43:28Z</time>
      </trkpt>
      <trkpt lat="42.91556" lon="0.30566">
        <ele>1561.446</ele>
        <time>2021-11-12T11:43:35Z</time>
      </trkpt>
      <trkpt lat="42.91553" lon="0.30557">
        <ele>1559.019</ele>
        <time>2021-11-12T11:43:41Z</time>
      </trkpt>
      <trkpt lat="42.91549" lon="0.30548">
        <ele>1556.847</ele>
        <time>2021-11-12T11:43:49Z</time>
      </trkpt>
      <trkpt lat="42.91545" lon="0.30541">
        <ele>1555.585</ele>
        <time>2021-11-12T11:43:55Z</time>
      </trkpt>
      <trkpt lat="42.91543" lon="0.30532">
        <ele>1553.293</ele>
        <time>2021-11-12T11:44:01Z</time>
      </trkpt>
      <trkpt lat="42.91541" lon="0.30523">
        <ele>1551.99</ele>
        <time>2021-11-12T11:44:07Z</time>
      </trkpt>
      <trkpt lat="42.91542" lon="0.30513">
        <ele>1553.231</ele>
        <time>2021-11-12T11:44:13Z</time>
      </trkpt>
      <trkpt lat="42.91545" lon="0.30505">
        <ele>1552.859</ele>
        <time>2021-11-12T11:44:19Z</time>
      </trkpt>
      <trkpt lat="42.91547" lon="0.30495">
        <ele>1552.296</ele>
        <time>2021-11-12T11:44:32Z</time>
      </trkpt>
      <trkpt lat="42.91548" lon="0.30485">
        <ele>1551.964</ele>
        <time>2021-11-12T11:44:38Z</time>
      </trkpt>
      <trkpt lat="42.91546" lon="0.30475">
        <ele>1553.491</ele>
        <time>2021-11-12T11:47:21Z</time>
      </trkpt>
      <trkpt lat="42.91541" lon="0.30469">
        <ele>1548.819</ele>
        <time>2021-11-12T11:47:28Z</time>
      </trkpt>
      <trkpt lat="42.91536" lon="0.30461">
        <ele>1548.599</ele>
        <time>2021-11-12T11:47:33Z</time>
      </trkpt>
      <trkpt lat="42.91531" lon="0.30453">
        <ele>1548.961</ele>
        <time>2021-11-12T11:47:38Z</time>
      </trkpt>
      <trkpt lat="42.91527" lon="0.30446">
        <ele>1544.462</ele>
        <time>2021-11-12T11:47:45Z</time>
      </trkpt>
      <trkpt lat="42.91523" lon="0.30438">
        <ele>1543.08</ele>
        <time>2021-11-12T11:47:50Z</time>
      </trkpt>
      <trkpt lat="42.91519" lon="0.3043">
        <ele>1540.265</ele>
        <time>2021-11-12T11:47:56Z</time>
      </trkpt>
      <trkpt lat="42.91516" lon="0.30422">
        <ele>1537.802</ele>
        <time>2021-11-12T11:48:02Z</time>
      </trkpt>
      <trkpt lat="42.91511" lon="0.30415">
        <ele>1536.971</ele>
        <time>2021-11-12T11:48:07Z</time>
      </trkpt>
      <trkpt lat="42.91506" lon="0.30408">
        <ele>1534.547</ele>
        <time>2021-11-12T11:48:13Z</time>
      </trkpt>
      <trkpt lat="42.91501" lon="0.30402">
        <ele>1535.8</ele>
        <time>2021-11-12T11:48:18Z</time>
      </trkpt>
      <trkpt lat="42.91496" lon="0.30393">
        <ele>1534.037</ele>
        <time>2021-11-12T11:48:23Z</time>
      </trkpt>
      <trkpt lat="42.91492" lon="0.30384">
        <ele>1533.972</ele>
        <time>2021-11-12T11:48:29Z</time>
      </trkpt>
      <trkpt lat="42.91488" lon="0.30375">
        <ele>1532.722</ele>
        <time>2021-11-12T11:48:34Z</time>
      </trkpt>
      <trkpt lat="42.91484" lon="0.30367">
        <ele>1529.092</ele>
        <time>2021-11-12T11:48:41Z</time>
      </trkpt>
      <trkpt lat="42.91482" lon="0.30358">
        <ele>1528.927</ele>
        <time>2021-11-12T11:48:46Z</time>
      </trkpt>
      <trkpt lat="42.9148" lon="0.30348">
        <ele>1527.247</ele>
        <time>2021-11-12T11:48:51Z</time>
      </trkpt>
      <trkpt lat="42.91476" lon="0.3034">
        <ele>1523.466</ele>
        <time>2021-11-12T11:48:57Z</time>
      </trkpt>
      <trkpt lat="42.91474" lon="0.30331">
        <ele>1524.225</ele>
        <time>2021-11-12T11:49:03Z</time>
      </trkpt>
      <trkpt lat="42.91472" lon="0.30321">
        <ele>1520.795</ele>
        <time>2021-11-12T11:49:09Z</time>
      </trkpt>
      <trkpt lat="42.91468" lon="0.30314">
        <ele>1517.706</ele>
        <time>2021-11-12T11:49:14Z</time>
      </trkpt>
      <trkpt lat="42.91466" lon="0.30305">
        <ele>1516.024</ele>
        <time>2021-11-12T11:49:20Z</time>
      </trkpt>
      <trkpt lat="42.91462" lon="0.30297">
        <ele>1515.568</ele>
        <time>2021-11-12T11:49:25Z</time>
      </trkpt>
      <trkpt lat="42.91461" lon="0.30287">
        <ele>1513.439</ele>
        <time>2021-11-12T11:49:31Z</time>
      </trkpt>
      <trkpt lat="42.91459" lon="0.30274">
        <ele>1512.6</ele>
        <time>2021-11-12T11:49:37Z</time>
      </trkpt>
      <trkpt lat="42.91458" lon="0.30264">
        <ele>1511.095</ele>
        <time>2021-11-12T11:49:42Z</time>
      </trkpt>
      <trkpt lat="42.91454" lon="0.30256">
        <ele>1508.336</ele>
        <time>2021-11-12T11:49:48Z</time>
      </trkpt>
      <trkpt lat="42.91451" lon="0.30249">
        <ele>1505.222</ele>
        <time>2021-11-12T11:49:53Z</time>
      </trkpt>
      <trkpt lat="42.91448" lon="0.30241">
        <ele>1502.352</ele>
        <time>2021-11-12T11:49:59Z</time>
      </trkpt>
      <trkpt lat="42.91444" lon="0.30231">
        <ele>1499.866</ele>
        <time>2021-11-12T11:50:05Z</time>
      </trkpt>
      <trkpt lat="42.91442" lon="0.30222">
        <ele>1500.126</ele>
        <time>2021-11-12T11:50:10Z</time>
      </trkpt>
      <trkpt lat="42.91439" lon="0.30212">
        <ele>1499.33</ele>
        <time>2021-11-12T11:50:15Z</time>
      </trkpt>
      <trkpt lat="42.91438" lon="0.30203">
        <ele>1497.339</ele>
        <time>2021-11-12T11:50:21Z</time>
      </trkpt>
      <trkpt lat="42.91437" lon="0.30193">
        <ele>1498.009</ele>
        <time>2021-11-12T11:50:27Z</time>
      </trkpt>
      <trkpt lat="42.91438" lon="0.30182">
        <ele>1497.718</ele>
        <time>2021-11-12T11:50:33Z</time>
      </trkpt>
      <trkpt lat="42.91439" lon="0.30171">
        <ele>1500.018</ele>
        <time>2021-11-12T11:50:38Z</time>
      </trkpt>
      <trkpt lat="42.91437" lon="0.30162">
        <ele>1500.004</ele>
        <time>2021-11-12T11:50:43Z</time>
      </trkpt>
      <trkpt lat="42.91436" lon="0.30153">
        <ele>1499.877</ele>
        <time>2021-11-12T11:50:49Z</time>
      </trkpt>
      <trkpt lat="42.91438" lon="0.30143">
        <ele>1499.691</ele>
        <time>2021-11-12T11:50:55Z</time>
      </trkpt>
      <trkpt lat="42.91437" lon="0.30131">
        <ele>1500.107</ele>
        <time>2021-11-12T11:51:01Z</time>
      </trkpt>
      <trkpt lat="42.91436" lon="0.30121">
        <ele>1499.343</ele>
        <time>2021-11-12T11:51:06Z</time>
      </trkpt>
      <trkpt lat="42.91435" lon="0.30111">
        <ele>1497.586</ele>
        <time>2021-11-12T11:51:12Z</time>
      </trkpt>
      <trkpt lat="42.91434" lon="0.30101">
        <ele>1495.982</ele>
        <time>2021-11-12T11:51:17Z</time>
      </trkpt>
      <trkpt lat="42.91434" lon="0.30091">
        <ele>1495.183</ele>
        <time>2021-11-12T11:51:22Z</time>
      </trkpt>
      <trkpt lat="42.91435" lon="0.30082">
        <ele>1493.117</ele>
        <time>2021-11-12T11:51:27Z</time>
      </trkpt>
      <trkpt lat="42.91436" lon="0.30072">
        <ele>1492.651</ele>
        <time>2021-11-12T11:51:33Z</time>
      </trkpt>
      <trkpt lat="42.91435" lon="0.30063">
        <ele>1491.193</ele>
        <time>2021-11-12T11:51:38Z</time>
      </trkpt>
      <trkpt lat="42.91435" lon="0.30054">
        <ele>1489.93</ele>
        <time>2021-11-12T11:51:43Z</time>
      </trkpt>
      <trkpt lat="42.91435" lon="0.30044">
        <ele>1488.802</ele>
        <time>2021-11-12T11:51:49Z</time>
      </trkpt>
      <trkpt lat="42.91436" lon="0.30036">
        <ele>1486.89</ele>
        <time>2021-11-12T11:51:54Z</time>
      </trkpt>
      <trkpt lat="42.91436" lon="0.30026">
        <ele>1485.893</ele>
        <time>2021-11-12T11:51:59Z</time>
      </trkpt>
      <trkpt lat="42.91437" lon="0.30014">
        <ele>1483.1</ele>
        <time>2021-11-12T11:52:05Z</time>
      </trkpt>
      <trkpt lat="42.91436" lon="0.30005">
        <ele>1482.576</ele>
        <time>2021-11-12T11:52:10Z</time>
      </trkpt>
      <trkpt lat="42.91438" lon="0.29995">
        <ele>1479.857</ele>
        <time>2021-11-12T11:52:15Z</time>
      </trkpt>
      <trkpt lat="42.91443" lon="0.29989">
        <ele>1478.202</ele>
        <time>2021-11-12T11:52:26Z</time>
      </trkpt>
      <trkpt lat="42.91447" lon="0.29981">
        <ele>1474.308</ele>
        <time>2021-11-12T11:52:46Z</time>
      </trkpt>
      <trkpt lat="42.91451" lon="0.29972">
        <ele>1468.841</ele>
        <time>2021-11-12T11:52:54Z</time>
      </trkpt>
      <trkpt lat="42.91457" lon="0.29966">
        <ele>1468.805</ele>
        <time>2021-11-12T11:53:01Z</time>
      </trkpt>
      <trkpt lat="42.91463" lon="0.29959">
        <ele>1467.202</ele>
        <time>2021-11-12T11:53:08Z</time>
      </trkpt>
      <trkpt lat="42.9147" lon="0.29954">
        <ele>1462.854</ele>
        <time>2021-11-12T11:53:16Z</time>
      </trkpt>
      <trkpt lat="42.91475" lon="0.29948">
        <ele>1458.902</ele>
        <time>2021-11-12T11:53:21Z</time>
      </trkpt>
      <trkpt lat="42.91481" lon="0.29942">
        <ele>1457.437</ele>
        <time>2021-11-12T11:53:26Z</time>
      </trkpt>
      <trkpt lat="42.91488" lon="0.29938">
        <ele>1456.303</ele>
        <time>2021-11-12T11:53:33Z</time>
      </trkpt>
      <trkpt lat="42.91493" lon="0.29932">
        <ele>1455.289</ele>
        <time>2021-11-12T11:53:38Z</time>
      </trkpt>
      <trkpt lat="42.91497" lon="0.29924">
        <ele>1454.664</ele>
        <time>2021-11-12T11:53:43Z</time>
      </trkpt>
      <trkpt lat="42.91503" lon="0.29918">
        <ele>1451.635</ele>
        <time>2021-11-12T11:53:49Z</time>
      </trkpt>
      <trkpt lat="42.91509" lon="0.29914">
        <ele>1447.44</ele>
        <time>2021-11-12T11:53:56Z</time>
      </trkpt>
      <trkpt lat="42.91516" lon="0.29908">
        <ele>1445.404</ele>
        <time>2021-11-12T11:54:03Z</time>
      </trkpt>
      <trkpt lat="42.9152" lon="0.29901">
        <ele>1445.643</ele>
        <time>2021-11-12T11:54:09Z</time>
      </trkpt>
      <trkpt lat="42.91524" lon="0.29893">
        <ele>1448.905</ele>
        <time>2021-11-12T11:54:15Z</time>
      </trkpt>
      <trkpt lat="42.91528" lon="0.29884">
        <ele>1447.588</ele>
        <time>2021-11-12T11:54:21Z</time>
      </trkpt>
      <trkpt lat="42.91535" lon="0.29878">
        <ele>1444.924</ele>
        <time>2021-11-12T11:54:26Z</time>
      </trkpt>
      <trkpt lat="42.9154" lon="0.29869">
        <ele>1441.196</ele>
        <time>2021-11-12T11:54:31Z</time>
      </trkpt>
      <trkpt lat="42.91541" lon="0.29859">
        <ele>1438.274</ele>
        <time>2021-11-12T11:54:40Z</time>
      </trkpt>
      <trkpt lat="42.91539" lon="0.29849">
        <ele>1438.502</ele>
        <time>2021-11-12T11:54:45Z</time>
      </trkpt>
      <trkpt lat="42.91542" lon="0.29842">
        <ele>1434.879</ele>
        <time>2021-11-12T11:54:51Z</time>
      </trkpt>
      <trkpt lat="42.91548" lon="0.29836">
        <ele>1437.999</ele>
        <time>2021-11-12T11:54:59Z</time>
      </trkpt>
      <trkpt lat="42.91553" lon="0.29829">
        <ele>1439.118</ele>
        <time>2021-11-12T11:55:06Z</time>
      </trkpt>
      <trkpt lat="42.91559" lon="0.29824">
        <ele>1439.997</ele>
        <time>2021-11-12T11:55:12Z</time>
      </trkpt>
      <trkpt lat="42.91562" lon="0.29815">
        <ele>1436.608</ele>
        <time>2021-11-12T11:55:19Z</time>
      </trkpt>
      <trkpt lat="42.91561" lon="0.29805">
        <ele>1431.515</ele>
        <time>2021-11-12T11:55:25Z</time>
      </trkpt>
      <trkpt lat="42.91566" lon="0.29797">
        <ele>1432.063</ele>
        <time>2021-11-12T11:55:32Z</time>
      </trkpt>
      <trkpt lat="42.9157" lon="0.29788">
        <ele>1432.335</ele>
        <time>2021-11-12T11:55:40Z</time>
      </trkpt>
      <trkpt lat="42.91576" lon="0.29782">
        <ele>1432.635</ele>
        <time>2021-11-12T11:55:45Z</time>
      </trkpt>
      <trkpt lat="42.9158" lon="0.29772">
        <ele>1433.238</ele>
        <time>2021-11-12T11:55:50Z</time>
      </trkpt>
      <trkpt lat="42.91577" lon="0.29764">
        <ele>1430.169</ele>
        <time>2021-11-12T11:55:55Z</time>
      </trkpt>
      <trkpt lat="42.91581" lon="0.29756">
        <ele>1427.138</ele>
        <time>2021-11-12T11:56:02Z</time>
      </trkpt>
      <trkpt lat="42.91575" lon="0.2975">
        <ele>1424.002</ele>
        <time>2021-11-12T11:56:12Z</time>
      </trkpt>
      <trkpt lat="42.91568" lon="0.29748">
        <ele>1420.519</ele>
        <time>2021-11-12T11:56:17Z</time>
      </trkpt>
      <trkpt lat="42.91563" lon="0.29741">
        <ele>1421.913</ele>
        <time>2021-11-12T11:56:23Z</time>
      </trkpt>
      <trkpt lat="42.91559" lon="0.29733">
        <ele>1420.488</ele>
        <time>2021-11-12T11:56:31Z</time>
      </trkpt>
      <trkpt lat="42.91557" lon="0.29723">
        <ele>1418.414</ele>
        <time>2021-11-12T11:56:37Z</time>
      </trkpt>
      <trkpt lat="42.91557" lon="0.29712">
        <ele>1419.67</ele>
        <time>2021-11-12T11:57:17Z</time>
      </trkpt>
      <trkpt lat="42.9156" lon="0.297">
        <ele>1419.663</ele>
        <time>2021-11-12T11:57:22Z</time>
      </trkpt>
      <trkpt lat="42.91563" lon="0.29691">
        <ele>1417.958</ele>
        <time>2021-11-12T11:57:27Z</time>
      </trkpt>
      <trkpt lat="42.91571" lon="0.29681">
        <ele>1415.022</ele>
        <time>2021-11-12T11:57:33Z</time>
      </trkpt>
      <trkpt lat="42.91578" lon="0.29676">
        <ele>1414.94</ele>
        <time>2021-11-12T11:57:38Z</time>
      </trkpt>
      <trkpt lat="42.91584" lon="0.29674">
        <ele>1413.044</ele>
        <time>2021-11-12T11:57:56Z</time>
      </trkpt>
      <trkpt lat="42.91591" lon="0.29671">
        <ele>1409.003</ele>
        <time>2021-11-12T11:58:02Z</time>
      </trkpt>
      <trkpt lat="42.91597" lon="0.29666">
        <ele>1408.036</ele>
        <time>2021-11-12T11:58:08Z</time>
      </trkpt>
      <trkpt lat="42.916" lon="0.29657">
        <ele>1408.139</ele>
        <time>2021-11-12T11:58:13Z</time>
      </trkpt>
      <trkpt lat="42.91607" lon="0.29655">
        <ele>1413.049</ele>
        <time>2021-11-12T11:58:35Z</time>
      </trkpt>
      <trkpt lat="42.91616" lon="0.29651">
        <ele>1411.615</ele>
        <time>2021-11-12T11:58:41Z</time>
      </trkpt>
      <trkpt lat="42.91625" lon="0.29655">
        <ele>1411.574</ele>
        <time>2021-11-12T11:58:46Z</time>
      </trkpt>
      <trkpt lat="42.91632" lon="0.29656">
        <ele>1413.37</ele>
        <time>2021-11-12T11:58:51Z</time>
      </trkpt>
      <trkpt lat="42.91639" lon="0.29652">
        <ele>1408.98</ele>
        <time>2021-11-12T11:58:56Z</time>
      </trkpt>
      <trkpt lat="42.91646" lon="0.29651">
        <ele>1404.255</ele>
        <time>2021-11-12T11:59:01Z</time>
      </trkpt>
      <trkpt lat="42.91652" lon="0.29647">
        <ele>1401.451</ele>
        <time>2021-11-12T11:59:09Z</time>
      </trkpt>
      <trkpt lat="42.91657" lon="0.29641">
        <ele>1398.216</ele>
        <time>2021-11-12T11:59:16Z</time>
      </trkpt>
      <trkpt lat="42.91661" lon="0.29633">
        <ele>1394.887</ele>
        <time>2021-11-12T11:59:25Z</time>
      </trkpt>
      <trkpt lat="42.91667" lon="0.29627">
        <ele>1397.174</ele>
        <time>2021-11-12T11:59:31Z</time>
      </trkpt>
      <trkpt lat="42.91673" lon="0.29622">
        <ele>1392.318</ele>
        <time>2021-11-12T11:59:39Z</time>
      </trkpt>
      <trkpt lat="42.91682" lon="0.29621">
        <ele>1392.232</ele>
        <time>2021-11-12T11:59:45Z</time>
      </trkpt>
      <trkpt lat="42.91689" lon="0.29617">
        <ele>1388.332</ele>
        <time>2021-11-12T11:59:54Z</time>
      </trkpt>
      <trkpt lat="42.91694" lon="0.2961">
        <ele>1386.045</ele>
        <time>2021-11-12T12:00:00Z</time>
      </trkpt>
      <trkpt lat="42.91696" lon="0.29602">
        <ele>1384.002</ele>
        <time>2021-11-12T12:00:07Z</time>
      </trkpt>
      <trkpt lat="42.91699" lon="0.29594">
        <ele>1385.285</ele>
        <time>2021-11-12T12:00:13Z</time>
      </trkpt>
      <trkpt lat="42.91707" lon="0.29591">
        <ele>1380.924</ele>
        <time>2021-11-12T12:00:21Z</time>
      </trkpt>
      <trkpt lat="42.91715" lon="0.2959">
        <ele>1382.856</ele>
        <time>2021-11-12T12:00:26Z</time>
      </trkpt>
      <trkpt lat="42.91722" lon="0.29592">
        <ele>1383.146</ele>
        <time>2021-11-12T12:00:33Z</time>
      </trkpt>
      <trkpt lat="42.91728" lon="0.29589">
        <ele>1380.746</ele>
        <time>2021-11-12T12:00:39Z</time>
      </trkpt>
      <trkpt lat="42.91736" lon="0.29585">
        <ele>1377.919</ele>
        <time>2021-11-12T12:01:29Z</time>
      </trkpt>
      <trkpt lat="42.91743" lon="0.29582">
        <ele>1371.746</ele>
        <time>2021-11-12T12:01:34Z</time>
      </trkpt>
      <trkpt lat="42.9175" lon="0.29584">
        <ele>1365.924</ele>
        <time>2021-11-12T12:01:48Z</time>
      </trkpt>
      <trkpt lat="42.91756" lon="0.29577">
        <ele>1364.03</ele>
        <time>2021-11-12T12:01:57Z</time>
      </trkpt>
      <trkpt lat="42.91764" lon="0.29578">
        <ele>1355.867</ele>
        <time>2021-11-12T12:02:38Z</time>
      </trkpt>
      <trkpt lat="42.91774" lon="0.29584">
        <ele>1351.006</ele>
        <time>2021-11-12T12:02:43Z</time>
      </trkpt>
      <trkpt lat="42.91785" lon="0.29588">
        <ele>1346.409</ele>
        <time>2021-11-12T12:02:49Z</time>
      </trkpt>
      <trkpt lat="42.91794" lon="0.29592">
        <ele>1347.553</ele>
        <time>2021-11-12T12:02:54Z</time>
      </trkpt>
      <trkpt lat="42.91802" lon="0.29595">
        <ele>1346.918</ele>
        <time>2021-11-12T12:02:59Z</time>
      </trkpt>
      <trkpt lat="42.91811" lon="0.29597">
        <ele>1343.523</ele>
        <time>2021-11-12T12:03:05Z</time>
      </trkpt>
      <trkpt lat="42.91818" lon="0.296">
        <ele>1346.856</ele>
        <time>2021-11-12T12:03:12Z</time>
      </trkpt>
      <trkpt lat="42.91825" lon="0.29597">
        <ele>1349.3</ele>
        <time>2021-11-12T12:03:20Z</time>
      </trkpt>
      <trkpt lat="42.91832" lon="0.29599">
        <ele>1349.953</ele>
        <time>2021-11-12T12:03:35Z</time>
      </trkpt>
      <trkpt lat="42.91837" lon="0.29604">
        <ele>1346.013</ele>
        <time>2021-11-12T12:03:50Z</time>
      </trkpt>
      <trkpt lat="42.91845" lon="0.29605">
        <ele>1342.087</ele>
        <time>2021-11-12T12:03:55Z</time>
      </trkpt>
      <trkpt lat="42.91852" lon="0.2961">
        <ele>1337.071</ele>
        <time>2021-11-12T12:04:01Z</time>
      </trkpt>
      <trkpt lat="42.91858" lon="0.29611">
        <ele>1333.708</ele>
        <time>2021-11-12T12:04:06Z</time>
      </trkpt>
      <trkpt lat="42.91866" lon="0.29607">
        <ele>1331.991</ele>
        <time>2021-11-12T12:04:11Z</time>
      </trkpt>
      <trkpt lat="42.91872" lon="0.29611">
        <ele>1327.342</ele>
        <time>2021-11-12T12:04:22Z</time>
      </trkpt>
      <trkpt lat="42.91873" lon="0.29621">
        <ele>1326.5</ele>
        <time>2021-11-12T12:04:29Z</time>
      </trkpt>
      <trkpt lat="42.91877" lon="0.29629">
        <ele>1324.233</ele>
        <time>2021-11-12T12:04:34Z</time>
      </trkpt>
      <trkpt lat="42.91881" lon="0.29637">
        <ele>1321.783</ele>
        <time>2021-11-12T12:04:40Z</time>
      </trkpt>
      <trkpt lat="42.91879" lon="0.29647">
        <ele>1319.378</ele>
        <time>2021-11-12T12:04:46Z</time>
      </trkpt>
      <trkpt lat="42.91881" lon="0.29655">
        <ele>1318.501</ele>
        <time>2021-11-12T12:04:51Z</time>
      </trkpt>
      <trkpt lat="42.91884" lon="0.29664">
        <ele>1318.49</ele>
        <time>2021-11-12T12:04:57Z</time>
      </trkpt>
      <trkpt lat="42.9189" lon="0.29669">
        <ele>1319.676</ele>
        <time>2021-11-12T12:05:02Z</time>
      </trkpt>
      <trkpt lat="42.91895" lon="0.29675">
        <ele>1318.549</ele>
        <time>2021-11-12T12:05:07Z</time>
      </trkpt>
      <trkpt lat="42.91903" lon="0.2968">
        <ele>1319.043</ele>
        <time>2021-11-12T12:05:13Z</time>
      </trkpt>
      <trkpt lat="42.91908" lon="0.29687">
        <ele>1318.452</ele>
        <time>2021-11-12T12:05:19Z</time>
      </trkpt>
      <trkpt lat="42.91914" lon="0.29692">
        <ele>1315.876</ele>
        <time>2021-11-12T12:05:25Z</time>
      </trkpt>
      <trkpt lat="42.91921" lon="0.29696">
        <ele>1316.892</ele>
        <time>2021-11-12T12:05:31Z</time>
      </trkpt>
      <trkpt lat="42.9193" lon="0.29698">
        <ele>1316.217</ele>
        <time>2021-11-12T12:05:37Z</time>
      </trkpt>
      <trkpt lat="42.91937" lon="0.297">
        <ele>1314.562</ele>
        <time>2021-11-12T12:05:43Z</time>
      </trkpt>
      <trkpt lat="42.91944" lon="0.29705">
        <ele>1312.775</ele>
        <time>2021-11-12T12:05:49Z</time>
      </trkpt>
      <trkpt lat="42.91951" lon="0.29706">
        <ele>1311.767</ele>
        <time>2021-11-12T12:05:57Z</time>
      </trkpt>
      <trkpt lat="42.91959" lon="0.29707">
        <ele>1310.342</ele>
        <time>2021-11-12T12:06:04Z</time>
      </trkpt>
      <trkpt lat="42.91966" lon="0.29709">
        <ele>1309.061</ele>
        <time>2021-11-12T12:06:09Z</time>
      </trkpt>
      <trkpt lat="42.91973" lon="0.29712">
        <ele>1308.696</ele>
        <time>2021-11-12T12:06:14Z</time>
      </trkpt>
      <trkpt lat="42.91979" lon="0.29718">
        <ele>1309.155</ele>
        <time>2021-11-12T12:06:19Z</time>
      </trkpt>
      <trkpt lat="42.91983" lon="0.29726">
        <ele>1309.666</ele>
        <time>2021-11-12T12:06:27Z</time>
      </trkpt>
      <trkpt lat="42.9199" lon="0.29723">
        <ele>1313.274</ele>
        <time>2021-11-12T12:06:33Z</time>
      </trkpt>
      <trkpt lat="42.91996" lon="0.2972">
        <ele>1314.356</ele>
        <time>2021-11-12T12:06:38Z</time>
      </trkpt>
      <trkpt lat="42.92003" lon="0.29717">
        <ele>1313.78</ele>
        <time>2021-11-12T12:06:43Z</time>
      </trkpt>
      <trkpt lat="42.92009" lon="0.29713">
        <ele>1315.007</ele>
        <time>2021-11-12T12:06:50Z</time>
      </trkpt>
      <trkpt lat="42.92015" lon="0.29718">
        <ele>1314.902</ele>
        <time>2021-11-12T12:07:00Z</time>
      </trkpt>
      <trkpt lat="42.92023" lon="0.2972">
        <ele>1311.126</ele>
        <time>2021-11-12T12:47:16Z</time>
      </trkpt>
      <trkpt lat="42.92032" lon="0.2972">
        <ele>1312.507</ele>
        <time>2021-11-12T12:47:21Z</time>
      </trkpt>
      <trkpt lat="42.92041" lon="0.29716">
        <ele>1321.181</ele>
        <time>2021-11-12T12:47:26Z</time>
      </trkpt>
      <trkpt lat="42.92048" lon="0.29717">
        <ele>1318.135</ele>
        <time>2021-11-12T12:47:32Z</time>
      </trkpt>
      <trkpt lat="42.92056" lon="0.29721">
        <ele>1315.255</ele>
        <time>2021-11-12T12:47:37Z</time>
      </trkpt>
      <trkpt lat="42.92063" lon="0.29721">
        <ele>1316.845</ele>
        <time>2021-11-12T12:47:42Z</time>
      </trkpt>
      <trkpt lat="42.92072" lon="0.2972">
        <ele>1316.049</ele>
        <time>2021-11-12T12:47:48Z</time>
      </trkpt>
      <trkpt lat="42.92082" lon="0.2972">
        <ele>1314.642</ele>
        <time>2021-11-12T12:47:53Z</time>
      </trkpt>
      <trkpt lat="42.92089" lon="0.29719">
        <ele>1311.46</ele>
        <time>2021-11-12T12:47:58Z</time>
      </trkpt>
      <trkpt lat="42.92097" lon="0.29715">
        <ele>1310.477</ele>
        <time>2021-11-12T12:48:04Z</time>
      </trkpt>
      <trkpt lat="42.92105" lon="0.29713">
        <ele>1308.199</ele>
        <time>2021-11-12T12:48:09Z</time>
      </trkpt>
      <trkpt lat="42.92112" lon="0.29713">
        <ele>1308.662</ele>
        <time>2021-11-12T12:48:15Z</time>
      </trkpt>
      <trkpt lat="42.92119" lon="0.29711">
        <ele>1306.824</ele>
        <time>2021-11-12T12:48:20Z</time>
      </trkpt>
      <trkpt lat="42.92125" lon="0.29709">
        <ele>1305.53</ele>
        <time>2021-11-12T12:48:25Z</time>
      </trkpt>
      <trkpt lat="42.92133" lon="0.29706">
        <ele>1306.521</ele>
        <time>2021-11-12T12:48:32Z</time>
      </trkpt>
      <trkpt lat="42.9214" lon="0.29702">
        <ele>1306.711</ele>
        <time>2021-11-12T12:48:38Z</time>
      </trkpt>
      <trkpt lat="42.92147" lon="0.29697">
        <ele>1309.045</ele>
        <time>2021-11-12T12:48:44Z</time>
      </trkpt>
      <trkpt lat="42.92154" lon="0.29695">
        <ele>1308.716</ele>
        <time>2021-11-12T12:48:50Z</time>
      </trkpt>
      <trkpt lat="42.92162" lon="0.29693">
        <ele>1309.725</ele>
        <time>2021-11-12T12:48:56Z</time>
      </trkpt>
      <trkpt lat="42.92169" lon="0.29688">
        <ele>1309.761</ele>
        <time>2021-11-12T12:49:02Z</time>
      </trkpt>
      <trkpt lat="42.92176" lon="0.29683">
        <ele>1311.277</ele>
        <time>2021-11-12T12:49:08Z</time>
      </trkpt>
      <trkpt lat="42.92181" lon="0.29677">
        <ele>1311.186</ele>
        <time>2021-11-12T12:49:13Z</time>
      </trkpt>
      <trkpt lat="42.92188" lon="0.29674">
        <ele>1312.967</ele>
        <time>2021-11-12T12:49:19Z</time>
      </trkpt>
      <trkpt lat="42.92194" lon="0.2967">
        <ele>1312.788</ele>
        <time>2021-11-12T12:49:24Z</time>
      </trkpt>
      <trkpt lat="42.922" lon="0.29665">
        <ele>1312.798</ele>
        <time>2021-11-12T12:49:29Z</time>
      </trkpt>
      <trkpt lat="42.92207" lon="0.29659">
        <ele>1312.83</ele>
        <time>2021-11-12T12:49:34Z</time>
      </trkpt>
      <trkpt lat="42.92212" lon="0.29654">
        <ele>1310.558</ele>
        <time>2021-11-12T12:49:40Z</time>
      </trkpt>
      <trkpt lat="42.92219" lon="0.2965">
        <ele>1312.026</ele>
        <time>2021-11-12T12:49:45Z</time>
      </trkpt>
      <trkpt lat="42.92225" lon="0.29649">
        <ele>1313.52</ele>
        <time>2021-11-12T12:49:50Z</time>
      </trkpt>
      <trkpt lat="42.92232" lon="0.29646">
        <ele>1314.88</ele>
        <time>2021-11-12T12:49:57Z</time>
      </trkpt>
      <trkpt lat="42.92239" lon="0.29641">
        <ele>1313.505</ele>
        <time>2021-11-12T12:50:02Z</time>
      </trkpt>
      <trkpt lat="42.92245" lon="0.29637">
        <ele>1312.929</ele>
        <time>2021-11-12T12:50:08Z</time>
      </trkpt>
      <trkpt lat="42.92251" lon="0.29636">
        <ele>1312.861</ele>
        <time>2021-11-12T12:50:13Z</time>
      </trkpt>
      <trkpt lat="42.92259" lon="0.29633">
        <ele>1312.876</ele>
        <time>2021-11-12T12:50:19Z</time>
      </trkpt>
      <trkpt lat="42.92265" lon="0.29629">
        <ele>1314.904</ele>
        <time>2021-11-12T12:50:24Z</time>
      </trkpt>
      <trkpt lat="42.92271" lon="0.29625">
        <ele>1315.831</ele>
        <time>2021-11-12T12:50:29Z</time>
      </trkpt>
      <trkpt lat="42.92279" lon="0.29622">
        <ele>1312.815</ele>
        <time>2021-11-12T12:50:34Z</time>
      </trkpt>
      <trkpt lat="42.92285" lon="0.29616">
        <ele>1312.665</ele>
        <time>2021-11-12T12:50:40Z</time>
      </trkpt>
      <trkpt lat="42.92292" lon="0.2961">
        <ele>1315.905</ele>
        <time>2021-11-12T12:50:45Z</time>
      </trkpt>
      <trkpt lat="42.92298" lon="0.29608">
        <ele>1314.88</ele>
        <time>2021-11-12T12:50:50Z</time>
      </trkpt>
      <trkpt lat="42.92308" lon="0.29606">
        <ele>1312.138</ele>
        <time>2021-11-12T12:50:56Z</time>
      </trkpt>
      <trkpt lat="42.92315" lon="0.29606">
        <ele>1311.638</ele>
        <time>2021-11-12T12:51:01Z</time>
      </trkpt>
      <trkpt lat="42.92322" lon="0.29603">
        <ele>1311.928</ele>
        <time>2021-11-12T12:51:07Z</time>
      </trkpt>
      <trkpt lat="42.92328" lon="0.29599">
        <ele>1311.153</ele>
        <time>2021-11-12T12:51:12Z</time>
      </trkpt>
      <trkpt lat="42.92336" lon="0.29596">
        <ele>1310.203</ele>
        <time>2021-11-12T12:51:17Z</time>
      </trkpt>
      <trkpt lat="42.92342" lon="0.29598">
        <ele>1309.093</ele>
        <time>2021-11-12T12:51:24Z</time>
      </trkpt>
      <trkpt lat="42.92349" lon="0.29596">
        <ele>1309.108</ele>
        <time>2021-11-12T12:51:31Z</time>
      </trkpt>
      <trkpt lat="42.92357" lon="0.29593">
        <ele>1309.936</ele>
        <time>2021-11-12T12:51:36Z</time>
      </trkpt>
      <trkpt lat="42.92365" lon="0.29591">
        <ele>1311.768</ele>
        <time>2021-11-12T12:51:41Z</time>
      </trkpt>
      <trkpt lat="42.92372" lon="0.29589">
        <ele>1310.843</ele>
        <time>2021-11-12T12:51:46Z</time>
      </trkpt>
      <trkpt lat="42.9238" lon="0.29587">
        <ele>1307.814</ele>
        <time>2021-11-12T12:51:52Z</time>
      </trkpt>
      <trkpt lat="42.92386" lon="0.29589">
        <ele>1306.081</ele>
        <time>2021-11-12T12:51:57Z</time>
      </trkpt>
      <trkpt lat="42.92393" lon="0.2959">
        <ele>1305.379</ele>
        <time>2021-11-12T12:52:03Z</time>
      </trkpt>
      <trkpt lat="42.92401" lon="0.2959">
        <ele>1306.576</ele>
        <time>2021-11-12T12:52:08Z</time>
      </trkpt>
      <trkpt lat="42.92408" lon="0.29592">
        <ele>1306.179</ele>
        <time>2021-11-12T12:52:13Z</time>
      </trkpt>
      <trkpt lat="42.92416" lon="0.2959">
        <ele>1310.305</ele>
        <time>2021-11-12T12:52:18Z</time>
      </trkpt>
      <trkpt lat="42.92424" lon="0.2959">
        <ele>1310.462</ele>
        <time>2021-11-12T12:52:24Z</time>
      </trkpt>
      <trkpt lat="42.9243" lon="0.2959">
        <ele>1310.325</ele>
        <time>2021-11-12T12:52:29Z</time>
      </trkpt>
      <trkpt lat="42.92437" lon="0.29591">
        <ele>1310.118</ele>
        <time>2021-11-12T12:52:35Z</time>
      </trkpt>
      <trkpt lat="42.92444" lon="0.29594">
        <ele>1310.707</ele>
        <time>2021-11-12T12:52:40Z</time>
      </trkpt>
      <trkpt lat="42.9245" lon="0.29599">
        <ele>1311.91</ele>
        <time>2021-11-12T12:53:17Z</time>
      </trkpt>
      <trkpt lat="42.92457" lon="0.296">
        <ele>1310.664</ele>
        <time>2021-11-12T12:53:22Z</time>
      </trkpt>
      <trkpt lat="42.92467" lon="0.29598">
        <ele>1309.809</ele>
        <time>2021-11-12T12:53:28Z</time>
      </trkpt>
      <trkpt lat="42.92477" lon="0.29601">
        <ele>1311.62</ele>
        <time>2021-11-12T12:53:33Z</time>
      </trkpt>
      <trkpt lat="42.92484" lon="0.29603">
        <ele>1314.194</ele>
        <time>2021-11-12T12:53:38Z</time>
      </trkpt>
      <trkpt lat="42.9249" lon="0.29603">
        <ele>1312.702</ele>
        <time>2021-11-12T12:53:44Z</time>
      </trkpt>
      <trkpt lat="42.92499" lon="0.29602">
        <ele>1310.852</ele>
        <time>2021-11-12T12:53:50Z</time>
      </trkpt>
      <trkpt lat="42.9251" lon="0.29603">
        <ele>1311.94</ele>
        <time>2021-11-12T12:53:56Z</time>
      </trkpt>
      <trkpt lat="42.92518" lon="0.29603">
        <ele>1304.276</ele>
        <time>2021-11-12T12:54:01Z</time>
      </trkpt>
      <trkpt lat="42.92527" lon="0.29605">
        <ele>1303.603</ele>
        <time>2021-11-12T12:54:06Z</time>
      </trkpt>
      <trkpt lat="42.92537" lon="0.2961">
        <ele>1302.967</ele>
        <time>2021-11-12T12:54:12Z</time>
      </trkpt>
      <trkpt lat="42.92543" lon="0.29615">
        <ele>1302.161</ele>
        <time>2021-11-12T12:54:17Z</time>
      </trkpt>
      <trkpt lat="42.92552" lon="0.29621">
        <ele>1300.677</ele>
        <time>2021-11-12T12:54:22Z</time>
      </trkpt>
      <trkpt lat="42.92561" lon="0.29625">
        <ele>1297.881</ele>
        <time>2021-11-12T12:54:28Z</time>
      </trkpt>
      <trkpt lat="42.92567" lon="0.2963">
        <ele>1301.088</ele>
        <time>2021-11-12T12:54:34Z</time>
      </trkpt>
      <trkpt lat="42.92575" lon="0.29634">
        <ele>1299.269</ele>
        <time>2021-11-12T12:54:40Z</time>
      </trkpt>
      <trkpt lat="42.92582" lon="0.29637">
        <ele>1296.28</ele>
        <time>2021-11-12T12:54:45Z</time>
      </trkpt>
      <trkpt lat="42.92589" lon="0.29635">
        <ele>1292.999</ele>
        <time>2021-11-12T12:54:50Z</time>
      </trkpt>
      <trkpt lat="42.92599" lon="0.29638">
        <ele>1294.572</ele>
        <time>2021-11-12T12:54:56Z</time>
      </trkpt>
      <trkpt lat="42.92607" lon="0.29641">
        <ele>1291.336</ele>
        <time>2021-11-12T12:55:01Z</time>
      </trkpt>
      <trkpt lat="42.92614" lon="0.29643">
        <ele>1293.329</ele>
        <time>2021-11-12T12:55:07Z</time>
      </trkpt>
      <trkpt lat="42.92622" lon="0.29647">
        <ele>1295.901</ele>
        <time>2021-11-12T12:55:12Z</time>
      </trkpt>
      <trkpt lat="42.92629" lon="0.29649">
        <ele>1295.709</ele>
        <time>2021-11-12T12:55:17Z</time>
      </trkpt>
      <trkpt lat="42.92636" lon="0.2965">
        <ele>1298.264</ele>
        <time>2021-11-12T12:55:22Z</time>
      </trkpt>
      <trkpt lat="42.92644" lon="0.29652">
        <ele>1295.562</ele>
        <time>2021-11-12T12:55:28Z</time>
      </trkpt>
      <trkpt lat="42.92652" lon="0.29649">
        <ele>1292.947</ele>
        <time>2021-11-12T12:55:33Z</time>
      </trkpt>
      <trkpt lat="42.92658" lon="0.29644">
        <ele>1287.95</ele>
        <time>2021-11-12T12:55:39Z</time>
      </trkpt>
      <trkpt lat="42.92665" lon="0.2964">
        <ele>1286.687</ele>
        <time>2021-11-12T12:55:45Z</time>
      </trkpt>
      <trkpt lat="42.9267" lon="0.29633">
        <ele>1287.342</ele>
        <time>2021-11-12T12:55:51Z</time>
      </trkpt>
      <trkpt lat="42.92676" lon="0.29626">
        <ele>1287.178</ele>
        <time>2021-11-12T12:55:56Z</time>
      </trkpt>
      <trkpt lat="42.92684" lon="0.29624">
        <ele>1283.508</ele>
        <time>2021-11-12T12:56:01Z</time>
      </trkpt>
      <trkpt lat="42.92692" lon="0.29625">
        <ele>1282.559</ele>
        <time>2021-11-12T12:56:06Z</time>
      </trkpt>
      <trkpt lat="42.927" lon="0.29623">
        <ele>1279.643</ele>
        <time>2021-11-12T12:56:12Z</time>
      </trkpt>
      <trkpt lat="42.92708" lon="0.29621">
        <ele>1272.657</ele>
        <time>2021-11-12T12:56:18Z</time>
      </trkpt>
      <trkpt lat="42.92717" lon="0.2962">
        <ele>1275.344</ele>
        <time>2021-11-12T12:56:24Z</time>
      </trkpt>
      <trkpt lat="42.92724" lon="0.29623">
        <ele>1276.486</ele>
        <time>2021-11-12T12:56:36Z</time>
      </trkpt>
      <trkpt lat="42.92731" lon="0.2962">
        <ele>1276.237</ele>
        <time>2021-11-12T12:56:42Z</time>
      </trkpt>
      <trkpt lat="42.92742" lon="0.29616">
        <ele>1270.795</ele>
        <time>2021-11-12T12:56:48Z</time>
      </trkpt>
      <trkpt lat="42.92749" lon="0.29615">
        <ele>1270.397</ele>
        <time>2021-11-12T12:56:53Z</time>
      </trkpt>
      <trkpt lat="42.92755" lon="0.29613">
        <ele>1264.066</ele>
        <time>2021-11-12T12:56:58Z</time>
      </trkpt>
      <trkpt lat="42.92762" lon="0.29613">
        <ele>1266.231</ele>
        <time>2021-11-12T12:57:07Z</time>
      </trkpt>
      <trkpt lat="42.92769" lon="0.29612">
        <ele>1264.672</ele>
        <time>2021-11-12T12:57:12Z</time>
      </trkpt>
      <trkpt lat="42.92776" lon="0.29613">
        <ele>1261.757</ele>
        <time>2021-11-12T12:57:20Z</time>
      </trkpt>
      <trkpt lat="42.92783" lon="0.29616">
        <ele>1262.205</ele>
        <time>2021-11-12T12:57:28Z</time>
      </trkpt>
      <trkpt lat="42.92793" lon="0.29616">
        <ele>1258.322</ele>
        <time>2021-11-12T12:57:33Z</time>
      </trkpt>
      <trkpt lat="42.92804" lon="0.29614">
        <ele>1258.602</ele>
        <time>2021-11-12T12:57:38Z</time>
      </trkpt>
      <trkpt lat="42.92815" lon="0.2961">
        <ele>1254.742</ele>
        <time>2021-11-12T12:57:44Z</time>
      </trkpt>
      <trkpt lat="42.92825" lon="0.29608">
        <ele>1254.101</ele>
        <time>2021-11-12T12:57:49Z</time>
      </trkpt>
      <trkpt lat="42.92832" lon="0.29606">
        <ele>1250.52</ele>
        <time>2021-11-12T12:57:57Z</time>
      </trkpt>
      <trkpt lat="42.92839" lon="0.29603">
        <ele>1250.132</ele>
        <time>2021-11-12T12:58:03Z</time>
      </trkpt>
      <trkpt lat="42.92846" lon="0.29603">
        <ele>1248.24</ele>
        <time>2021-11-12T12:58:12Z</time>
      </trkpt>
      <trkpt lat="42.92853" lon="0.29603">
        <ele>1246.351</ele>
        <time>2021-11-12T12:58:18Z</time>
      </trkpt>
      <trkpt lat="42.92861" lon="0.29603">
        <ele>1248.335</ele>
        <time>2021-11-12T12:58:23Z</time>
      </trkpt>
      <trkpt lat="42.92868" lon="0.29605">
        <ele>1245.391</ele>
        <time>2021-11-12T12:58:28Z</time>
      </trkpt>
      <trkpt lat="42.92875" lon="0.29606">
        <ele>1245.003</ele>
        <time>2021-11-12T12:58:35Z</time>
      </trkpt>
      <trkpt lat="42.92882" lon="0.29608">
        <ele>1239.64</ele>
        <time>2021-11-12T12:58:42Z</time>
      </trkpt>
      <trkpt lat="42.92892" lon="0.29609">
        <ele>1238.484</ele>
        <time>2021-11-12T12:58:48Z</time>
      </trkpt>
      <trkpt lat="42.92899" lon="0.29611">
        <ele>1238.987</ele>
        <time>2021-11-12T12:58:53Z</time>
      </trkpt>
      <trkpt lat="42.92907" lon="0.29615">
        <ele>1238.131</ele>
        <time>2021-11-12T12:58:58Z</time>
      </trkpt>
      <trkpt lat="42.92914" lon="0.29615">
        <ele>1236.694</ele>
        <time>2021-11-12T12:59:05Z</time>
      </trkpt>
      <trkpt lat="42.92922" lon="0.29616">
        <ele>1237.941</ele>
        <time>2021-11-12T12:59:10Z</time>
      </trkpt>
      <trkpt lat="42.92933" lon="0.29616">
        <ele>1235.724</ele>
        <time>2021-11-12T12:59:16Z</time>
      </trkpt>
      <trkpt lat="42.9294" lon="0.29613">
        <ele>1234.246</ele>
        <time>2021-11-12T12:59:22Z</time>
      </trkpt>
      <trkpt lat="42.92948" lon="0.29608">
        <ele>1234.494</ele>
        <time>2021-11-12T12:59:28Z</time>
      </trkpt>
      <trkpt lat="42.92955" lon="0.29606">
        <ele>1231.745</ele>
        <time>2021-11-12T12:59:34Z</time>
      </trkpt>
      <trkpt lat="42.92962" lon="0.29605">
        <ele>1230.342</ele>
        <time>2021-11-12T12:59:40Z</time>
      </trkpt>
      <trkpt lat="42.92969" lon="0.29609">
        <ele>1229.435</ele>
        <time>2021-11-12T12:59:47Z</time>
      </trkpt>
      <trkpt lat="42.92976" lon="0.29605">
        <ele>1226.211</ele>
        <time>2021-11-12T12:59:54Z</time>
      </trkpt>
      <trkpt lat="42.92985" lon="0.29602">
        <ele>1225.433</ele>
        <time>2021-11-12T13:00:00Z</time>
      </trkpt>
      <trkpt lat="42.92993" lon="0.29598">
        <ele>1223.406</ele>
        <time>2021-11-12T13:00:05Z</time>
      </trkpt>
      <trkpt lat="42.93" lon="0.29598">
        <ele>1225.29</ele>
        <time>2021-11-12T13:00:11Z</time>
      </trkpt>
      <trkpt lat="42.93007" lon="0.29594">
        <ele>1223.877</ele>
        <time>2021-11-12T13:00:16Z</time>
      </trkpt>
      <trkpt lat="42.93013" lon="0.29592">
        <ele>1223.571</ele>
        <time>2021-11-12T13:00:21Z</time>
      </trkpt>
      <trkpt lat="42.9302" lon="0.29591">
        <ele>1223.671</ele>
        <time>2021-11-12T13:00:26Z</time>
      </trkpt>
      <trkpt lat="42.93028" lon="0.2959">
        <ele>1222.639</ele>
        <time>2021-11-12T13:00:32Z</time>
      </trkpt>
      <trkpt lat="42.93035" lon="0.29588">
        <ele>1221.129</ele>
        <time>2021-11-12T13:00:38Z</time>
      </trkpt>
      <trkpt lat="42.93043" lon="0.29586">
        <ele>1222.374</ele>
        <time>2021-11-12T13:00:44Z</time>
      </trkpt>
      <trkpt lat="42.9305" lon="0.29581">
        <ele>1217.139</ele>
        <time>2021-11-12T13:00:51Z</time>
      </trkpt>
      <trkpt lat="42.93057" lon="0.2958">
        <ele>1214.121</ele>
        <time>2021-11-12T13:00:56Z</time>
      </trkpt>
      <trkpt lat="42.93065" lon="0.29579">
        <ele>1214.274</ele>
        <time>2021-11-12T13:01:01Z</time>
      </trkpt>
      <trkpt lat="42.93072" lon="0.29576">
        <ele>1210.145</ele>
        <time>2021-11-12T13:01:06Z</time>
      </trkpt>
      <trkpt lat="42.9308" lon="0.29573">
        <ele>1210.655</ele>
        <time>2021-11-12T13:01:12Z</time>
      </trkpt>
      <trkpt lat="42.93086" lon="0.2957">
        <ele>1208.333</ele>
        <time>2021-11-12T13:01:17Z</time>
      </trkpt>
      <trkpt lat="42.93092" lon="0.29566">
        <ele>1208.677</ele>
        <time>2021-11-12T13:01:22Z</time>
      </trkpt>
      <trkpt lat="42.93099" lon="0.29563">
        <ele>1208.156</ele>
        <time>2021-11-12T13:01:28Z</time>
      </trkpt>
      <trkpt lat="42.93105" lon="0.29562">
        <ele>1208.351</ele>
        <time>2021-11-12T13:01:34Z</time>
      </trkpt>
      <trkpt lat="42.93114" lon="0.29559">
        <ele>1208.288</ele>
        <time>2021-11-12T13:01:40Z</time>
      </trkpt>
      <trkpt lat="42.93123" lon="0.2956">
        <ele>1203.129</ele>
        <time>2021-11-12T13:01:45Z</time>
      </trkpt>
      <trkpt lat="42.9313" lon="0.29559">
        <ele>1204.289</ele>
        <time>2021-11-12T13:01:50Z</time>
      </trkpt>
      <trkpt lat="42.93139" lon="0.29558">
        <ele>1203.602</ele>
        <time>2021-11-12T13:01:56Z</time>
      </trkpt>
      <trkpt lat="42.93145" lon="0.29555">
        <ele>1201.372</ele>
        <time>2021-11-12T13:02:02Z</time>
      </trkpt>
      <trkpt lat="42.93154" lon="0.29554">
        <ele>1201.507</ele>
        <time>2021-11-12T13:02:08Z</time>
      </trkpt>
      <trkpt lat="42.93161" lon="0.2955">
        <ele>1198.925</ele>
        <time>2021-11-12T13:02:13Z</time>
      </trkpt>
      <trkpt lat="42.93167" lon="0.29545">
        <ele>1198.073</ele>
        <time>2021-11-12T13:02:18Z</time>
      </trkpt>
      <trkpt lat="42.93174" lon="0.29539">
        <ele>1193.731</ele>
        <time>2021-11-12T13:02:24Z</time>
      </trkpt>
      <trkpt lat="42.9318" lon="0.29535">
        <ele>1194.504</ele>
        <time>2021-11-12T13:02:29Z</time>
      </trkpt>
      <trkpt lat="42.93186" lon="0.29531">
        <ele>1194.462</ele>
        <time>2021-11-12T13:02:34Z</time>
      </trkpt>
      <trkpt lat="42.93193" lon="0.29527">
        <ele>1193.869</ele>
        <time>2021-11-12T13:02:40Z</time>
      </trkpt>
      <trkpt lat="42.932" lon="0.29526">
        <ele>1192.373</ele>
        <time>2021-11-12T13:02:45Z</time>
      </trkpt>
      <trkpt lat="42.93207" lon="0.29523">
        <ele>1189.179</ele>
        <time>2021-11-12T13:02:51Z</time>
      </trkpt>
      <trkpt lat="42.93214" lon="0.29525">
        <ele>1189.893</ele>
        <time>2021-11-12T13:02:56Z</time>
      </trkpt>
      <trkpt lat="42.93221" lon="0.29524">
        <ele>1189.337</ele>
        <time>2021-11-12T13:03:01Z</time>
      </trkpt>
      <trkpt lat="42.93228" lon="0.29519">
        <ele>1185.086</ele>
        <time>2021-11-12T13:03:08Z</time>
      </trkpt>
      <trkpt lat="42.93233" lon="0.29515">
        <ele>1186.332</ele>
        <time>2021-11-12T13:03:15Z</time>
      </trkpt>
      <trkpt lat="42.9324" lon="0.29511">
        <ele>1184.622</ele>
        <time>2021-11-12T13:03:24Z</time>
      </trkpt>
      <trkpt lat="42.93249" lon="0.29509">
        <ele>1178.803</ele>
        <time>2021-11-12T13:03:29Z</time>
      </trkpt>
      <trkpt lat="42.93258" lon="0.29507">
        <ele>1176.771</ele>
        <time>2021-11-12T13:03:34Z</time>
      </trkpt>
      <trkpt lat="42.93265" lon="0.29502">
        <ele>1169.443</ele>
        <time>2021-11-12T13:03:40Z</time>
      </trkpt>
      <trkpt lat="42.93269" lon="0.29495">
        <ele>1173.647</ele>
        <time>2021-11-12T13:03:45Z</time>
      </trkpt>
      <trkpt lat="42.93274" lon="0.29487">
        <ele>1172.152</ele>
        <time>2021-11-12T13:03:51Z</time>
      </trkpt>
      <trkpt lat="42.93282" lon="0.29482">
        <ele>1172.832</ele>
        <time>2021-11-12T13:03:56Z</time>
      </trkpt>
      <trkpt lat="42.93291" lon="0.2948">
        <ele>1171.459</ele>
        <time>2021-11-12T13:04:01Z</time>
      </trkpt>
      <trkpt lat="42.93295" lon="0.29473">
        <ele>1169.518</ele>
        <time>2021-11-12T13:04:06Z</time>
      </trkpt>
      <trkpt lat="42.93301" lon="0.29468">
        <ele>1166.991</ele>
        <time>2021-11-12T13:04:13Z</time>
      </trkpt>
      <trkpt lat="42.93309" lon="0.2947">
        <ele>1163.804</ele>
        <time>2021-11-12T13:04:19Z</time>
      </trkpt>
      <trkpt lat="42.93318" lon="0.2947">
        <ele>1163.012</ele>
        <time>2021-11-12T13:04:24Z</time>
      </trkpt>
      <trkpt lat="42.93325" lon="0.29466">
        <ele>1151.86</ele>
        <time>2021-11-12T13:04:29Z</time>
      </trkpt>
      <trkpt lat="42.93332" lon="0.29468">
        <ele>1152.505</ele>
        <time>2021-11-12T13:04:35Z</time>
      </trkpt>
      <trkpt lat="42.93339" lon="0.29471">
        <ele>1153.546</ele>
        <time>2021-11-12T13:04:40Z</time>
      </trkpt>
      <trkpt lat="42.93344" lon="0.2948">
        <ele>1155.784</ele>
        <time>2021-11-12T13:04:46Z</time>
      </trkpt>
      <trkpt lat="42.9335" lon="0.29484">
        <ele>1151.533</ele>
        <time>2021-11-12T13:04:54Z</time>
      </trkpt>
      <trkpt lat="42.93357" lon="0.29484">
        <ele>1147.459</ele>
        <time>2021-11-12T13:05:01Z</time>
      </trkpt>
      <trkpt lat="42.93365" lon="0.29484">
        <ele>1144.216</ele>
        <time>2021-11-12T13:05:08Z</time>
      </trkpt>
      <trkpt lat="42.9337" lon="0.29478">
        <ele>1138.992</ele>
        <time>2021-11-12T13:05:13Z</time>
      </trkpt>
      <trkpt lat="42.93372" lon="0.29487">
        <ele>1140.403</ele>
        <time>2021-11-12T13:06:09Z</time>
      </trkpt>
      <trkpt lat="42.93373" lon="0.29497">
        <ele>1140.087</ele>
        <time>2021-11-12T13:06:15Z</time>
      </trkpt>
      <trkpt lat="42.93371" lon="0.29506">
        <ele>1139.159</ele>
        <time>2021-11-12T13:06:23Z</time>
      </trkpt>
      <trkpt lat="42.93367" lon="0.29515">
        <ele>1141.143</ele>
        <time>2021-11-12T13:06:29Z</time>
      </trkpt>
      <trkpt lat="42.93363" lon="0.29523">
        <ele>1140.916</ele>
        <time>2021-11-12T13:06:34Z</time>
      </trkpt>
      <trkpt lat="42.9336" lon="0.29532">
        <ele>1141.887</ele>
        <time>2021-11-12T13:06:43Z</time>
      </trkpt>
      <trkpt lat="42.93356" lon="0.29541">
        <ele>1142.789</ele>
        <time>2021-11-12T13:06:49Z</time>
      </trkpt>
      <trkpt lat="42.93353" lon="0.2955">
        <ele>1141.003</ele>
        <time>2021-11-12T13:06:54Z</time>
      </trkpt>
      <trkpt lat="42.93348" lon="0.2956">
        <ele>1141.08</ele>
        <time>2021-11-12T13:07:00Z</time>
      </trkpt>
      <trkpt lat="42.93343" lon="0.29567">
        <ele>1141.529</ele>
        <time>2021-11-12T13:07:05Z</time>
      </trkpt>
      <trkpt lat="42.93336" lon="0.29572">
        <ele>1142.247</ele>
        <time>2021-11-12T13:07:10Z</time>
      </trkpt>
      <trkpt lat="42.93331" lon="0.29578">
        <ele>1142.169</ele>
        <time>2021-11-12T13:07:17Z</time>
      </trkpt>
      <trkpt lat="42.93327" lon="0.29586">
        <ele>1141.423</ele>
        <time>2021-11-12T13:07:22Z</time>
      </trkpt>
      <trkpt lat="42.93323" lon="0.29596">
        <ele>1141.375</ele>
        <time>2021-11-12T13:07:28Z</time>
      </trkpt>
      <trkpt lat="42.93319" lon="0.29604">
        <ele>1143.043</ele>
        <time>2021-11-12T13:07:33Z</time>
      </trkpt>
      <trkpt lat="42.93315" lon="0.29611">
        <ele>1143.428</ele>
        <time>2021-11-12T13:07:38Z</time>
      </trkpt>
      <trkpt lat="42.93311" lon="0.29619">
        <ele>1142.5</ele>
        <time>2021-11-12T13:07:44Z</time>
      </trkpt>
      <trkpt lat="42.93309" lon="0.29628">
        <ele>1143.116</ele>
        <time>2021-11-12T13:07:50Z</time>
      </trkpt>
      <trkpt lat="42.93307" lon="0.29638">
        <ele>1142.925</ele>
        <time>2021-11-12T13:07:56Z</time>
      </trkpt>
      <trkpt lat="42.93303" lon="0.29647">
        <ele>1144.634</ele>
        <time>2021-11-12T13:08:01Z</time>
      </trkpt>
      <trkpt lat="42.93299" lon="0.29656">
        <ele>1143.667</ele>
        <time>2021-11-12T13:08:06Z</time>
      </trkpt>
      <trkpt lat="42.93295" lon="0.29663">
        <ele>1144.139</ele>
        <time>2021-11-12T13:08:12Z</time>
      </trkpt>
      <trkpt lat="42.93289" lon="0.29668">
        <ele>1144.753</ele>
        <time>2021-11-12T13:08:17Z</time>
      </trkpt>
      <trkpt lat="42.93283" lon="0.29673">
        <ele>1143.103</ele>
        <time>2021-11-12T13:08:22Z</time>
      </trkpt>
      <trkpt lat="42.93276" lon="0.29682">
        <ele>1143.476</ele>
        <time>2021-11-12T13:08:28Z</time>
      </trkpt>
      <trkpt lat="42.9327" lon="0.29688">
        <ele>1144.811</ele>
        <time>2021-11-12T13:08:33Z</time>
      </trkpt>
      <trkpt lat="42.93263" lon="0.29692">
        <ele>1142.36</ele>
        <time>2021-11-12T13:08:38Z</time>
      </trkpt>
      <trkpt lat="42.93257" lon="0.29701">
        <ele>1141.822</ele>
        <time>2021-11-12T13:08:44Z</time>
      </trkpt>
      <trkpt lat="42.9325" lon="0.29708">
        <ele>1141.572</ele>
        <time>2021-11-12T13:08:49Z</time>
      </trkpt>
      <trkpt lat="42.93245" lon="0.29714">
        <ele>1139.34</ele>
        <time>2021-11-12T13:08:54Z</time>
      </trkpt>
      <trkpt lat="42.93246" lon="0.29725">
        <ele>1137.685</ele>
        <time>2021-11-12T13:09:00Z</time>
      </trkpt>
      <trkpt lat="42.93251" lon="0.29735">
        <ele>1137.219</ele>
        <time>2021-11-12T13:09:05Z</time>
      </trkpt>
      <trkpt lat="42.93256" lon="0.29741">
        <ele>1137.781</ele>
        <time>2021-11-12T13:09:11Z</time>
      </trkpt>
      <trkpt lat="42.93261" lon="0.29748">
        <ele>1138.457</ele>
        <time>2021-11-12T13:09:16Z</time>
      </trkpt>
      <trkpt lat="42.93267" lon="0.29754">
        <ele>1137.836</ele>
        <time>2021-11-12T13:09:23Z</time>
      </trkpt>
      <trkpt lat="42.93271" lon="0.29762">
        <ele>1141.26</ele>
        <time>2021-11-12T13:09:28Z</time>
      </trkpt>
      <trkpt lat="42.9328" lon="0.29766">
        <ele>1142.061</ele>
        <time>2021-11-12T13:09:33Z</time>
      </trkpt>
      <trkpt lat="42.9329" lon="0.29764">
        <ele>1141.502</ele>
        <time>2021-11-12T13:09:38Z</time>
      </trkpt>
      <trkpt lat="42.93301" lon="0.29765">
        <ele>1139.495</ele>
        <time>2021-11-12T13:09:44Z</time>
      </trkpt>
      <trkpt lat="42.93308" lon="0.29767">
        <ele>1142.99</ele>
        <time>2021-11-12T13:09:50Z</time>
      </trkpt>
      <trkpt lat="42.93315" lon="0.29767">
        <ele>1143.852</ele>
        <time>2021-11-12T13:09:56Z</time>
      </trkpt>
      <trkpt lat="42.93322" lon="0.29767">
        <ele>1139.589</ele>
        <time>2021-11-12T13:10:12Z</time>
      </trkpt>
      <trkpt lat="42.93328" lon="0.2977">
        <ele>1138.451</ele>
        <time>2021-11-12T13:10:19Z</time>
      </trkpt>
      <trkpt lat="42.93336" lon="0.29771">
        <ele>1136.852</ele>
        <time>2021-11-12T13:10:26Z</time>
      </trkpt>
      <trkpt lat="42.93347" lon="0.29775">
        <ele>1134.222</ele>
        <time>2021-11-12T13:10:32Z</time>
      </trkpt>
      <trkpt lat="42.93355" lon="0.29778">
        <ele>1134.653</ele>
        <time>2021-11-12T13:10:37Z</time>
      </trkpt>
      <trkpt lat="42.93361" lon="0.29781">
        <ele>1134.96</ele>
        <time>2021-11-12T13:10:42Z</time>
      </trkpt>
      <trkpt lat="42.93368" lon="0.29783">
        <ele>1132.137</ele>
        <time>2021-11-12T13:10:48Z</time>
      </trkpt>
      <trkpt lat="42.93372" lon="0.2979">
        <ele>1132.294</ele>
        <time>2021-11-12T13:10:53Z</time>
      </trkpt>
      <trkpt lat="42.93376" lon="0.29799">
        <ele>1132.068</ele>
        <time>2021-11-12T13:10:58Z</time>
      </trkpt>
      <trkpt lat="42.93381" lon="0.2981">
        <ele>1132.205</ele>
        <time>2021-11-12T13:11:04Z</time>
      </trkpt>
      <trkpt lat="42.93383" lon="0.29821">
        <ele>1132.006</ele>
        <time>2021-11-12T13:11:09Z</time>
      </trkpt>
      <trkpt lat="42.93387" lon="0.29829">
        <ele>1132.579</ele>
        <time>2021-11-12T13:11:15Z</time>
      </trkpt>
      <trkpt lat="42.93391" lon="0.29838">
        <ele>1136.304</ele>
        <time>2021-11-12T13:11:20Z</time>
      </trkpt>
      <trkpt lat="42.93396" lon="0.29848">
        <ele>1137.46</ele>
        <time>2021-11-12T13:11:25Z</time>
      </trkpt>
      <trkpt lat="42.93402" lon="0.29852">
        <ele>1136.683</ele>
        <time>2021-11-12T13:11:30Z</time>
      </trkpt>
      <trkpt lat="42.93408" lon="0.29857">
        <ele>1135.096</ele>
        <time>2021-11-12T13:11:36Z</time>
      </trkpt>
      <trkpt lat="42.93416" lon="0.29862">
        <ele>1134.462</ele>
        <time>2021-11-12T13:11:41Z</time>
      </trkpt>
      <trkpt lat="42.93422" lon="0.29867">
        <ele>1135.305</ele>
        <time>2021-11-12T13:11:47Z</time>
      </trkpt>
      <trkpt lat="42.93426" lon="0.29874">
        <ele>1139.501</ele>
        <time>2021-11-12T13:11:52Z</time>
      </trkpt>
      <trkpt lat="42.93431" lon="0.29881">
        <ele>1134.624</ele>
        <time>2021-11-12T13:11:58Z</time>
      </trkpt>
      <trkpt lat="42.93437" lon="0.29888">
        <ele>1135.58</ele>
        <time>2021-11-12T13:12:04Z</time>
      </trkpt>
      <trkpt lat="42.93443" lon="0.29894">
        <ele>1138.139</ele>
        <time>2021-11-12T13:12:09Z</time>
      </trkpt>
      <trkpt lat="42.93446" lon="0.29904">
        <ele>1140.066</ele>
        <time>2021-11-12T13:12:14Z</time>
      </trkpt>
      <trkpt lat="42.9345" lon="0.29914">
        <ele>1139.428</ele>
        <time>2021-11-12T13:12:20Z</time>
      </trkpt>
      <trkpt lat="42.9345" lon="0.29925">
        <ele>1132.275</ele>
        <time>2021-11-12T13:12:27Z</time>
      </trkpt>
      <trkpt lat="42.93451" lon="0.29933">
        <ele>1128.766</ele>
        <time>2021-11-12T13:12:34Z</time>
      </trkpt>
      <trkpt lat="42.93453" lon="0.29943">
        <ele>1126.59</ele>
        <time>2021-11-12T13:12:40Z</time>
      </trkpt>
      <trkpt lat="42.93457" lon="0.2995">
        <ele>1129.604</ele>
        <time>2021-11-12T13:12:45Z</time>
      </trkpt>
      <trkpt lat="42.93453" lon="0.29959">
        <ele>1130.728</ele>
        <time>2021-11-12T13:12:52Z</time>
      </trkpt>
      <trkpt lat="42.9346" lon="0.2996">
        <ele>1131.219</ele>
        <time>2021-11-12T13:15:23Z</time>
      </trkpt>
      <trkpt lat="42.93465" lon="0.29967">
        <ele>1129.805</ele>
        <time>2021-11-12T13:15:28Z</time>
      </trkpt>
      <trkpt lat="42.93471" lon="0.29971">
        <ele>1125.761</ele>
        <time>2021-11-12T13:15:34Z</time>
      </trkpt>
      <trkpt lat="42.93474" lon="0.29979">
        <ele>1124.033</ele>
        <time>2021-11-12T13:15:40Z</time>
      </trkpt>
      <trkpt lat="42.93479" lon="0.29985">
        <ele>1125.989</ele>
        <time>2021-11-12T13:15:46Z</time>
      </trkpt>
      <trkpt lat="42.93485" lon="0.2999">
        <ele>1126.748</ele>
        <time>2021-11-12T13:15:52Z</time>
      </trkpt>
      <trkpt lat="42.93492" lon="0.29995">
        <ele>1125.401</ele>
        <time>2021-11-12T13:15:58Z</time>
      </trkpt>
      <trkpt lat="42.93495" lon="0.30005">
        <ele>1127.775</ele>
        <time>2021-11-12T13:16:04Z</time>
      </trkpt>
      <trkpt lat="42.93496" lon="0.30014">
        <ele>1129.111</ele>
        <time>2021-11-12T13:16:10Z</time>
      </trkpt>
      <trkpt lat="42.93501" lon="0.30023">
        <ele>1130.684</ele>
        <time>2021-11-12T13:16:16Z</time>
      </trkpt>
      <trkpt lat="42.93506" lon="0.30031">
        <ele>1132.438</ele>
        <time>2021-11-12T13:16:21Z</time>
      </trkpt>
      <trkpt lat="42.9351" lon="0.30041">
        <ele>1135.145</ele>
        <time>2021-11-12T13:16:26Z</time>
      </trkpt>
      <trkpt lat="42.93512" lon="0.30051">
        <ele>1133.16</ele>
        <time>2021-11-12T13:16:34Z</time>
      </trkpt>
      <trkpt lat="42.93514" lon="0.30062">
        <ele>1133.398</ele>
        <time>2021-11-12T13:16:40Z</time>
      </trkpt>
      <trkpt lat="42.93523" lon="0.30068">
        <ele>1134.705</ele>
        <time>2021-11-12T13:16:45Z</time>
      </trkpt>
      <trkpt lat="42.93532" lon="0.3007">
        <ele>1135.941</ele>
        <time>2021-11-12T13:16:50Z</time>
      </trkpt>
      <trkpt lat="42.93535" lon="0.30078">
        <ele>1132.626</ele>
        <time>2021-11-12T13:16:58Z</time>
      </trkpt>
      <trkpt lat="42.93539" lon="0.30087">
        <ele>1134.955</ele>
        <time>2021-11-12T13:17:04Z</time>
      </trkpt>
      <trkpt lat="42.93539" lon="0.30097">
        <ele>1130.311</ele>
        <time>2021-11-12T13:17:11Z</time>
      </trkpt>
      <trkpt lat="42.93539" lon="0.30106">
        <ele>1132.863</ele>
        <time>2021-11-12T13:17:16Z</time>
      </trkpt>
      <trkpt lat="42.93546" lon="0.30108">
        <ele>1133.894</ele>
        <time>2021-11-12T13:17:24Z</time>
      </trkpt>
      <trkpt lat="42.93553" lon="0.30115">
        <ele>1133.707</ele>
        <time>2021-11-12T13:17:29Z</time>
      </trkpt>
      <trkpt lat="42.93556" lon="0.30123">
        <ele>1132.772</ele>
        <time>2021-11-12T13:17:34Z</time>
      </trkpt>
      <trkpt lat="42.93561" lon="0.30133">
        <ele>1131.685</ele>
        <time>2021-11-12T13:17:40Z</time>
      </trkpt>
      <trkpt lat="42.93566" lon="0.30141">
        <ele>1132.415</ele>
        <time>2021-11-12T13:17:45Z</time>
      </trkpt>
      <trkpt lat="42.93574" lon="0.30151">
        <ele>1129.56</ele>
        <time>2021-11-12T13:17:50Z</time>
      </trkpt>
      <trkpt lat="42.93579" lon="0.30159">
        <ele>1129.948</ele>
        <time>2021-11-12T13:17:56Z</time>
      </trkpt>
      <trkpt lat="42.93576" lon="0.30168">
        <ele>1127.823</ele>
        <time>2021-11-12T13:18:02Z</time>
      </trkpt>
      <trkpt lat="42.93579" lon="0.30182">
        <ele>1127.868</ele>
        <time>2021-11-12T13:18:07Z</time>
      </trkpt>
      <trkpt lat="42.93583" lon="0.3019">
        <ele>1129.558</ele>
        <time>2021-11-12T13:18:13Z</time>
      </trkpt>
      <trkpt lat="42.93588" lon="0.30198">
        <ele>1135.868</ele>
        <time>2021-11-12T13:18:19Z</time>
      </trkpt>
      <trkpt lat="42.93593" lon="0.30206">
        <ele>1137.814</ele>
        <time>2021-11-12T13:18:24Z</time>
      </trkpt>
      <trkpt lat="42.936" lon="0.30211">
        <ele>1138.929</ele>
        <time>2021-11-12T13:18:29Z</time>
      </trkpt>
      <trkpt lat="42.93605" lon="0.30219">
        <ele>1137.285</ele>
        <time>2021-11-12T13:18:36Z</time>
      </trkpt>
      <trkpt lat="42.93607" lon="0.30229">
        <ele>1138.984</ele>
        <time>2021-11-12T13:18:42Z</time>
      </trkpt>
      <trkpt lat="42.93612" lon="0.30241">
        <ele>1138.018</ele>
        <time>2021-11-12T13:18:48Z</time>
      </trkpt>
      <trkpt lat="42.93617" lon="0.30248">
        <ele>1137.819</ele>
        <time>2021-11-12T13:18:53Z</time>
      </trkpt>
      <trkpt lat="42.93622" lon="0.30256">
        <ele>1139.133</ele>
        <time>2021-11-12T13:18:59Z</time>
      </trkpt>
      <trkpt lat="42.93628" lon="0.30264">
        <ele>1140.288</ele>
        <time>2021-11-12T13:19:04Z</time>
      </trkpt>
      <trkpt lat="42.93633" lon="0.30271">
        <ele>1141.508</ele>
        <time>2021-11-12T13:19:09Z</time>
      </trkpt>
      <trkpt lat="42.93638" lon="0.30277">
        <ele>1143.188</ele>
        <time>2021-11-12T13:19:14Z</time>
      </trkpt>
      <trkpt lat="42.93645" lon="0.30283">
        <ele>1144.724</ele>
        <time>2021-11-12T13:19:20Z</time>
      </trkpt>
      <trkpt lat="42.93651" lon="0.30289">
        <ele>1146.954</ele>
        <time>2021-11-12T13:19:26Z</time>
      </trkpt>
      <trkpt lat="42.93659" lon="0.30293">
        <ele>1149.031</ele>
        <time>2021-11-12T13:19:32Z</time>
      </trkpt>
      <trkpt lat="42.93665" lon="0.30299">
        <ele>1146.765</ele>
        <time>2021-11-12T13:19:37Z</time>
      </trkpt>
      <trkpt lat="42.9367" lon="0.30304">
        <ele>1145.76</ele>
        <time>2021-11-12T13:19:42Z</time>
      </trkpt>
      <trkpt lat="42.93676" lon="0.30309">
        <ele>1150.578</ele>
        <time>2021-11-12T13:19:48Z</time>
      </trkpt>
      <trkpt lat="42.93681" lon="0.30317">
        <ele>1150.571</ele>
        <time>2021-11-12T13:19:53Z</time>
      </trkpt>
      <trkpt lat="42.93685" lon="0.30327">
        <ele>1150.988</ele>
        <time>2021-11-12T13:19:58Z</time>
      </trkpt>
      <trkpt lat="42.93689" lon="0.30338">
        <ele>1150.93</ele>
        <time>2021-11-12T13:20:04Z</time>
      </trkpt>
      <trkpt lat="42.93693" lon="0.30346">
        <ele>1150.583</ele>
        <time>2021-11-12T13:20:09Z</time>
      </trkpt>
      <trkpt lat="42.93697" lon="0.30354">
        <ele>1157.18</ele>
        <time>2021-11-12T13:20:14Z</time>
      </trkpt>
      <trkpt lat="42.93705" lon="0.30366">
        <ele>1155.101</ele>
        <time>2021-11-12T13:20:20Z</time>
      </trkpt>
      <trkpt lat="42.93708" lon="0.30375">
        <ele>1156.887</ele>
        <time>2021-11-12T13:20:25Z</time>
      </trkpt>
      <trkpt lat="42.93711" lon="0.30385">
        <ele>1159.375</ele>
        <time>2021-11-12T13:20:31Z</time>
      </trkpt>
      <trkpt lat="42.93715" lon="0.30393">
        <ele>1159.957</ele>
        <time>2021-11-12T13:20:37Z</time>
      </trkpt>
      <trkpt lat="42.93719" lon="0.30402">
        <ele>1157.54</ele>
        <time>2021-11-12T13:20:43Z</time>
      </trkpt>
      <trkpt lat="42.93722" lon="0.30411">
        <ele>1155.883</ele>
        <time>2021-11-12T13:20:50Z</time>
      </trkpt>
      <trkpt lat="42.93725" lon="0.30423">
        <ele>1157.461</ele>
        <time>2021-11-12T13:20:56Z</time>
      </trkpt>
      <trkpt lat="42.93727" lon="0.30433">
        <ele>1152.002</ele>
        <time>2021-11-12T13:21:03Z</time>
      </trkpt>
      <trkpt lat="42.93729" lon="0.30442">
        <ele>1151.971</ele>
        <time>2021-11-12T13:21:10Z</time>
      </trkpt>
      <trkpt lat="42.93732" lon="0.30453">
        <ele>1152.713</ele>
        <time>2021-11-12T13:21:16Z</time>
      </trkpt>
      <trkpt lat="42.93735" lon="0.30462">
        <ele>1151.806</ele>
        <time>2021-11-12T13:21:21Z</time>
      </trkpt>
      <trkpt lat="42.93738" lon="0.3047">
        <ele>1153.776</ele>
        <time>2021-11-12T13:21:26Z</time>
      </trkpt>
      <trkpt lat="42.93741" lon="0.3048">
        <ele>1156.534</ele>
        <time>2021-11-12T13:21:33Z</time>
      </trkpt>
      <trkpt lat="42.93743" lon="0.3049">
        <ele>1156.769</ele>
        <time>2021-11-12T13:21:38Z</time>
      </trkpt>
      <trkpt lat="42.93746" lon="0.30499">
        <ele>1153.759</ele>
        <time>2021-11-12T13:21:44Z</time>
      </trkpt>
      <trkpt lat="42.93749" lon="0.30507">
        <ele>1152.991</ele>
        <time>2021-11-12T13:21:51Z</time>
      </trkpt>
      <trkpt lat="42.9375" lon="0.30518">
        <ele>1154.218</ele>
        <time>2021-11-12T13:21:56Z</time>
      </trkpt>
      <trkpt lat="42.93753" lon="0.30527">
        <ele>1153.353</ele>
        <time>2021-11-12T13:22:01Z</time>
      </trkpt>
      <trkpt lat="42.93759" lon="0.30533">
        <ele>1151.87</ele>
        <time>2021-11-12T13:22:06Z</time>
      </trkpt>
      <trkpt lat="42.93762" lon="0.30541">
        <ele>1151.953</ele>
        <time>2021-11-12T13:22:13Z</time>
      </trkpt>
      <trkpt lat="42.93763" lon="0.30553">
        <ele>1155.635</ele>
        <time>2021-11-12T13:22:18Z</time>
      </trkpt>
      <trkpt lat="42.93766" lon="0.30563">
        <ele>1157.178</ele>
        <time>2021-11-12T13:22:24Z</time>
      </trkpt>
      <trkpt lat="42.93766" lon="0.30574">
        <ele>1156.044</ele>
        <time>2021-11-12T13:22:30Z</time>
      </trkpt>
      <trkpt lat="42.93768" lon="0.30585">
        <ele>1159.248</ele>
        <time>2021-11-12T13:22:36Z</time>
      </trkpt>
      <trkpt lat="42.9377" lon="0.30594">
        <ele>1162.429</ele>
        <time>2021-11-12T13:22:41Z</time>
      </trkpt>
      <trkpt lat="42.93772" lon="0.30604">
        <ele>1162.346</ele>
        <time>2021-11-12T13:22:47Z</time>
      </trkpt>
      <trkpt lat="42.93776" lon="0.30613">
        <ele>1161.133</ele>
        <time>2021-11-12T13:22:52Z</time>
      </trkpt>
      <trkpt lat="42.93779" lon="0.30622">
        <ele>1166.338</ele>
        <time>2021-11-12T13:22:59Z</time>
      </trkpt>
      <trkpt lat="42.93781" lon="0.30631">
        <ele>1167.752</ele>
        <time>2021-11-12T13:23:04Z</time>
      </trkpt>
      <trkpt lat="42.93781" lon="0.30642">
        <ele>1171.28</ele>
        <time>2021-11-12T13:23:09Z</time>
      </trkpt>
      <trkpt lat="42.93782" lon="0.30651">
        <ele>1172.859</ele>
        <time>2021-11-12T13:23:14Z</time>
      </trkpt>
      <trkpt lat="42.93782" lon="0.30662">
        <ele>1173.215</ele>
        <time>2021-11-12T13:23:20Z</time>
      </trkpt>
      <trkpt lat="42.93782" lon="0.30673">
        <ele>1175.128</ele>
        <time>2021-11-12T13:23:26Z</time>
      </trkpt>
      <trkpt lat="42.93781" lon="0.30682">
        <ele>1174.981</ele>
        <time>2021-11-12T13:23:33Z</time>
      </trkpt>
      <trkpt lat="42.93781" lon="0.30692">
        <ele>1177.374</ele>
        <time>2021-11-12T13:23:39Z</time>
      </trkpt>
      <trkpt lat="42.9378" lon="0.30701">
        <ele>1178.762</ele>
        <time>2021-11-12T13:23:46Z</time>
      </trkpt>
      <trkpt lat="42.9378" lon="0.30711">
        <ele>1181.382</ele>
        <time>2021-11-12T13:23:52Z</time>
      </trkpt>
      <trkpt lat="42.93778" lon="0.3072">
        <ele>1183.423</ele>
        <time>2021-11-12T13:23:59Z</time>
      </trkpt>
      <trkpt lat="42.93776" lon="0.3073">
        <ele>1188.21</ele>
        <time>2021-11-12T13:24:05Z</time>
      </trkpt>
      <trkpt lat="42.93775" lon="0.30739">
        <ele>1188.491</ele>
        <time>2021-11-12T13:24:12Z</time>
      </trkpt>
      <trkpt lat="42.93775" lon="0.30749">
        <ele>1190.874</ele>
        <time>2021-11-12T13:24:20Z</time>
      </trkpt>
      <trkpt lat="42.93772" lon="0.30757">
        <ele>1191.63</ele>
        <time>2021-11-12T13:24:28Z</time>
      </trkpt>
      <trkpt lat="42.93771" lon="0.30765">
        <ele>1189.921</ele>
        <time>2021-11-12T13:24:35Z</time>
      </trkpt>
      <trkpt lat="42.9377" lon="0.30775">
        <ele>1188.421</ele>
        <time>2021-11-12T13:24:42Z</time>
      </trkpt>
      <trkpt lat="42.93764" lon="0.30783">
        <ele>1189.514</ele>
        <time>2021-11-12T13:24:48Z</time>
      </trkpt>
      <trkpt lat="42.93764" lon="0.30792">
        <ele>1191.399</ele>
        <time>2021-11-12T13:24:55Z</time>
      </trkpt>
      <trkpt lat="42.93763" lon="0.30801">
        <ele>1190.631</ele>
        <time>2021-11-12T13:25:03Z</time>
      </trkpt>
      <trkpt lat="42.93762" lon="0.30811">
        <ele>1185.877</ele>
        <time>2021-11-12T13:25:10Z</time>
      </trkpt>
      <trkpt lat="42.93761" lon="0.3082">
        <ele>1181.589</ele>
        <time>2021-11-12T13:25:17Z</time>
      </trkpt>
      <trkpt lat="42.93759" lon="0.3083">
        <ele>1181.51</ele>
        <time>2021-11-12T13:25:23Z</time>
      </trkpt>
      <trkpt lat="42.93758" lon="0.30839">
        <ele>1184.523</ele>
        <time>2021-11-12T13:25:29Z</time>
      </trkpt>
      <trkpt lat="42.93755" lon="0.30847">
        <ele>1187.262</ele>
        <time>2021-11-12T13:25:35Z</time>
      </trkpt>
      <trkpt lat="42.93755" lon="0.30856">
        <ele>1187.21</ele>
        <time>2021-11-12T13:25:41Z</time>
      </trkpt>
      <trkpt lat="42.93753" lon="0.30865">
        <ele>1188.192</ele>
        <time>2021-11-12T13:25:48Z</time>
      </trkpt>
      <trkpt lat="42.93749" lon="0.30872">
        <ele>1190.466</ele>
        <time>2021-11-12T13:25:54Z</time>
      </trkpt>
      <trkpt lat="42.93749" lon="0.30881">
        <ele>1191.429</ele>
        <time>2021-11-12T13:26:00Z</time>
      </trkpt>
      <trkpt lat="42.93747" lon="0.3089">
        <ele>1192.773</ele>
        <time>2021-11-12T13:26:06Z</time>
      </trkpt>
      <trkpt lat="42.93746" lon="0.309">
        <ele>1191.501</ele>
        <time>2021-11-12T13:26:13Z</time>
      </trkpt>
      <trkpt lat="42.93746" lon="0.30909">
        <ele>1189.807</ele>
        <time>2021-11-12T13:26:19Z</time>
      </trkpt>
      <trkpt lat="42.93747" lon="0.30918">
        <ele>1189.941</ele>
        <time>2021-11-12T13:26:24Z</time>
      </trkpt>
      <trkpt lat="42.93746" lon="0.3093">
        <ele>1190.621</ele>
        <time>2021-11-12T13:26:29Z</time>
      </trkpt>
      <trkpt lat="42.93744" lon="0.30939">
        <ele>1190.985</ele>
        <time>2021-11-12T13:26:35Z</time>
      </trkpt>
      <trkpt lat="42.93747" lon="0.30948">
        <ele>1189.091</ele>
        <time>2021-11-12T13:26:41Z</time>
      </trkpt>
      <trkpt lat="42.9375" lon="0.30959">
        <ele>1189.749</ele>
        <time>2021-11-12T13:26:46Z</time>
      </trkpt>
      <trkpt lat="42.93755" lon="0.30971">
        <ele>1193.635</ele>
        <time>2021-11-12T13:26:52Z</time>
      </trkpt>
      <trkpt lat="42.93761" lon="0.30978">
        <ele>1193.646</ele>
        <time>2021-11-12T13:26:57Z</time>
      </trkpt>
      <trkpt lat="42.93767" lon="0.30984">
        <ele>1192.448</ele>
        <time>2021-11-12T13:27:02Z</time>
      </trkpt>
      <trkpt lat="42.93771" lon="0.30991">
        <ele>1192.775</ele>
        <time>2021-11-12T13:27:08Z</time>
      </trkpt>
      <trkpt lat="42.93773" lon="0.31001">
        <ele>1193.477</ele>
        <time>2021-11-12T13:27:15Z</time>
      </trkpt>
      <trkpt lat="42.93779" lon="0.31007">
        <ele>1194.485</ele>
        <time>2021-11-12T13:27:20Z</time>
      </trkpt>
      <trkpt lat="42.93784" lon="0.31014">
        <ele>1193.068</ele>
        <time>2021-11-12T13:27:27Z</time>
      </trkpt>
      <trkpt lat="42.93789" lon="0.31021">
        <ele>1194.007</ele>
        <time>2021-11-12T13:27:33Z</time>
      </trkpt>
      <trkpt lat="42.93789" lon="0.31034">
        <ele>1196.279</ele>
        <time>2021-11-12T13:27:38Z</time>
      </trkpt>
      <trkpt lat="42.93792" lon="0.31043">
        <ele>1197.139</ele>
        <time>2021-11-12T13:27:44Z</time>
      </trkpt>
      <trkpt lat="42.93798" lon="0.31048">
        <ele>1195.657</ele>
        <time>2021-11-12T13:27:50Z</time>
      </trkpt>
      <trkpt lat="42.93804" lon="0.31054">
        <ele>1195.745</ele>
        <time>2021-11-12T13:27:56Z</time>
      </trkpt>
      <trkpt lat="42.93809" lon="0.31061">
        <ele>1196.003</ele>
        <time>2021-11-12T13:28:01Z</time>
      </trkpt>
      <trkpt lat="42.93811" lon="0.31071">
        <ele>1197.504</ele>
        <time>2021-11-12T13:28:06Z</time>
      </trkpt>
      <trkpt lat="42.93816" lon="0.31079">
        <ele>1197.592</ele>
        <time>2021-11-12T13:28:11Z</time>
      </trkpt>
      <trkpt lat="42.93822" lon="0.31084">
        <ele>1196.376</ele>
        <time>2021-11-12T13:28:18Z</time>
      </trkpt>
      <trkpt lat="42.93827" lon="0.31091">
        <ele>1195.176</ele>
        <time>2021-11-12T13:28:25Z</time>
      </trkpt>
      <trkpt lat="42.93832" lon="0.31098">
        <ele>1194.946</ele>
        <time>2021-11-12T13:28:30Z</time>
      </trkpt>
      <trkpt lat="42.93837" lon="0.31109">
        <ele>1200.145</ele>
        <time>2021-11-12T13:28:36Z</time>
      </trkpt>
      <trkpt lat="42.93839" lon="0.31118">
        <ele>1202.693</ele>
        <time>2021-11-12T13:28:43Z</time>
      </trkpt>
      <trkpt lat="42.93842" lon="0.31126">
        <ele>1204.997</ele>
        <time>2021-11-12T13:28:48Z</time>
      </trkpt>
      <trkpt lat="42.93845" lon="0.31136">
        <ele>1209.186</ele>
        <time>2021-11-12T13:28:54Z</time>
      </trkpt>
      <trkpt lat="42.93848" lon="0.31145">
        <ele>1212.889</ele>
        <time>2021-11-12T13:28:59Z</time>
      </trkpt>
      <trkpt lat="42.9385" lon="0.31154">
        <ele>1217.949</ele>
        <time>2021-11-12T13:29:04Z</time>
      </trkpt>
      <trkpt lat="42.93851" lon="0.31165">
        <ele>1222.944</ele>
        <time>2021-11-12T13:29:09Z</time>
      </trkpt>
      <trkpt lat="42.93853" lon="0.31175">
        <ele>1225.77</ele>
        <time>2021-11-12T13:29:16Z</time>
      </trkpt>
      <trkpt lat="42.93854" lon="0.31187">
        <ele>1226.725</ele>
        <time>2021-11-12T13:29:21Z</time>
      </trkpt>
      <trkpt lat="42.93854" lon="0.31197">
        <ele>1228.24</ele>
        <time>2021-11-12T13:29:26Z</time>
      </trkpt>
      <trkpt lat="42.93857" lon="0.31208">
        <ele>1231.727</ele>
        <time>2021-11-12T13:29:32Z</time>
      </trkpt>
      <trkpt lat="42.93861" lon="0.31217">
        <ele>1221.3</ele>
        <time>2021-11-12T13:29:38Z</time>
      </trkpt>
      <trkpt lat="42.93868" lon="0.31223">
        <ele>1216.643</ele>
        <time>2021-11-12T13:29:44Z</time>
      </trkpt>
      <trkpt lat="42.9387" lon="0.31233">
        <ele>1215.894</ele>
        <time>2021-11-12T13:29:49Z</time>
      </trkpt>
      <trkpt lat="42.9387" lon="0.31245">
        <ele>1218.101</ele>
        <time>2021-11-12T13:29:54Z</time>
      </trkpt>
      <trkpt lat="42.9387" lon="0.31258">
        <ele>1216.214</ele>
        <time>2021-11-12T13:30:00Z</time>
      </trkpt>
      <trkpt lat="42.93875" lon="0.31264">
        <ele>1213.927</ele>
        <time>2021-11-12T13:30:07Z</time>
      </trkpt>
      <trkpt lat="42.93881" lon="0.31266">
        <ele>1213.718</ele>
        <time>2021-11-12T13:30:13Z</time>
      </trkpt>
      <trkpt lat="42.93884" lon="0.31274">
        <ele>1211.45</ele>
        <time>2021-11-12T13:30:19Z</time>
      </trkpt>
      <trkpt lat="42.93889" lon="0.3128">
        <ele>1213.473</ele>
        <time>2021-11-12T13:30:24Z</time>
      </trkpt>
      <trkpt lat="42.93895" lon="0.31286">
        <ele>1213.791</ele>
        <time>2021-11-12T13:30:31Z</time>
      </trkpt>
      <trkpt lat="42.93898" lon="0.31294">
        <ele>1211.591</ele>
        <time>2021-11-12T13:30:37Z</time>
      </trkpt>
      <trkpt lat="42.939" lon="0.31303">
        <ele>1213.044</ele>
        <time>2021-11-12T13:30:46Z</time>
      </trkpt>
      <trkpt lat="42.93904" lon="0.3131">
        <ele>1214.227</ele>
        <time>2021-11-12T13:30:55Z</time>
      </trkpt>
      <trkpt lat="42.93903" lon="0.3132">
        <ele>1216.084</ele>
        <time>2021-11-12T13:31:00Z</time>
      </trkpt>
      <trkpt lat="42.93904" lon="0.31329">
        <ele>1215.862</ele>
        <time>2021-11-12T13:31:07Z</time>
      </trkpt>
      <trkpt lat="42.93909" lon="0.31335">
        <ele>1218.098</ele>
        <time>2021-11-12T13:31:14Z</time>
      </trkpt>
      <trkpt lat="42.93911" lon="0.31345">
        <ele>1216.868</ele>
        <time>2021-11-12T13:31:22Z</time>
      </trkpt>
      <trkpt lat="42.9391" lon="0.31356">
        <ele>1215.273</ele>
        <time>2021-11-12T13:31:28Z</time>
      </trkpt>
      <trkpt lat="42.93909" lon="0.31365">
        <ele>1217.816</ele>
        <time>2021-11-12T13:31:33Z</time>
      </trkpt>
      <trkpt lat="42.93915" lon="0.31369">
        <ele>1216.492</ele>
        <time>2021-11-12T13:31:39Z</time>
      </trkpt>
      <trkpt lat="42.93921" lon="0.31375">
        <ele>1220.927</ele>
        <time>2021-11-12T13:31:45Z</time>
      </trkpt>
      <trkpt lat="42.93927" lon="0.3138">
        <ele>1223.828</ele>
        <time>2021-11-12T13:31:53Z</time>
      </trkpt>
      <trkpt lat="42.93935" lon="0.31384">
        <ele>1221.777</ele>
        <time>2021-11-12T13:31:58Z</time>
      </trkpt>
      <trkpt lat="42.93941" lon="0.31389">
        <ele>1221.783</ele>
        <time>2021-11-12T13:32:04Z</time>
      </trkpt>
      <trkpt lat="42.93948" lon="0.31395">
        <ele>1222.365</ele>
        <time>2021-11-12T13:32:10Z</time>
      </trkpt>
      <trkpt lat="42.93951" lon="0.31403">
        <ele>1219.656</ele>
        <time>2021-11-12T13:32:18Z</time>
      </trkpt>
      <trkpt lat="42.93959" lon="0.31407">
        <ele>1218.86</ele>
        <time>2021-11-12T13:32:24Z</time>
      </trkpt>
      <trkpt lat="42.93964" lon="0.31413">
        <ele>1222.18</ele>
        <time>2021-11-12T13:32:30Z</time>
      </trkpt>
      <trkpt lat="42.93972" lon="0.3142">
        <ele>1226.953</ele>
        <time>2021-11-12T13:32:36Z</time>
      </trkpt>
      <trkpt lat="42.93979" lon="0.31413">
        <ele>1229.455</ele>
        <time>2021-11-12T13:32:50Z</time>
      </trkpt>
      <trkpt lat="42.93987" lon="0.31413">
        <ele>1229.875</ele>
        <time>2021-11-12T13:33:19Z</time>
      </trkpt>
      <trkpt lat="42.93996" lon="0.31411">
        <ele>1231.451</ele>
        <time>2021-11-12T13:33:24Z</time>
      </trkpt>
      <trkpt lat="42.94009" lon="0.31408">
        <ele>1227.725</ele>
        <time>2021-11-12T13:33:29Z</time>
      </trkpt>
      <trkpt lat="42.94015" lon="0.31408">
        <ele>1222.19</ele>
        <time>2021-11-12T13:33:34Z</time>
      </trkpt>
      <trkpt lat="42.94023" lon="0.31407">
        <ele>1226.903</ele>
        <time>2021-11-12T13:33:40Z</time>
      </trkpt>
      <trkpt lat="42.94029" lon="0.314">
        <ele>1225.68</ele>
        <time>2021-11-12T13:33:45Z</time>
      </trkpt>
      <trkpt lat="42.94036" lon="0.31397">
        <ele>1221.016</ele>
        <time>2021-11-12T13:33:52Z</time>
      </trkpt>
      <trkpt lat="42.94044" lon="0.31398">
        <ele>1224.901</ele>
        <time>2021-11-12T13:34:00Z</time>
      </trkpt>
      <trkpt lat="42.94051" lon="0.31398">
        <ele>1227.921</ele>
        <time>2021-11-12T13:34:05Z</time>
      </trkpt>
      <trkpt lat="42.94057" lon="0.31396">
        <ele>1234.212</ele>
        <time>2021-11-12T13:34:12Z</time>
      </trkpt>
      <trkpt lat="42.94064" lon="0.31395">
        <ele>1228.006</ele>
        <time>2021-11-12T13:34:18Z</time>
      </trkpt>
      <trkpt lat="42.94072" lon="0.31389">
        <ele>1233.42</ele>
        <time>2021-11-12T13:34:24Z</time>
      </trkpt>
      <trkpt lat="42.94077" lon="0.31383">
        <ele>1241.674</ele>
        <time>2021-11-12T13:34:37Z</time>
      </trkpt>
      <trkpt lat="42.94085" lon="0.31382">
        <ele>1242.938</ele>
        <time>2021-11-12T13:34:49Z</time>
      </trkpt>
      <trkpt lat="42.94091" lon="0.31377">
        <ele>1245.985</ele>
        <time>2021-11-12T13:34:55Z</time>
      </trkpt>
      <trkpt lat="42.94098" lon="0.31378">
        <ele>1247.488</ele>
        <time>2021-11-12T13:35:02Z</time>
      </trkpt>
      <trkpt lat="42.94104" lon="0.31382">
        <ele>1249.165</ele>
        <time>2021-11-12T13:35:08Z</time>
      </trkpt>
      <trkpt lat="42.94111" lon="0.31383">
        <ele>1249.299</ele>
        <time>2021-11-12T13:35:17Z</time>
      </trkpt>
      <trkpt lat="42.94119" lon="0.31382">
        <ele>1249.038</ele>
        <time>2021-11-12T13:35:22Z</time>
      </trkpt>
      <trkpt lat="42.94126" lon="0.31379">
        <ele>1249.93</ele>
        <time>2021-11-12T13:35:28Z</time>
      </trkpt>
      <trkpt lat="42.94129" lon="0.31388">
        <ele>1263.009</ele>
        <time>2021-11-12T13:35:51Z</time>
      </trkpt>
      <trkpt lat="42.94136" lon="0.31387">
        <ele>1264.665</ele>
        <time>2021-11-12T13:35:58Z</time>
      </trkpt>
      <trkpt lat="42.94141" lon="0.31393">
        <ele>1255.453</ele>
        <time>2021-11-12T13:36:06Z</time>
      </trkpt>
      <trkpt lat="42.94143" lon="0.31402">
        <ele>1254.317</ele>
        <time>2021-11-12T13:36:12Z</time>
      </trkpt>
      <trkpt lat="42.94149" lon="0.31406">
        <ele>1251.699</ele>
        <time>2021-11-12T13:36:20Z</time>
      </trkpt>
      <trkpt lat="42.94154" lon="0.31412">
        <ele>1253.834</ele>
        <time>2021-11-12T13:36:31Z</time>
      </trkpt>
      <trkpt lat="42.94152" lon="0.31421">
        <ele>1260.398</ele>
        <time>2021-11-12T13:36:37Z</time>
      </trkpt>
      <trkpt lat="42.94155" lon="0.3143">
        <ele>1262.917</ele>
        <time>2021-11-12T13:36:44Z</time>
      </trkpt>
      <trkpt lat="42.9416" lon="0.31435">
        <ele>1268.735</ele>
        <time>2021-11-12T13:36:57Z</time>
      </trkpt>
      <trkpt lat="42.94154" lon="0.31439">
        <ele>1263.431</ele>
        <time>2021-11-12T13:37:39Z</time>
      </trkpt>
      <trkpt lat="42.94143" lon="0.31443">
        <ele>1273.485</ele>
        <time>2021-11-12T13:37:44Z</time>
      </trkpt>
      <trkpt lat="42.94133" lon="0.31448">
        <ele>1277.672</ele>
        <time>2021-11-12T13:37:49Z</time>
      </trkpt>
      <trkpt lat="42.94126" lon="0.31448">
        <ele>1276.161</ele>
        <time>2021-11-12T13:37:54Z</time>
      </trkpt>
      <trkpt lat="42.94118" lon="0.31455">
        <ele>1281.192</ele>
        <time>2021-11-12T13:38:00Z</time>
      </trkpt>
      <trkpt lat="42.94111" lon="0.31459">
        <ele>1278.805</ele>
        <time>2021-11-12T13:38:06Z</time>
      </trkpt>
      <trkpt lat="42.94104" lon="0.31462">
        <ele>1275.5</ele>
        <time>2021-11-12T13:38:15Z</time>
      </trkpt>
      <trkpt lat="42.94098" lon="0.31465">
        <ele>1277.988</ele>
        <time>2021-11-12T13:38:22Z</time>
      </trkpt>
      <trkpt lat="42.94093" lon="0.31471">
        <ele>1279.764</ele>
        <time>2021-11-12T13:38:30Z</time>
      </trkpt>
      <trkpt lat="42.94087" lon="0.31481">
        <ele>1279.826</ele>
        <time>2021-11-12T13:38:36Z</time>
      </trkpt>
      <trkpt lat="42.94081" lon="0.31488">
        <ele>1282.442</ele>
        <time>2021-11-12T13:38:41Z</time>
      </trkpt>
      <trkpt lat="42.94075" lon="0.31492">
        <ele>1278.991</ele>
        <time>2021-11-12T13:38:52Z</time>
      </trkpt>
      <trkpt lat="42.94071" lon="0.31498">
        <ele>1280.13</ele>
        <time>2021-11-12T13:39:00Z</time>
      </trkpt>
      <trkpt lat="42.94065" lon="0.31505">
        <ele>1284.159</ele>
        <time>2021-11-12T13:39:05Z</time>
      </trkpt>
      <trkpt lat="42.94062" lon="0.31513">
        <ele>1287.43</ele>
        <time>2021-11-12T13:39:12Z</time>
      </trkpt>
      <trkpt lat="42.94056" lon="0.31518">
        <ele>1287.379</ele>
        <time>2021-11-12T13:39:21Z</time>
      </trkpt>
      <trkpt lat="42.94052" lon="0.31526">
        <ele>1289.087</ele>
        <time>2021-11-12T13:39:29Z</time>
      </trkpt>
      <trkpt lat="42.9405" lon="0.31535">
        <ele>1293.581</ele>
        <time>2021-11-12T13:39:37Z</time>
      </trkpt>
      <trkpt lat="42.94049" lon="0.31544">
        <ele>1292.424</ele>
        <time>2021-11-12T13:39:48Z</time>
      </trkpt>
      <trkpt lat="42.94048" lon="0.31553">
        <ele>1293.173</ele>
        <time>2021-11-12T13:39:59Z</time>
      </trkpt>
      <trkpt lat="42.94051" lon="0.31561">
        <ele>1295.045</ele>
        <time>2021-11-12T13:40:16Z</time>
      </trkpt>
      <trkpt lat="42.94058" lon="0.31563">
        <ele>1293.739</ele>
        <time>2021-11-12T13:40:24Z</time>
      </trkpt>
      <trkpt lat="42.94065" lon="0.3156">
        <ele>1296.81</ele>
        <time>2021-11-12T13:40:29Z</time>
      </trkpt>
      <trkpt lat="42.94071" lon="0.3156">
        <ele>1294.842</ele>
        <time>2021-11-12T13:40:38Z</time>
      </trkpt>
      <trkpt lat="42.94077" lon="0.31555">
        <ele>1298.001</ele>
        <time>2021-11-12T13:41:10Z</time>
      </trkpt>
      <trkpt lat="42.94084" lon="0.31554">
        <ele>1298.151</ele>
        <time>2021-11-12T13:41:17Z</time>
      </trkpt>
      <trkpt lat="42.94091" lon="0.31554">
        <ele>1298.513</ele>
        <time>2021-11-12T13:41:24Z</time>
      </trkpt>
      <trkpt lat="42.94098" lon="0.31558">
        <ele>1294.079</ele>
        <time>2021-11-12T13:41:32Z</time>
      </trkpt>
      <trkpt lat="42.94102" lon="0.31566">
        <ele>1308.578</ele>
        <time>2021-11-12T13:42:00Z</time>
      </trkpt>
      <trkpt lat="42.94109" lon="0.31569">
        <ele>1309.324</ele>
        <time>2021-11-12T13:42:06Z</time>
      </trkpt>
      <trkpt lat="42.94114" lon="0.31577">
        <ele>1310.254</ele>
        <time>2021-11-12T13:42:29Z</time>
      </trkpt>
      <trkpt lat="42.9412" lon="0.31582">
        <ele>1307.697</ele>
        <time>2021-11-12T13:42:36Z</time>
      </trkpt>
      <trkpt lat="42.94125" lon="0.31588">
        <ele>1309.582</ele>
        <time>2021-11-12T13:42:44Z</time>
      </trkpt>
      <trkpt lat="42.9413" lon="0.31595">
        <ele>1311.647</ele>
        <time>2021-11-12T13:43:00Z</time>
      </trkpt>
      <trkpt lat="42.94131" lon="0.31604">
        <ele>1313.297</ele>
        <time>2021-11-12T13:43:09Z</time>
      </trkpt>
      <trkpt lat="42.94135" lon="0.31611">
        <ele>1317.032</ele>
        <time>2021-11-12T13:43:26Z</time>
      </trkpt>
      <trkpt lat="42.94143" lon="0.31616">
        <ele>1313.034</ele>
        <time>2021-11-12T13:43:32Z</time>
      </trkpt>
      <trkpt lat="42.94151" lon="0.3162">
        <ele>1316.62</ele>
        <time>2021-11-12T13:43:37Z</time>
      </trkpt>
      <trkpt lat="42.94155" lon="0.31629">
        <ele>1316.452</ele>
        <time>2021-11-12T13:43:42Z</time>
      </trkpt>
      <trkpt lat="42.94161" lon="0.31633">
        <ele>1316.843</ele>
        <time>2021-11-12T13:43:49Z</time>
      </trkpt>
      <trkpt lat="42.94168" lon="0.31636">
        <ele>1322.037</ele>
        <time>2021-11-12T13:43:56Z</time>
      </trkpt>
      <trkpt lat="42.94168" lon="0.31645">
        <ele>1323.616</ele>
        <time>2021-11-12T13:44:04Z</time>
      </trkpt>
      <trkpt lat="42.94171" lon="0.31653">
        <ele>1330.183</ele>
        <time>2021-11-12T13:44:27Z</time>
      </trkpt>
      <trkpt lat="42.94176" lon="0.31661">
        <ele>1335.55</ele>
        <time>2021-11-12T13:44:33Z</time>
      </trkpt>
      <trkpt lat="42.94173" lon="0.31668">
        <ele>1330.28</ele>
        <time>2021-11-12T13:44:57Z</time>
      </trkpt>
      <trkpt lat="42.94165" lon="0.31667">
        <ele>1335.932</ele>
        <time>2021-11-12T13:45:19Z</time>
      </trkpt>
      <trkpt lat="42.94159" lon="0.31672">
        <ele>1334.045</ele>
        <time>2021-11-12T13:45:28Z</time>
      </trkpt>
      <trkpt lat="42.94153" lon="0.31672">
        <ele>1341.2</ele>
        <time>2021-11-12T13:45:49Z</time>
      </trkpt>
      <trkpt lat="42.94146" lon="0.31676">
        <ele>1344.68</ele>
        <time>2021-11-12T13:46:01Z</time>
      </trkpt>
      <trkpt lat="42.94139" lon="0.31676">
        <ele>1346.796</ele>
        <time>2021-11-12T13:46:08Z</time>
      </trkpt>
      <trkpt lat="42.94133" lon="0.31679">
        <ele>1343.97</ele>
        <time>2021-11-12T13:46:16Z</time>
      </trkpt>
      <trkpt lat="42.94127" lon="0.31685">
        <ele>1346.939</ele>
        <time>2021-11-12T13:46:23Z</time>
      </trkpt>
      <trkpt lat="42.94121" lon="0.3169">
        <ele>1347.784</ele>
        <time>2021-11-12T13:46:32Z</time>
      </trkpt>
      <trkpt lat="42.94116" lon="0.31697">
        <ele>1350.072</ele>
        <time>2021-11-12T13:46:41Z</time>
      </trkpt>
      <trkpt lat="42.9412" lon="0.31704">
        <ele>1352.827</ele>
        <time>2021-11-12T13:46:53Z</time>
      </trkpt>
      <trkpt lat="42.94124" lon="0.31712">
        <ele>1359.412</ele>
        <time>2021-11-12T13:47:05Z</time>
      </trkpt>
      <trkpt lat="42.94128" lon="0.3172">
        <ele>1362.954</ele>
        <time>2021-11-12T13:47:14Z</time>
      </trkpt>
      <trkpt lat="42.94136" lon="0.31726">
        <ele>1361.196</ele>
        <time>2021-11-12T13:47:20Z</time>
      </trkpt>
      <trkpt lat="42.94137" lon="0.31736">
        <ele>1359.668</ele>
        <time>2021-11-12T13:47:28Z</time>
      </trkpt>
      <trkpt lat="42.9414" lon="0.31746">
        <ele>1367.1</ele>
        <time>2021-11-12T13:47:52Z</time>
      </trkpt>
      <trkpt lat="42.94144" lon="0.31754">
        <ele>1376.016</ele>
        <time>2021-11-12T13:47:58Z</time>
      </trkpt>
      <trkpt lat="42.94145" lon="0.31763">
        <ele>1375.05</ele>
        <time>2021-11-12T13:48:09Z</time>
      </trkpt>
      <trkpt lat="42.94152" lon="0.31767">
        <ele>1369.101</ele>
        <time>2021-11-12T13:48:21Z</time>
      </trkpt>
      <trkpt lat="42.94159" lon="0.31771">
        <ele>1376.24</ele>
        <time>2021-11-12T13:48:28Z</time>
      </trkpt>
      <trkpt lat="42.9416" lon="0.31781">
        <ele>1375.207</ele>
        <time>2021-11-12T13:49:01Z</time>
      </trkpt>
      <trkpt lat="42.94159" lon="0.31795">
        <ele>1379.983</ele>
        <time>2021-11-12T13:49:06Z</time>
      </trkpt>
      <trkpt lat="42.94158" lon="0.31804">
        <ele>1383.129</ele>
        <time>2021-11-12T13:49:12Z</time>
      </trkpt>
      <trkpt lat="42.94152" lon="0.31807">
        <ele>1382.654</ele>
        <time>2021-11-12T13:49:28Z</time>
      </trkpt>
      <trkpt lat="42.94145" lon="0.31809">
        <ele>1386.701</ele>
        <time>2021-11-12T13:49:42Z</time>
      </trkpt>
      <trkpt lat="42.94138" lon="0.31812">
        <ele>1389.326</ele>
        <time>2021-11-12T13:50:17Z</time>
      </trkpt>
      <trkpt lat="42.94132" lon="0.31815">
        <ele>1385.755</ele>
        <time>2021-11-12T13:50:24Z</time>
      </trkpt>
      <trkpt lat="42.94125" lon="0.31816">
        <ele>1388.507</ele>
        <time>2021-11-12T13:50:39Z</time>
      </trkpt>
      <trkpt lat="42.9412" lon="0.31822">
        <ele>1386.334</ele>
        <time>2021-11-12T13:50:47Z</time>
      </trkpt>
      <trkpt lat="42.94115" lon="0.31829">
        <ele>1388.583</ele>
        <time>2021-11-12T13:50:59Z</time>
      </trkpt>
      <trkpt lat="42.9411" lon="0.31836">
        <ele>1390.622</ele>
        <time>2021-11-12T13:51:07Z</time>
      </trkpt>
      <trkpt lat="42.94105" lon="0.31841">
        <ele>1390.874</ele>
        <time>2021-11-12T13:51:15Z</time>
      </trkpt>
      <trkpt lat="42.94103" lon="0.3185">
        <ele>1398.306</ele>
        <time>2021-11-12T13:51:26Z</time>
      </trkpt>
      <trkpt lat="42.94098" lon="0.31856">
        <ele>1401.559</ele>
        <time>2021-11-12T13:52:09Z</time>
      </trkpt>
      <trkpt lat="42.94095" lon="0.31866">
        <ele>1402.378</ele>
        <time>2021-11-12T13:52:16Z</time>
      </trkpt>
      <trkpt lat="42.941" lon="0.31873">
        <ele>1403.518</ele>
        <time>2021-11-12T13:52:24Z</time>
      </trkpt>
      <trkpt lat="42.941" lon="0.31882">
        <ele>1411.952</ele>
        <time>2021-11-12T13:52:38Z</time>
      </trkpt>
      <trkpt lat="42.94105" lon="0.31889">
        <ele>1413.875</ele>
        <time>2021-11-12T13:52:45Z</time>
      </trkpt>
      <trkpt lat="42.94107" lon="0.319">
        <ele>1415.123</ele>
        <time>2021-11-12T13:52:52Z</time>
      </trkpt>
      <trkpt lat="42.94113" lon="0.31905">
        <ele>1419.657</ele>
        <time>2021-11-12T13:53:25Z</time>
      </trkpt>
      <trkpt lat="42.9412" lon="0.31906">
        <ele>1420.7</ele>
        <time>2021-11-12T13:53:30Z</time>
      </trkpt>
      <trkpt lat="42.94131" lon="0.31915">
        <ele>1421.577</ele>
        <time>2021-11-12T13:53:36Z</time>
      </trkpt>
      <trkpt lat="42.94136" lon="0.31922">
        <ele>1424.892</ele>
        <time>2021-11-12T13:53:45Z</time>
      </trkpt>
      <trkpt lat="42.94131" lon="0.31929">
        <ele>1411.062</ele>
        <time>2021-11-12T13:54:13Z</time>
      </trkpt>
      <trkpt lat="42.94134" lon="0.31938">
        <ele>1418.66</ele>
        <time>2021-11-12T13:54:20Z</time>
      </trkpt>
      <trkpt lat="42.94136" lon="0.31947">
        <ele>1420.047</ele>
        <time>2021-11-12T13:54:25Z</time>
      </trkpt>
      <trkpt lat="42.94139" lon="0.31956">
        <ele>1416.442</ele>
        <time>2021-11-12T13:54:30Z</time>
      </trkpt>
      <trkpt lat="42.94144" lon="0.31962">
        <ele>1421.348</ele>
        <time>2021-11-12T13:54:37Z</time>
      </trkpt>
      <trkpt lat="42.94148" lon="0.3197">
        <ele>1424.668</ele>
        <time>2021-11-12T13:54:43Z</time>
      </trkpt>
      <trkpt lat="42.9415" lon="0.31979">
        <ele>1423.042</ele>
        <time>2021-11-12T13:54:52Z</time>
      </trkpt>
      <trkpt lat="42.94148" lon="0.31988">
        <ele>1426.276</ele>
        <time>2021-11-12T13:55:01Z</time>
      </trkpt>
      <trkpt lat="42.9415" lon="0.31998">
        <ele>1430.194</ele>
        <time>2021-11-12T13:55:08Z</time>
      </trkpt>
      <trkpt lat="42.94152" lon="0.32009">
        <ele>1429.343</ele>
        <time>2021-11-12T13:55:14Z</time>
      </trkpt>
      <trkpt lat="42.94153" lon="0.32018">
        <ele>1428.669</ele>
        <time>2021-11-12T13:55:20Z</time>
      </trkpt>
      <trkpt lat="42.94156" lon="0.32028">
        <ele>1433.36</ele>
        <time>2021-11-12T13:55:26Z</time>
      </trkpt>
      <trkpt lat="42.94154" lon="0.32037">
        <ele>1436.304</ele>
        <time>2021-11-12T13:55:32Z</time>
      </trkpt>
      <trkpt lat="42.94155" lon="0.32046">
        <ele>1439.907</ele>
        <time>2021-11-12T13:55:41Z</time>
      </trkpt>
      <trkpt lat="42.94158" lon="0.32054">
        <ele>1438.299</ele>
        <time>2021-11-12T13:55:48Z</time>
      </trkpt>
      <trkpt lat="42.94163" lon="0.32067">
        <ele>1439.603</ele>
        <time>2021-11-12T13:55:53Z</time>
      </trkpt>
      <trkpt lat="42.94163" lon="0.32077">
        <ele>1439.436</ele>
        <time>2021-11-12T13:55:58Z</time>
      </trkpt>
      <trkpt lat="42.94165" lon="0.32086">
        <ele>1438.086</ele>
        <time>2021-11-12T13:56:04Z</time>
      </trkpt>
      <trkpt lat="42.94167" lon="0.32094">
        <ele>1435.868</ele>
        <time>2021-11-12T13:56:11Z</time>
      </trkpt>
      <trkpt lat="42.94172" lon="0.32101">
        <ele>1437.87</ele>
        <time>2021-11-12T13:56:17Z</time>
      </trkpt>
      <trkpt lat="42.94171" lon="0.32111">
        <ele>1437.879</ele>
        <time>2021-11-12T13:56:23Z</time>
      </trkpt>
      <trkpt lat="42.9417" lon="0.32122">
        <ele>1435.608</ele>
        <time>2021-11-12T13:56:28Z</time>
      </trkpt>
      <trkpt lat="42.94169" lon="0.3213">
        <ele>1434.348</ele>
        <time>2021-11-12T13:56:34Z</time>
      </trkpt>
      <trkpt lat="42.9417" lon="0.32141">
        <ele>1435.646</ele>
        <time>2021-11-12T13:56:40Z</time>
      </trkpt>
      <trkpt lat="42.94176" lon="0.32148">
        <ele>1434.745</ele>
        <time>2021-11-12T13:56:45Z</time>
      </trkpt>
      <trkpt lat="42.94181" lon="0.32158">
        <ele>1437.022</ele>
        <time>2021-11-12T13:56:50Z</time>
      </trkpt>
      <trkpt lat="42.94187" lon="0.32166">
        <ele>1439.528</ele>
        <time>2021-11-12T13:56:56Z</time>
      </trkpt>
      <trkpt lat="42.94184" lon="0.32175">
        <ele>1441.526</ele>
        <time>2021-11-12T13:57:01Z</time>
      </trkpt>
      <trkpt lat="42.94182" lon="0.32185">
        <ele>1448.081</ele>
        <time>2021-11-12T13:57:07Z</time>
      </trkpt>
      <trkpt lat="42.94183" lon="0.32196">
        <ele>1451.412</ele>
        <time>2021-11-12T13:57:12Z</time>
      </trkpt>
      <trkpt lat="42.94184" lon="0.32205">
        <ele>1453.755</ele>
        <time>2021-11-12T13:57:17Z</time>
      </trkpt>
      <trkpt lat="42.9418" lon="0.32213">
        <ele>1449.523</ele>
        <time>2021-11-12T13:57:23Z</time>
      </trkpt>
      <trkpt lat="42.94175" lon="0.32219">
        <ele>1450.593</ele>
        <time>2021-11-12T13:57:29Z</time>
      </trkpt>
      <trkpt lat="42.94178" lon="0.32229">
        <ele>1452.225</ele>
        <time>2021-11-12T13:57:34Z</time>
      </trkpt>
      <trkpt lat="42.94181" lon="0.3224">
        <ele>1450.21</ele>
        <time>2021-11-12T13:57:40Z</time>
      </trkpt>
      <trkpt lat="42.94184" lon="0.32249">
        <ele>1449.215</ele>
        <time>2021-11-12T13:57:45Z</time>
      </trkpt>
      <trkpt lat="42.94187" lon="0.32258">
        <ele>1452.151</ele>
        <time>2021-11-12T13:57:50Z</time>
      </trkpt>
      <trkpt lat="42.9419" lon="0.32267">
        <ele>1451.828</ele>
        <time>2021-11-12T13:57:58Z</time>
      </trkpt>
      <trkpt lat="42.94193" lon="0.32279">
        <ele>1456.026</ele>
        <time>2021-11-12T13:58:04Z</time>
      </trkpt>
      <trkpt lat="42.94195" lon="0.32292">
        <ele>1458.203</ele>
        <time>2021-11-12T13:58:09Z</time>
      </trkpt>
      <trkpt lat="42.94199" lon="0.32299">
        <ele>1458.193</ele>
        <time>2021-11-12T13:58:15Z</time>
      </trkpt>
      <trkpt lat="42.94199" lon="0.32309">
        <ele>1459.979</ele>
        <time>2021-11-12T13:58:21Z</time>
      </trkpt>
      <trkpt lat="42.942" lon="0.32319">
        <ele>1455.931</ele>
        <time>2021-11-12T13:58:30Z</time>
      </trkpt>
      <trkpt lat="42.942" lon="0.32328">
        <ele>1455.899</ele>
        <time>2021-11-12T13:58:37Z</time>
      </trkpt>
      <trkpt lat="42.94201" lon="0.32338">
        <ele>1460.009</ele>
        <time>2021-11-12T13:58:46Z</time>
      </trkpt>
      <trkpt lat="42.94205" lon="0.32345">
        <ele>1459.286</ele>
        <time>2021-11-12T13:58:52Z</time>
      </trkpt>
      <trkpt lat="42.94204" lon="0.32355">
        <ele>1456.629</ele>
        <time>2021-11-12T13:58:58Z</time>
      </trkpt>
      <trkpt lat="42.94206" lon="0.32368">
        <ele>1459.014</ele>
        <time>2021-11-12T13:59:04Z</time>
      </trkpt>
      <trkpt lat="42.94207" lon="0.32377">
        <ele>1459.617</ele>
        <time>2021-11-12T13:59:09Z</time>
      </trkpt>
      <trkpt lat="42.94208" lon="0.32386">
        <ele>1456.736</ele>
        <time>2021-11-12T13:59:14Z</time>
      </trkpt>
      <trkpt lat="42.94208" lon="0.32399">
        <ele>1456.135</ele>
        <time>2021-11-12T13:59:20Z</time>
      </trkpt>
      <trkpt lat="42.94209" lon="0.32409">
        <ele>1456.45</ele>
        <time>2021-11-12T13:59:26Z</time>
      </trkpt>
      <trkpt lat="42.94208" lon="0.32418">
        <ele>1456.738</ele>
        <time>2021-11-12T13:59:33Z</time>
      </trkpt>
      <trkpt lat="42.94209" lon="0.32429">
        <ele>1459.884</ele>
        <time>2021-11-12T13:59:39Z</time>
      </trkpt>
      <trkpt lat="42.9421" lon="0.32438">
        <ele>1463.367</ele>
        <time>2021-11-12T13:59:45Z</time>
      </trkpt>
      <trkpt lat="42.94211" lon="0.32447">
        <ele>1465.371</ele>
        <time>2021-11-12T13:59:51Z</time>
      </trkpt>
      <trkpt lat="42.94213" lon="0.32457">
        <ele>1464.855</ele>
        <time>2021-11-12T13:59:58Z</time>
      </trkpt>
      <trkpt lat="42.94214" lon="0.32466">
        <ele>1462.84</ele>
        <time>2021-11-12T14:00:05Z</time>
      </trkpt>
      <trkpt lat="42.94215" lon="0.32475">
        <ele>1463.498</ele>
        <time>2021-11-12T14:00:12Z</time>
      </trkpt>
      <trkpt lat="42.94217" lon="0.32484">
        <ele>1466.362</ele>
        <time>2021-11-12T14:00:18Z</time>
      </trkpt>
      <trkpt lat="42.94218" lon="0.32496">
        <ele>1469.399</ele>
        <time>2021-11-12T14:00:24Z</time>
      </trkpt>
      <trkpt lat="42.94219" lon="0.32505">
        <ele>1470.426</ele>
        <time>2021-11-12T14:00:29Z</time>
      </trkpt>
      <trkpt lat="42.9422" lon="0.32514">
        <ele>1471.147</ele>
        <time>2021-11-12T14:00:34Z</time>
      </trkpt>
      <trkpt lat="42.94222" lon="0.32524">
        <ele>1473.104</ele>
        <time>2021-11-12T14:00:40Z</time>
      </trkpt>
      <trkpt lat="42.94224" lon="0.32532">
        <ele>1473.511</ele>
        <time>2021-11-12T14:00:46Z</time>
      </trkpt>
      <trkpt lat="42.94226" lon="0.32542">
        <ele>1473.732</ele>
        <time>2021-11-12T14:00:52Z</time>
      </trkpt>
      <trkpt lat="42.94228" lon="0.3255">
        <ele>1474.472</ele>
        <time>2021-11-12T14:00:58Z</time>
      </trkpt>
      <trkpt lat="42.9423" lon="0.3256">
        <ele>1474.794</ele>
        <time>2021-11-12T14:01:05Z</time>
      </trkpt>
      <trkpt lat="42.94232" lon="0.3257">
        <ele>1476.886</ele>
        <time>2021-11-12T14:01:12Z</time>
      </trkpt>
      <trkpt lat="42.94235" lon="0.32579">
        <ele>1477.687</ele>
        <time>2021-11-12T14:01:20Z</time>
      </trkpt>
      <trkpt lat="42.94237" lon="0.32588">
        <ele>1477.372</ele>
        <time>2021-11-12T14:01:28Z</time>
      </trkpt>
      <trkpt lat="42.94238" lon="0.32597">
        <ele>1477.734</ele>
        <time>2021-11-12T14:01:35Z</time>
      </trkpt>
      <trkpt lat="42.9424" lon="0.32606">
        <ele>1478.323</ele>
        <time>2021-11-12T14:01:42Z</time>
      </trkpt>
      <trkpt lat="42.94241" lon="0.32616">
        <ele>1481.221</ele>
        <time>2021-11-12T14:01:49Z</time>
      </trkpt>
      <trkpt lat="42.94241" lon="0.32626">
        <ele>1481.101</ele>
        <time>2021-11-12T14:01:55Z</time>
      </trkpt>
      <trkpt lat="42.94242" lon="0.32636">
        <ele>1483.129</ele>
        <time>2021-11-12T14:02:02Z</time>
      </trkpt>
      <trkpt lat="42.94243" lon="0.32646">
        <ele>1486.015</ele>
        <time>2021-11-12T14:02:08Z</time>
      </trkpt>
      <trkpt lat="42.94244" lon="0.32656">
        <ele>1487.595</ele>
        <time>2021-11-12T14:02:14Z</time>
      </trkpt>
      <trkpt lat="42.94244" lon="0.32665">
        <ele>1489.738</ele>
        <time>2021-11-12T14:02:21Z</time>
      </trkpt>
      <trkpt lat="42.94243" lon="0.32674">
        <ele>1491.225</ele>
        <time>2021-11-12T14:02:28Z</time>
      </trkpt>
      <trkpt lat="42.94242" lon="0.32683">
        <ele>1492.846</ele>
        <time>2021-11-12T14:02:37Z</time>
      </trkpt>
      <trkpt lat="42.94239" lon="0.32692">
        <ele>1490.558</ele>
        <time>2021-11-12T14:02:44Z</time>
      </trkpt>
      <trkpt lat="42.94238" lon="0.32702">
        <ele>1490.276</ele>
        <time>2021-11-12T14:02:51Z</time>
      </trkpt>
      <trkpt lat="42.94231" lon="0.32705">
        <ele>1489.754</ele>
        <time>2021-11-12T14:02:56Z</time>
      </trkpt>
      <trkpt lat="42.94224" lon="0.32708">
        <ele>1489.397</ele>
        <time>2021-11-12T14:03:01Z</time>
      </trkpt>
      <trkpt lat="42.94218" lon="0.32713">
        <ele>1490.95</ele>
        <time>2021-11-12T14:03:07Z</time>
      </trkpt>
      <trkpt lat="42.94211" lon="0.32714">
        <ele>1490.917</ele>
        <time>2021-11-12T14:06:00Z</time>
      </trkpt>
    </trkseg>
  </trk>
</gpx>